<?xml version="1.0" encoding="UTF-8" standalone="no" ?>
<gpx xmlns="http://www.topografix.com/GPX/1/1" xmlns:xsi="http://www.w3.org/2001/XMLSchema-instance" xsi:schemaLocation="http://www.topografix.com/GPX/1/1 http://www.topografix.com/GPX/1/1/gpx.xsd" version="1.1" creator="VisuGPX - https://www.visugpx.com">
  <metadata>
    <name>Rando after taf 12 mai</name>
    <desc><![CDATA[Petit tour after taf]]></desc>
  </metadata>
  <trk>
    <name><![CDATA[Petite rando after taf]]></name>
    <cmt><![CDATA[Avec Fred]]></cmt>
    <trkseg>
      <trkpt lat="43.62633" lon="7.05766">
        <ele>157</ele>
        <time>2011-05-12T15:00:02Z</time>
      </trkpt>
      <trkpt lat="43.62653" lon="7.05739">
        <ele>158</ele>
        <time>2011-05-12T15:00:10Z</time>
      </trkpt>
      <trkpt lat="43.62666" lon="7.05725">
        <ele>158</ele>
        <time>2011-05-12T15:00:15Z</time>
      </trkpt>
      <trkpt lat="43.62681" lon="7.05715">
        <ele>158</ele>
        <time>2011-05-12T15:00:20Z</time>
      </trkpt>
      <trkpt lat="43.62696" lon="7.05704">
        <ele>158</ele>
        <time>2011-05-12T15:00:25Z</time>
      </trkpt>
      <trkpt lat="43.6271" lon="7.05691">
        <ele>158</ele>
        <time>2011-05-12T15:00:30Z</time>
      </trkpt>
      <trkpt lat="43.62727" lon="7.05677">
        <ele>158</ele>
        <time>2011-05-12T15:00:35Z</time>
      </trkpt>
      <trkpt lat="43.62742" lon="7.05665">
        <ele>158</ele>
        <time>2011-05-12T15:00:40Z</time>
      </trkpt>
      <trkpt lat="43.62764" lon="7.05659">
        <ele>158</ele>
        <time>2011-05-12T15:00:46Z</time>
      </trkpt>
      <trkpt lat="43.62775" lon="7.05651">
        <ele>158</ele>
        <time>2011-05-12T15:00:51Z</time>
      </trkpt>
      <trkpt lat="43.62781" lon="7.05639">
        <ele>158</ele>
        <time>2011-05-12T15:00:56Z</time>
      </trkpt>
      <trkpt lat="43.62784" lon="7.05624">
        <ele>157</ele>
        <time>2011-05-12T15:01:01Z</time>
      </trkpt>
      <trkpt lat="43.62785" lon="7.05605">
        <ele>156</ele>
        <time>2011-05-12T15:01:06Z</time>
      </trkpt>
      <trkpt lat="43.62787" lon="7.05583">
        <ele>156</ele>
        <time>2011-05-12T15:01:11Z</time>
      </trkpt>
      <trkpt lat="43.62788" lon="7.05562">
        <ele>156</ele>
        <time>2011-05-12T15:01:16Z</time>
      </trkpt>
      <trkpt lat="43.62789" lon="7.05546">
        <ele>156</ele>
        <time>2011-05-12T15:01:21Z</time>
      </trkpt>
      <trkpt lat="43.62788" lon="7.05531">
        <ele>156</ele>
        <time>2011-05-12T15:01:26Z</time>
      </trkpt>
      <trkpt lat="43.62789" lon="7.05513">
        <ele>157</ele>
        <time>2011-05-12T15:01:31Z</time>
      </trkpt>
      <trkpt lat="43.62788" lon="7.05495">
        <ele>157</ele>
        <time>2011-05-12T15:01:36Z</time>
      </trkpt>
      <trkpt lat="43.62789" lon="7.05475">
        <ele>157</ele>
        <time>2011-05-12T15:01:41Z</time>
      </trkpt>
      <trkpt lat="43.62788" lon="7.05457">
        <ele>159</ele>
        <time>2011-05-12T15:01:46Z</time>
      </trkpt>
      <trkpt lat="43.62789" lon="7.05443">
        <ele>160</ele>
        <time>2011-05-12T15:01:51Z</time>
      </trkpt>
      <trkpt lat="43.62791" lon="7.05435">
        <ele>160</ele>
        <time>2011-05-12T15:01:57Z</time>
      </trkpt>
      <trkpt lat="43.62793" lon="7.05437">
        <ele>160</ele>
        <time>2011-05-12T15:02:04Z</time>
      </trkpt>
      <trkpt lat="43.62794" lon="7.05445">
        <ele>158</ele>
        <time>2011-05-12T15:02:11Z</time>
      </trkpt>
      <trkpt lat="43.62795" lon="7.05452">
        <ele>157</ele>
        <time>2011-05-12T15:02:16Z</time>
      </trkpt>
      <trkpt lat="43.62794" lon="7.05469">
        <ele>154</ele>
        <time>2011-05-12T15:02:21Z</time>
      </trkpt>
      <trkpt lat="43.62793" lon="7.05488">
        <ele>153</ele>
        <time>2011-05-12T15:02:26Z</time>
      </trkpt>
      <trkpt lat="43.62789" lon="7.05507">
        <ele>153</ele>
        <time>2011-05-12T15:02:31Z</time>
      </trkpt>
      <trkpt lat="43.6279" lon="7.05529">
        <ele>153</ele>
        <time>2011-05-12T15:02:36Z</time>
      </trkpt>
      <trkpt lat="43.62791" lon="7.05548">
        <ele>151</ele>
        <time>2011-05-12T15:02:41Z</time>
      </trkpt>
      <trkpt lat="43.62789" lon="7.05577">
        <ele>151</ele>
        <time>2011-05-12T15:02:46Z</time>
      </trkpt>
      <trkpt lat="43.62788" lon="7.05604">
        <ele>151</ele>
        <time>2011-05-12T15:02:51Z</time>
      </trkpt>
      <trkpt lat="43.62785" lon="7.05635">
        <ele>151</ele>
        <time>2011-05-12T15:02:56Z</time>
      </trkpt>
      <trkpt lat="43.62784" lon="7.05655">
        <ele>151</ele>
        <time>2011-05-12T15:03:01Z</time>
      </trkpt>
      <trkpt lat="43.62788" lon="7.05662">
        <ele>151</ele>
        <time>2011-05-12T15:03:06Z</time>
      </trkpt>
      <trkpt lat="43.62797" lon="7.0567">
        <ele>151</ele>
        <time>2011-05-12T15:03:11Z</time>
      </trkpt>
      <trkpt lat="43.62808" lon="7.05674">
        <ele>151</ele>
        <time>2011-05-12T15:03:16Z</time>
      </trkpt>
      <trkpt lat="43.62816" lon="7.05685">
        <ele>151</ele>
        <time>2011-05-12T15:03:21Z</time>
      </trkpt>
      <trkpt lat="43.62819" lon="7.05692">
        <ele>152</ele>
        <time>2011-05-12T15:03:27Z</time>
      </trkpt>
      <trkpt lat="43.62818" lon="7.05692">
        <ele>156</ele>
        <time>2011-05-12T15:03:33Z</time>
      </trkpt>
      <trkpt lat="43.62817" lon="7.05694">
        <ele>163</ele>
        <time>2011-05-12T15:03:44Z</time>
      </trkpt>
      <trkpt lat="43.62817" lon="7.05696">
        <ele>164</ele>
        <time>2011-05-12T15:03:54Z</time>
      </trkpt>
      <trkpt lat="43.62816" lon="7.05695">
        <ele>165</ele>
        <time>2011-05-12T15:04:08Z</time>
      </trkpt>
      <trkpt lat="43.62817" lon="7.05696">
        <ele>166</ele>
        <time>2011-05-12T15:04:19Z</time>
      </trkpt>
      <trkpt lat="43.62816" lon="7.05694">
        <ele>168</ele>
        <time>2011-05-12T15:04:27Z</time>
      </trkpt>
      <trkpt lat="43.62823" lon="7.05693">
        <ele>168</ele>
        <time>2011-05-12T15:04:32Z</time>
      </trkpt>
      <trkpt lat="43.62837" lon="7.05697">
        <ele>168</ele>
        <time>2011-05-12T15:04:37Z</time>
      </trkpt>
      <trkpt lat="43.62851" lon="7.05703">
        <ele>168</ele>
        <time>2011-05-12T15:04:42Z</time>
      </trkpt>
      <trkpt lat="43.62867" lon="7.05695">
        <ele>168</ele>
        <time>2011-05-12T15:04:47Z</time>
      </trkpt>
      <trkpt lat="43.62879" lon="7.057">
        <ele>168</ele>
        <time>2011-05-12T15:04:52Z</time>
      </trkpt>
      <trkpt lat="43.62889" lon="7.05703">
        <ele>167</ele>
        <time>2011-05-12T15:04:57Z</time>
      </trkpt>
      <trkpt lat="43.62897" lon="7.05688">
        <ele>166</ele>
        <time>2011-05-12T15:05:02Z</time>
      </trkpt>
      <trkpt lat="43.62909" lon="7.0567">
        <ele>166</ele>
        <time>2011-05-12T15:05:07Z</time>
      </trkpt>
      <trkpt lat="43.62928" lon="7.05657">
        <ele>166</ele>
        <time>2011-05-12T15:05:12Z</time>
      </trkpt>
      <trkpt lat="43.62944" lon="7.05647">
        <ele>166</ele>
        <time>2011-05-12T15:05:17Z</time>
      </trkpt>
      <trkpt lat="43.62961" lon="7.05638">
        <ele>166</ele>
        <time>2011-05-12T15:05:22Z</time>
      </trkpt>
      <trkpt lat="43.6297" lon="7.05625">
        <ele>166</ele>
        <time>2011-05-12T15:05:27Z</time>
      </trkpt>
      <trkpt lat="43.62978" lon="7.05612">
        <ele>167</ele>
        <time>2011-05-12T15:05:32Z</time>
      </trkpt>
      <trkpt lat="43.62986" lon="7.05601">
        <ele>168</ele>
        <time>2011-05-12T15:05:37Z</time>
      </trkpt>
      <trkpt lat="43.62994" lon="7.05588">
        <ele>168</ele>
        <time>2011-05-12T15:05:42Z</time>
      </trkpt>
      <trkpt lat="43.62994" lon="7.0557">
        <ele>168</ele>
        <time>2011-05-12T15:05:47Z</time>
      </trkpt>
      <trkpt lat="43.62994" lon="7.05553">
        <ele>168</ele>
        <time>2011-05-12T15:05:52Z</time>
      </trkpt>
      <trkpt lat="43.62992" lon="7.0553">
        <ele>171</ele>
        <time>2011-05-12T15:05:58Z</time>
      </trkpt>
      <trkpt lat="43.63" lon="7.05514">
        <ele>174</ele>
        <time>2011-05-12T15:06:03Z</time>
      </trkpt>
      <trkpt lat="43.63001" lon="7.05488">
        <ele>174</ele>
        <time>2011-05-12T15:06:08Z</time>
      </trkpt>
      <trkpt lat="43.62994" lon="7.05464">
        <ele>174</ele>
        <time>2011-05-12T15:06:13Z</time>
      </trkpt>
      <trkpt lat="43.62999" lon="7.05433">
        <ele>174</ele>
        <time>2011-05-12T15:06:18Z</time>
      </trkpt>
      <trkpt lat="43.63015" lon="7.05412">
        <ele>174</ele>
        <time>2011-05-12T15:06:23Z</time>
      </trkpt>
      <trkpt lat="43.63035" lon="7.05394">
        <ele>174</ele>
        <time>2011-05-12T15:06:28Z</time>
      </trkpt>
      <trkpt lat="43.63051" lon="7.05372">
        <ele>172</ele>
        <time>2011-05-12T15:06:33Z</time>
      </trkpt>
      <trkpt lat="43.63064" lon="7.05344">
        <ele>171</ele>
        <time>2011-05-12T15:06:38Z</time>
      </trkpt>
      <trkpt lat="43.63071" lon="7.05314">
        <ele>169</ele>
        <time>2011-05-12T15:06:43Z</time>
      </trkpt>
      <trkpt lat="43.63078" lon="7.05281">
        <ele>168</ele>
        <time>2011-05-12T15:06:48Z</time>
      </trkpt>
      <trkpt lat="43.63082" lon="7.05244">
        <ele>168</ele>
        <time>2011-05-12T15:06:53Z</time>
      </trkpt>
      <trkpt lat="43.63084" lon="7.05199">
        <ele>168</ele>
        <time>2011-05-12T15:06:58Z</time>
      </trkpt>
      <trkpt lat="43.63087" lon="7.0515">
        <ele>168</ele>
        <time>2011-05-12T15:07:03Z</time>
      </trkpt>
      <trkpt lat="43.63085" lon="7.05107">
        <ele>168</ele>
        <time>2011-05-12T15:07:08Z</time>
      </trkpt>
      <trkpt lat="43.63083" lon="7.05063">
        <ele>167</ele>
        <time>2011-05-12T15:07:13Z</time>
      </trkpt>
      <trkpt lat="43.63086" lon="7.05036">
        <ele>163</ele>
        <time>2011-05-12T15:07:18Z</time>
      </trkpt>
      <trkpt lat="43.63096" lon="7.05017">
        <ele>159</ele>
        <time>2011-05-12T15:07:23Z</time>
      </trkpt>
      <trkpt lat="43.63108" lon="7.05004">
        <ele>154</ele>
        <time>2011-05-12T15:07:28Z</time>
      </trkpt>
      <trkpt lat="43.63118" lon="7.04986">
        <ele>152</ele>
        <time>2011-05-12T15:07:33Z</time>
      </trkpt>
      <trkpt lat="43.63128" lon="7.04976">
        <ele>149</ele>
        <time>2011-05-12T15:07:38Z</time>
      </trkpt>
      <trkpt lat="43.63136" lon="7.04971">
        <ele>146</ele>
        <time>2011-05-12T15:07:44Z</time>
      </trkpt>
      <trkpt lat="43.63138" lon="7.04968">
        <ele>145</ele>
        <time>2011-05-12T15:07:50Z</time>
      </trkpt>
      <trkpt lat="43.63142" lon="7.04967">
        <ele>145</ele>
        <time>2011-05-12T15:07:58Z</time>
      </trkpt>
      <trkpt lat="43.63144" lon="7.04966">
        <ele>145</ele>
        <time>2011-05-12T15:08:17Z</time>
      </trkpt>
      <trkpt lat="43.63145" lon="7.04967">
        <ele>145</ele>
        <time>2011-05-12T15:08:38Z</time>
      </trkpt>
      <trkpt lat="43.63144" lon="7.04966">
        <ele>145</ele>
        <time>2011-05-12T15:08:47Z</time>
      </trkpt>
      <trkpt lat="43.63142" lon="7.04965">
        <ele>145</ele>
        <time>2011-05-12T15:08:53Z</time>
      </trkpt>
      <trkpt lat="43.63141" lon="7.04965">
        <ele>145</ele>
        <time>2011-05-12T15:09:03Z</time>
      </trkpt>
      <trkpt lat="43.63141" lon="7.04967">
        <ele>145</ele>
        <time>2011-05-12T15:09:27Z</time>
      </trkpt>
      <trkpt lat="43.63141" lon="7.04969">
        <ele>145</ele>
        <time>2011-05-12T15:09:44Z</time>
      </trkpt>
      <trkpt lat="43.63139" lon="7.04969">
        <ele>145</ele>
        <time>2011-05-12T15:09:56Z</time>
      </trkpt>
      <trkpt lat="43.63143" lon="7.04959">
        <ele>145</ele>
        <time>2011-05-12T15:10:01Z</time>
      </trkpt>
      <trkpt lat="43.63144" lon="7.04933">
        <ele>144</ele>
        <time>2011-05-12T15:10:06Z</time>
      </trkpt>
      <trkpt lat="43.63139" lon="7.04915">
        <ele>144</ele>
        <time>2011-05-12T15:10:11Z</time>
      </trkpt>
      <trkpt lat="43.63135" lon="7.04897">
        <ele>144</ele>
        <time>2011-05-12T15:10:16Z</time>
      </trkpt>
      <trkpt lat="43.6313" lon="7.04879">
        <ele>145</ele>
        <time>2011-05-12T15:10:21Z</time>
      </trkpt>
      <trkpt lat="43.63128" lon="7.0486">
        <ele>147</ele>
        <time>2011-05-12T15:10:26Z</time>
      </trkpt>
      <trkpt lat="43.63121" lon="7.04841">
        <ele>149</ele>
        <time>2011-05-12T15:10:31Z</time>
      </trkpt>
      <trkpt lat="43.63113" lon="7.04821">
        <ele>151</ele>
        <time>2011-05-12T15:10:36Z</time>
      </trkpt>
      <trkpt lat="43.63108" lon="7.04798">
        <ele>152</ele>
        <time>2011-05-12T15:10:41Z</time>
      </trkpt>
      <trkpt lat="43.63093" lon="7.04786">
        <ele>154</ele>
        <time>2011-05-12T15:10:46Z</time>
      </trkpt>
      <trkpt lat="43.63083" lon="7.04768">
        <ele>156</ele>
        <time>2011-05-12T15:10:51Z</time>
      </trkpt>
      <trkpt lat="43.6308" lon="7.04744">
        <ele>156</ele>
        <time>2011-05-12T15:10:56Z</time>
      </trkpt>
      <trkpt lat="43.63079" lon="7.04716">
        <ele>156</ele>
        <time>2011-05-12T15:11:01Z</time>
      </trkpt>
      <trkpt lat="43.63073" lon="7.04692">
        <ele>157</ele>
        <time>2011-05-12T15:11:06Z</time>
      </trkpt>
      <trkpt lat="43.63062" lon="7.04672">
        <ele>157</ele>
        <time>2011-05-12T15:11:11Z</time>
      </trkpt>
      <trkpt lat="43.63049" lon="7.04657">
        <ele>158</ele>
        <time>2011-05-12T15:11:16Z</time>
      </trkpt>
      <trkpt lat="43.63037" lon="7.04649">
        <ele>159</ele>
        <time>2011-05-12T15:11:21Z</time>
      </trkpt>
      <trkpt lat="43.63024" lon="7.04644">
        <ele>160</ele>
        <time>2011-05-12T15:11:26Z</time>
      </trkpt>
      <trkpt lat="43.63013" lon="7.04634">
        <ele>162</ele>
        <time>2011-05-12T15:11:31Z</time>
      </trkpt>
      <trkpt lat="43.63004" lon="7.04622">
        <ele>164</ele>
        <time>2011-05-12T15:11:36Z</time>
      </trkpt>
      <trkpt lat="43.62994" lon="7.04608">
        <ele>165</ele>
        <time>2011-05-12T15:11:41Z</time>
      </trkpt>
      <trkpt lat="43.62986" lon="7.04593">
        <ele>166</ele>
        <time>2011-05-12T15:11:46Z</time>
      </trkpt>
      <trkpt lat="43.62975" lon="7.04582">
        <ele>168</ele>
        <time>2011-05-12T15:11:51Z</time>
      </trkpt>
      <trkpt lat="43.62963" lon="7.04573">
        <ele>170</ele>
        <time>2011-05-12T15:11:56Z</time>
      </trkpt>
      <trkpt lat="43.62949" lon="7.04566">
        <ele>171</ele>
        <time>2011-05-12T15:12:01Z</time>
      </trkpt>
      <trkpt lat="43.62934" lon="7.04559">
        <ele>172</ele>
        <time>2011-05-12T15:12:06Z</time>
      </trkpt>
      <trkpt lat="43.62922" lon="7.04547">
        <ele>173</ele>
        <time>2011-05-12T15:12:11Z</time>
      </trkpt>
      <trkpt lat="43.62914" lon="7.04539">
        <ele>174</ele>
        <time>2011-05-12T15:12:16Z</time>
      </trkpt>
      <trkpt lat="43.62908" lon="7.0453">
        <ele>174</ele>
        <time>2011-05-12T15:12:21Z</time>
      </trkpt>
      <trkpt lat="43.62905" lon="7.04526">
        <ele>175</ele>
        <time>2011-05-12T15:12:36Z</time>
      </trkpt>
      <trkpt lat="43.62906" lon="7.04524">
        <ele>177</ele>
        <time>2011-05-12T15:12:47Z</time>
      </trkpt>
      <trkpt lat="43.62909" lon="7.04522">
        <ele>177</ele>
        <time>2011-05-12T15:12:54Z</time>
      </trkpt>
      <trkpt lat="43.62909" lon="7.04524">
        <ele>177</ele>
        <time>2011-05-12T15:12:59Z</time>
      </trkpt>
      <trkpt lat="43.62909" lon="7.04525">
        <ele>177</ele>
        <time>2011-05-12T15:13:05Z</time>
      </trkpt>
      <trkpt lat="43.62909" lon="7.04527">
        <ele>177</ele>
        <time>2011-05-12T15:13:15Z</time>
      </trkpt>
      <trkpt lat="43.62909" lon="7.04528">
        <ele>176</ele>
        <time>2011-05-12T15:13:35Z</time>
      </trkpt>
      <trkpt lat="43.62909" lon="7.0453">
        <ele>176</ele>
        <time>2011-05-12T15:13:40Z</time>
      </trkpt>
      <trkpt lat="43.62908" lon="7.04531">
        <ele>176</ele>
        <time>2011-05-12T15:13:47Z</time>
      </trkpt>
      <trkpt lat="43.62908" lon="7.04533">
        <ele>177</ele>
        <time>2011-05-12T15:14:12Z</time>
      </trkpt>
      <trkpt lat="43.62909" lon="7.04532">
        <ele>180</ele>
        <time>2011-05-12T15:14:22Z</time>
      </trkpt>
      <trkpt lat="43.6291" lon="7.0453">
        <ele>180</ele>
        <time>2011-05-12T15:14:28Z</time>
      </trkpt>
      <trkpt lat="43.62911" lon="7.04527">
        <ele>180</ele>
        <time>2011-05-12T15:14:38Z</time>
      </trkpt>
      <trkpt lat="43.62911" lon="7.04525">
        <ele>180</ele>
        <time>2011-05-12T15:14:43Z</time>
      </trkpt>
      <trkpt lat="43.6291" lon="7.04524">
        <ele>179</ele>
        <time>2011-05-12T15:14:53Z</time>
      </trkpt>
      <trkpt lat="43.62909" lon="7.04522">
        <ele>179</ele>
        <time>2011-05-12T15:15:00Z</time>
      </trkpt>
      <trkpt lat="43.6291" lon="7.0452">
        <ele>179</ele>
        <time>2011-05-12T15:15:19Z</time>
      </trkpt>
      <trkpt lat="43.62905" lon="7.04511">
        <ele>179</ele>
        <time>2011-05-12T15:15:24Z</time>
      </trkpt>
      <trkpt lat="43.62904" lon="7.04497">
        <ele>179</ele>
        <time>2011-05-12T15:15:29Z</time>
      </trkpt>
      <trkpt lat="43.62897" lon="7.04473">
        <ele>179</ele>
        <time>2011-05-12T15:15:34Z</time>
      </trkpt>
      <trkpt lat="43.62892" lon="7.04447">
        <ele>179</ele>
        <time>2011-05-12T15:15:39Z</time>
      </trkpt>
      <trkpt lat="43.62892" lon="7.04428">
        <ele>179</ele>
        <time>2011-05-12T15:15:44Z</time>
      </trkpt>
      <trkpt lat="43.62891" lon="7.04419">
        <ele>179</ele>
        <time>2011-05-12T15:15:49Z</time>
      </trkpt>
      <trkpt lat="43.62902" lon="7.04413">
        <ele>179</ele>
        <time>2011-05-12T15:15:54Z</time>
      </trkpt>
      <trkpt lat="43.6291" lon="7.04399">
        <ele>179</ele>
        <time>2011-05-12T15:15:59Z</time>
      </trkpt>
      <trkpt lat="43.62915" lon="7.04389">
        <ele>179</ele>
        <time>2011-05-12T15:16:04Z</time>
      </trkpt>
      <trkpt lat="43.62924" lon="7.04382">
        <ele>179</ele>
        <time>2011-05-12T15:16:09Z</time>
      </trkpt>
      <trkpt lat="43.62936" lon="7.04388">
        <ele>179</ele>
        <time>2011-05-12T15:16:14Z</time>
      </trkpt>
      <trkpt lat="43.62948" lon="7.04391">
        <ele>179</ele>
        <time>2011-05-12T15:16:19Z</time>
      </trkpt>
      <trkpt lat="43.6296" lon="7.04388">
        <ele>179</ele>
        <time>2011-05-12T15:16:24Z</time>
      </trkpt>
      <trkpt lat="43.62976" lon="7.04382">
        <ele>180</ele>
        <time>2011-05-12T15:16:29Z</time>
      </trkpt>
      <trkpt lat="43.62991" lon="7.04378">
        <ele>181</ele>
        <time>2011-05-12T15:16:34Z</time>
      </trkpt>
      <trkpt lat="43.63004" lon="7.04375">
        <ele>183</ele>
        <time>2011-05-12T15:16:39Z</time>
      </trkpt>
      <trkpt lat="43.63019" lon="7.04371">
        <ele>184</ele>
        <time>2011-05-12T15:16:44Z</time>
      </trkpt>
      <trkpt lat="43.63032" lon="7.04364">
        <ele>184</ele>
        <time>2011-05-12T15:16:49Z</time>
      </trkpt>
      <trkpt lat="43.63043" lon="7.0436">
        <ele>185</ele>
        <time>2011-05-12T15:16:54Z</time>
      </trkpt>
      <trkpt lat="43.63055" lon="7.04361">
        <ele>185</ele>
        <time>2011-05-12T15:16:59Z</time>
      </trkpt>
      <trkpt lat="43.63065" lon="7.0436">
        <ele>185</ele>
        <time>2011-05-12T15:17:04Z</time>
      </trkpt>
      <trkpt lat="43.63075" lon="7.0436">
        <ele>185</ele>
        <time>2011-05-12T15:17:09Z</time>
      </trkpt>
      <trkpt lat="43.63084" lon="7.04357">
        <ele>185</ele>
        <time>2011-05-12T15:17:14Z</time>
      </trkpt>
      <trkpt lat="43.63097" lon="7.04344">
        <ele>185</ele>
        <time>2011-05-12T15:17:19Z</time>
      </trkpt>
      <trkpt lat="43.63113" lon="7.04337">
        <ele>186</ele>
        <time>2011-05-12T15:17:24Z</time>
      </trkpt>
      <trkpt lat="43.63126" lon="7.04331">
        <ele>186</ele>
        <time>2011-05-12T15:17:29Z</time>
      </trkpt>
      <trkpt lat="43.63132" lon="7.04319">
        <ele>187</ele>
        <time>2011-05-12T15:17:34Z</time>
      </trkpt>
      <trkpt lat="43.63145" lon="7.04315">
        <ele>188</ele>
        <time>2011-05-12T15:17:39Z</time>
      </trkpt>
      <trkpt lat="43.63154" lon="7.04312">
        <ele>189</ele>
        <time>2011-05-12T15:17:44Z</time>
      </trkpt>
      <trkpt lat="43.63155" lon="7.04312">
        <ele>190</ele>
        <time>2011-05-12T15:17:57Z</time>
      </trkpt>
      <trkpt lat="43.63154" lon="7.04311">
        <ele>194</ele>
        <time>2011-05-12T15:18:56Z</time>
      </trkpt>
      <trkpt lat="43.63153" lon="7.04312">
        <ele>194</ele>
        <time>2011-05-12T15:19:14Z</time>
      </trkpt>
      <trkpt lat="43.63153" lon="7.04311">
        <ele>193</ele>
        <time>2011-05-12T15:20:20Z</time>
      </trkpt>
      <trkpt lat="43.63156" lon="7.0431">
        <ele>193</ele>
        <time>2011-05-12T15:20:25Z</time>
      </trkpt>
      <trkpt lat="43.63165" lon="7.0431">
        <ele>193</ele>
        <time>2011-05-12T15:20:30Z</time>
      </trkpt>
      <trkpt lat="43.63162" lon="7.04291">
        <ele>193</ele>
        <time>2011-05-12T15:20:35Z</time>
      </trkpt>
      <trkpt lat="43.6315" lon="7.0427">
        <ele>193</ele>
        <time>2011-05-12T15:20:40Z</time>
      </trkpt>
      <trkpt lat="43.63139" lon="7.04247">
        <ele>193</ele>
        <time>2011-05-12T15:20:45Z</time>
      </trkpt>
      <trkpt lat="43.63129" lon="7.04223">
        <ele>196</ele>
        <time>2011-05-12T15:20:50Z</time>
      </trkpt>
      <trkpt lat="43.63115" lon="7.04197">
        <ele>199</ele>
        <time>2011-05-12T15:20:55Z</time>
      </trkpt>
      <trkpt lat="43.63099" lon="7.04173">
        <ele>200</ele>
        <time>2011-05-12T15:21:00Z</time>
      </trkpt>
      <trkpt lat="43.63083" lon="7.0415">
        <ele>201</ele>
        <time>2011-05-12T15:21:05Z</time>
      </trkpt>
      <trkpt lat="43.63063" lon="7.04138">
        <ele>201</ele>
        <time>2011-05-12T15:21:10Z</time>
      </trkpt>
      <trkpt lat="43.63049" lon="7.0412">
        <ele>201</ele>
        <time>2011-05-12T15:21:15Z</time>
      </trkpt>
      <trkpt lat="43.63037" lon="7.04098">
        <ele>201</ele>
        <time>2011-05-12T15:21:20Z</time>
      </trkpt>
      <trkpt lat="43.63026" lon="7.04082">
        <ele>201</ele>
        <time>2011-05-12T15:21:25Z</time>
      </trkpt>
      <trkpt lat="43.63004" lon="7.04072">
        <ele>200</ele>
        <time>2011-05-12T15:21:30Z</time>
      </trkpt>
      <trkpt lat="43.62978" lon="7.04077">
        <ele>196</ele>
        <time>2011-05-12T15:21:35Z</time>
      </trkpt>
      <trkpt lat="43.62956" lon="7.04061">
        <ele>194</ele>
        <time>2011-05-12T15:21:40Z</time>
      </trkpt>
      <trkpt lat="43.62939" lon="7.04036">
        <ele>193</ele>
        <time>2011-05-12T15:21:45Z</time>
      </trkpt>
      <trkpt lat="43.62935" lon="7.04024">
        <ele>193</ele>
        <time>2011-05-12T15:21:50Z</time>
      </trkpt>
      <trkpt lat="43.62934" lon="7.04021">
        <ele>193</ele>
        <time>2011-05-12T15:21:56Z</time>
      </trkpt>
      <trkpt lat="43.62935" lon="7.04018">
        <ele>193</ele>
        <time>2011-05-12T15:22:05Z</time>
      </trkpt>
      <trkpt lat="43.62938" lon="7.04018">
        <ele>193</ele>
        <time>2011-05-12T15:22:11Z</time>
      </trkpt>
      <trkpt lat="43.62938" lon="7.04019">
        <ele>196</ele>
        <time>2011-05-12T15:22:21Z</time>
      </trkpt>
      <trkpt lat="43.62939" lon="7.04021">
        <ele>200</ele>
        <time>2011-05-12T15:22:26Z</time>
      </trkpt>
      <trkpt lat="43.62943" lon="7.04018">
        <ele>205</ele>
        <time>2011-05-12T15:22:44Z</time>
      </trkpt>
      <trkpt lat="43.62944" lon="7.04016">
        <ele>205</ele>
        <time>2011-05-12T15:22:55Z</time>
      </trkpt>
      <trkpt lat="43.62947" lon="7.03998">
        <ele>205</ele>
        <time>2011-05-12T15:23:00Z</time>
      </trkpt>
      <trkpt lat="43.62936" lon="7.03966">
        <ele>204</ele>
        <time>2011-05-12T15:23:05Z</time>
      </trkpt>
      <trkpt lat="43.62921" lon="7.03941">
        <ele>204</ele>
        <time>2011-05-12T15:23:10Z</time>
      </trkpt>
      <trkpt lat="43.62913" lon="7.03915">
        <ele>204</ele>
        <time>2011-05-12T15:23:15Z</time>
      </trkpt>
      <trkpt lat="43.62913" lon="7.03889">
        <ele>204</ele>
        <time>2011-05-12T15:23:20Z</time>
      </trkpt>
      <trkpt lat="43.62914" lon="7.03856">
        <ele>204</ele>
        <time>2011-05-12T15:23:25Z</time>
      </trkpt>
      <trkpt lat="43.62917" lon="7.03819">
        <ele>204</ele>
        <time>2011-05-12T15:23:30Z</time>
      </trkpt>
      <trkpt lat="43.62934" lon="7.03798">
        <ele>204</ele>
        <time>2011-05-12T15:23:35Z</time>
      </trkpt>
      <trkpt lat="43.62937" lon="7.0377">
        <ele>204</ele>
        <time>2011-05-12T15:23:40Z</time>
      </trkpt>
      <trkpt lat="43.62933" lon="7.03748">
        <ele>206</ele>
        <time>2011-05-12T15:23:45Z</time>
      </trkpt>
      <trkpt lat="43.62923" lon="7.03736">
        <ele>208</ele>
        <time>2011-05-12T15:23:50Z</time>
      </trkpt>
      <trkpt lat="43.62926" lon="7.03711">
        <ele>208</ele>
        <time>2011-05-12T15:23:55Z</time>
      </trkpt>
      <trkpt lat="43.62919" lon="7.03684">
        <ele>208</ele>
        <time>2011-05-12T15:24:00Z</time>
      </trkpt>
      <trkpt lat="43.62899" lon="7.03666">
        <ele>208</ele>
        <time>2011-05-12T15:24:05Z</time>
      </trkpt>
      <trkpt lat="43.62884" lon="7.03641">
        <ele>207</ele>
        <time>2011-05-12T15:24:10Z</time>
      </trkpt>
      <trkpt lat="43.62875" lon="7.03615">
        <ele>206</ele>
        <time>2011-05-12T15:24:15Z</time>
      </trkpt>
      <trkpt lat="43.62864" lon="7.03607">
        <ele>204</ele>
        <time>2011-05-12T15:24:20Z</time>
      </trkpt>
      <trkpt lat="43.62859" lon="7.03596">
        <ele>202</ele>
        <time>2011-05-12T15:24:25Z</time>
      </trkpt>
      <trkpt lat="43.62849" lon="7.03573">
        <ele>200</ele>
        <time>2011-05-12T15:24:30Z</time>
      </trkpt>
      <trkpt lat="43.62838" lon="7.03558">
        <ele>200</ele>
        <time>2011-05-12T15:24:35Z</time>
      </trkpt>
      <trkpt lat="43.62838" lon="7.03551">
        <ele>200</ele>
        <time>2011-05-12T15:24:40Z</time>
      </trkpt>
      <trkpt lat="43.62839" lon="7.03546">
        <ele>200</ele>
        <time>2011-05-12T15:24:45Z</time>
      </trkpt>
      <trkpt lat="43.6284" lon="7.03547">
        <ele>200</ele>
        <time>2011-05-12T15:25:04Z</time>
      </trkpt>
      <trkpt lat="43.62841" lon="7.03548">
        <ele>200</ele>
        <time>2011-05-12T15:25:40Z</time>
      </trkpt>
      <trkpt lat="43.62841" lon="7.03554">
        <ele>200</ele>
        <time>2011-05-12T15:25:45Z</time>
      </trkpt>
      <trkpt lat="43.62839" lon="7.03554">
        <ele>200</ele>
        <time>2011-05-12T15:25:50Z</time>
      </trkpt>
      <trkpt lat="43.62841" lon="7.03545">
        <ele>200</ele>
        <time>2011-05-12T15:25:55Z</time>
      </trkpt>
      <trkpt lat="43.62842" lon="7.03542">
        <ele>200</ele>
        <time>2011-05-12T15:26:11Z</time>
      </trkpt>
      <trkpt lat="43.62844" lon="7.03532">
        <ele>200</ele>
        <time>2011-05-12T15:26:16Z</time>
      </trkpt>
      <trkpt lat="43.62851" lon="7.03518">
        <ele>200</ele>
        <time>2011-05-12T15:26:21Z</time>
      </trkpt>
      <trkpt lat="43.6286" lon="7.035">
        <ele>200</ele>
        <time>2011-05-12T15:26:26Z</time>
      </trkpt>
      <trkpt lat="43.6287" lon="7.03483">
        <ele>200</ele>
        <time>2011-05-12T15:26:31Z</time>
      </trkpt>
      <trkpt lat="43.6288" lon="7.03464">
        <ele>200</ele>
        <time>2011-05-12T15:26:36Z</time>
      </trkpt>
      <trkpt lat="43.62894" lon="7.0344">
        <ele>199</ele>
        <time>2011-05-12T15:26:41Z</time>
      </trkpt>
      <trkpt lat="43.62905" lon="7.0342">
        <ele>198</ele>
        <time>2011-05-12T15:26:46Z</time>
      </trkpt>
      <trkpt lat="43.62906" lon="7.03402">
        <ele>197</ele>
        <time>2011-05-12T15:26:51Z</time>
      </trkpt>
      <trkpt lat="43.62903" lon="7.03398">
        <ele>196</ele>
        <time>2011-05-12T15:26:57Z</time>
      </trkpt>
      <trkpt lat="43.62899" lon="7.0338">
        <ele>195</ele>
        <time>2011-05-12T15:27:02Z</time>
      </trkpt>
      <trkpt lat="43.62896" lon="7.03349">
        <ele>195</ele>
        <time>2011-05-12T15:27:07Z</time>
      </trkpt>
      <trkpt lat="43.62896" lon="7.03314">
        <ele>194</ele>
        <time>2011-05-12T15:27:12Z</time>
      </trkpt>
      <trkpt lat="43.62888" lon="7.03292">
        <ele>192</ele>
        <time>2011-05-12T15:27:17Z</time>
      </trkpt>
      <trkpt lat="43.62878" lon="7.03275">
        <ele>191</ele>
        <time>2011-05-12T15:27:22Z</time>
      </trkpt>
      <trkpt lat="43.62872" lon="7.03264">
        <ele>189</ele>
        <time>2011-05-12T15:27:27Z</time>
      </trkpt>
      <trkpt lat="43.62858" lon="7.03247">
        <ele>188</ele>
        <time>2011-05-12T15:27:32Z</time>
      </trkpt>
      <trkpt lat="43.62848" lon="7.03231">
        <ele>188</ele>
        <time>2011-05-12T15:27:37Z</time>
      </trkpt>
      <trkpt lat="43.62855" lon="7.0321">
        <ele>188</ele>
        <time>2011-05-12T15:27:42Z</time>
      </trkpt>
      <trkpt lat="43.62861" lon="7.03192">
        <ele>188</ele>
        <time>2011-05-12T15:27:47Z</time>
      </trkpt>
      <trkpt lat="43.62874" lon="7.03168">
        <ele>188</ele>
        <time>2011-05-12T15:27:52Z</time>
      </trkpt>
      <trkpt lat="43.62883" lon="7.03153">
        <ele>188</ele>
        <time>2011-05-12T15:27:57Z</time>
      </trkpt>
      <trkpt lat="43.62888" lon="7.03116">
        <ele>188</ele>
        <time>2011-05-12T15:28:02Z</time>
      </trkpt>
      <trkpt lat="43.62883" lon="7.03073">
        <ele>188</ele>
        <time>2011-05-12T15:28:07Z</time>
      </trkpt>
      <trkpt lat="43.6288" lon="7.03034">
        <ele>188</ele>
        <time>2011-05-12T15:28:12Z</time>
      </trkpt>
      <trkpt lat="43.62886" lon="7.03015">
        <ele>185</ele>
        <time>2011-05-12T15:28:17Z</time>
      </trkpt>
      <trkpt lat="43.62895" lon="7.02995">
        <ele>182</ele>
        <time>2011-05-12T15:28:22Z</time>
      </trkpt>
      <trkpt lat="43.62898" lon="7.02976">
        <ele>182</ele>
        <time>2011-05-12T15:28:27Z</time>
      </trkpt>
      <trkpt lat="43.62898" lon="7.02954">
        <ele>181</ele>
        <time>2011-05-12T15:28:32Z</time>
      </trkpt>
      <trkpt lat="43.62899" lon="7.02925">
        <ele>179</ele>
        <time>2011-05-12T15:28:37Z</time>
      </trkpt>
      <trkpt lat="43.62896" lon="7.02888">
        <ele>176</ele>
        <time>2011-05-12T15:28:42Z</time>
      </trkpt>
      <trkpt lat="43.62894" lon="7.02857">
        <ele>174</ele>
        <time>2011-05-12T15:28:47Z</time>
      </trkpt>
      <trkpt lat="43.62891" lon="7.0282">
        <ele>172</ele>
        <time>2011-05-12T15:28:52Z</time>
      </trkpt>
      <trkpt lat="43.62881" lon="7.02788">
        <ele>169</ele>
        <time>2011-05-12T15:28:57Z</time>
      </trkpt>
      <trkpt lat="43.62873" lon="7.0277">
        <ele>166</ele>
        <time>2011-05-12T15:29:02Z</time>
      </trkpt>
      <trkpt lat="43.62866" lon="7.02767">
        <ele>163</ele>
        <time>2011-05-12T15:29:07Z</time>
      </trkpt>
      <trkpt lat="43.62862" lon="7.02764">
        <ele>161</ele>
        <time>2011-05-12T15:29:12Z</time>
      </trkpt>
      <trkpt lat="43.62859" lon="7.02763">
        <ele>161</ele>
        <time>2011-05-12T15:29:18Z</time>
      </trkpt>
      <trkpt lat="43.6286" lon="7.02767">
        <ele>160</ele>
        <time>2011-05-12T15:29:42Z</time>
      </trkpt>
      <trkpt lat="43.62862" lon="7.02767">
        <ele>160</ele>
        <time>2011-05-12T15:29:56Z</time>
      </trkpt>
      <trkpt lat="43.62868" lon="7.02763">
        <ele>160</ele>
        <time>2011-05-12T15:30:02Z</time>
      </trkpt>
      <trkpt lat="43.6287" lon="7.02761">
        <ele>164</ele>
        <time>2011-05-12T15:30:15Z</time>
      </trkpt>
      <trkpt lat="43.62869" lon="7.02762">
        <ele>164</ele>
        <time>2011-05-12T15:30:25Z</time>
      </trkpt>
      <trkpt lat="43.62867" lon="7.02762">
        <ele>164</ele>
        <time>2011-05-12T15:30:30Z</time>
      </trkpt>
      <trkpt lat="43.62865" lon="7.02764">
        <ele>164</ele>
        <time>2011-05-12T15:30:44Z</time>
      </trkpt>
      <trkpt lat="43.62863" lon="7.02767">
        <ele>164</ele>
        <time>2011-05-12T15:30:50Z</time>
      </trkpt>
      <trkpt lat="43.62862" lon="7.02768">
        <ele>164</ele>
        <time>2011-05-12T15:30:55Z</time>
      </trkpt>
      <trkpt lat="43.6286" lon="7.02769">
        <ele>164</ele>
        <time>2011-05-12T15:31:09Z</time>
      </trkpt>
      <trkpt lat="43.6286" lon="7.02771">
        <ele>164</ele>
        <time>2011-05-12T15:31:24Z</time>
      </trkpt>
      <trkpt lat="43.62863" lon="7.0277">
        <ele>165</ele>
        <time>2011-05-12T15:31:29Z</time>
      </trkpt>
      <trkpt lat="43.62864" lon="7.02768">
        <ele>169</ele>
        <time>2011-05-12T15:31:44Z</time>
      </trkpt>
      <trkpt lat="43.62863" lon="7.02766">
        <ele>170</ele>
        <time>2011-05-12T15:32:07Z</time>
      </trkpt>
      <trkpt lat="43.6286" lon="7.02765">
        <ele>172</ele>
        <time>2011-05-12T15:32:18Z</time>
      </trkpt>
      <trkpt lat="43.62859" lon="7.02766">
        <ele>176</ele>
        <time>2011-05-12T15:32:28Z</time>
      </trkpt>
      <trkpt lat="43.62859" lon="7.02768">
        <ele>177</ele>
        <time>2011-05-12T15:32:40Z</time>
      </trkpt>
      <trkpt lat="43.62861" lon="7.02769">
        <ele>178</ele>
        <time>2011-05-12T15:32:46Z</time>
      </trkpt>
      <trkpt lat="43.62862" lon="7.02768">
        <ele>177</ele>
        <time>2011-05-12T15:33:26Z</time>
      </trkpt>
      <trkpt lat="43.62866" lon="7.02766">
        <ele>176</ele>
        <time>2011-05-12T15:33:33Z</time>
      </trkpt>
      <trkpt lat="43.62866" lon="7.02765">
        <ele>175</ele>
        <time>2011-05-12T15:33:46Z</time>
      </trkpt>
      <trkpt lat="43.62863" lon="7.02765">
        <ele>171</ele>
        <time>2011-05-12T15:33:54Z</time>
      </trkpt>
      <trkpt lat="43.62862" lon="7.02766">
        <ele>169</ele>
        <time>2011-05-12T15:34:07Z</time>
      </trkpt>
      <trkpt lat="43.62863" lon="7.02767">
        <ele>169</ele>
        <time>2011-05-12T15:34:16Z</time>
      </trkpt>
      <trkpt lat="43.62864" lon="7.02768">
        <ele>169</ele>
        <time>2011-05-12T15:34:25Z</time>
      </trkpt>
      <trkpt lat="43.62863" lon="7.02769">
        <ele>169</ele>
        <time>2011-05-12T15:34:35Z</time>
      </trkpt>
      <trkpt lat="43.62862" lon="7.02771">
        <ele>169</ele>
        <time>2011-05-12T15:34:43Z</time>
      </trkpt>
      <trkpt lat="43.62859" lon="7.02771">
        <ele>168</ele>
        <time>2011-05-12T15:35:06Z</time>
      </trkpt>
      <trkpt lat="43.6286" lon="7.02769">
        <ele>166</ele>
        <time>2011-05-12T15:35:17Z</time>
      </trkpt>
      <trkpt lat="43.6286" lon="7.02768">
        <ele>166</ele>
        <time>2011-05-12T15:35:25Z</time>
      </trkpt>
      <trkpt lat="43.6286" lon="7.02766">
        <ele>166</ele>
        <time>2011-05-12T15:35:31Z</time>
      </trkpt>
      <trkpt lat="43.62862" lon="7.02766">
        <ele>166</ele>
        <time>2011-05-12T15:35:47Z</time>
      </trkpt>
      <trkpt lat="43.62861" lon="7.02764">
        <ele>166</ele>
        <time>2011-05-12T15:35:54Z</time>
      </trkpt>
      <trkpt lat="43.62854" lon="7.02754">
        <ele>166</ele>
        <time>2011-05-12T15:35:59Z</time>
      </trkpt>
      <trkpt lat="43.62842" lon="7.0274">
        <ele>166</ele>
        <time>2011-05-12T15:36:04Z</time>
      </trkpt>
      <trkpt lat="43.6283" lon="7.02728">
        <ele>166</ele>
        <time>2011-05-12T15:36:09Z</time>
      </trkpt>
      <trkpt lat="43.62817" lon="7.02719">
        <ele>166</ele>
        <time>2011-05-12T15:36:14Z</time>
      </trkpt>
      <trkpt lat="43.62804" lon="7.02712">
        <ele>167</ele>
        <time>2011-05-12T15:36:19Z</time>
      </trkpt>
      <trkpt lat="43.6279" lon="7.02702">
        <ele>168</ele>
        <time>2011-05-12T15:36:24Z</time>
      </trkpt>
      <trkpt lat="43.62777" lon="7.02688">
        <ele>170</ele>
        <time>2011-05-12T15:36:29Z</time>
      </trkpt>
      <trkpt lat="43.62768" lon="7.02669">
        <ele>172</ele>
        <time>2011-05-12T15:36:34Z</time>
      </trkpt>
      <trkpt lat="43.6276" lon="7.02648">
        <ele>173</ele>
        <time>2011-05-12T15:36:39Z</time>
      </trkpt>
      <trkpt lat="43.62749" lon="7.02631">
        <ele>175</ele>
        <time>2011-05-12T15:36:44Z</time>
      </trkpt>
      <trkpt lat="43.62736" lon="7.02618">
        <ele>176</ele>
        <time>2011-05-12T15:36:49Z</time>
      </trkpt>
      <trkpt lat="43.62721" lon="7.0261">
        <ele>177</ele>
        <time>2011-05-12T15:36:54Z</time>
      </trkpt>
      <trkpt lat="43.62705" lon="7.02606">
        <ele>178</ele>
        <time>2011-05-12T15:36:59Z</time>
      </trkpt>
      <trkpt lat="43.62687" lon="7.02606">
        <ele>178</ele>
        <time>2011-05-12T15:37:04Z</time>
      </trkpt>
      <trkpt lat="43.62672" lon="7.0261">
        <ele>179</ele>
        <time>2011-05-12T15:37:09Z</time>
      </trkpt>
      <trkpt lat="43.62657" lon="7.02617">
        <ele>179</ele>
        <time>2011-05-12T15:37:14Z</time>
      </trkpt>
      <trkpt lat="43.62643" lon="7.02624">
        <ele>179</ele>
        <time>2011-05-12T15:37:19Z</time>
      </trkpt>
      <trkpt lat="43.62629" lon="7.02633">
        <ele>181</ele>
        <time>2011-05-12T15:37:24Z</time>
      </trkpt>
      <trkpt lat="43.62617" lon="7.02642">
        <ele>183</ele>
        <time>2011-05-12T15:37:29Z</time>
      </trkpt>
      <trkpt lat="43.62603" lon="7.02648">
        <ele>184</ele>
        <time>2011-05-12T15:37:34Z</time>
      </trkpt>
      <trkpt lat="43.6259" lon="7.02653">
        <ele>185</ele>
        <time>2011-05-12T15:37:39Z</time>
      </trkpt>
      <trkpt lat="43.62577" lon="7.02656">
        <ele>186</ele>
        <time>2011-05-12T15:37:44Z</time>
      </trkpt>
      <trkpt lat="43.62566" lon="7.02656">
        <ele>187</ele>
        <time>2011-05-12T15:37:49Z</time>
      </trkpt>
      <trkpt lat="43.62556" lon="7.02656">
        <ele>188</ele>
        <time>2011-05-12T15:37:54Z</time>
      </trkpt>
      <trkpt lat="43.62545" lon="7.02654">
        <ele>189</ele>
        <time>2011-05-12T15:37:59Z</time>
      </trkpt>
      <trkpt lat="43.62532" lon="7.02653">
        <ele>190</ele>
        <time>2011-05-12T15:38:04Z</time>
      </trkpt>
      <trkpt lat="43.62519" lon="7.02653">
        <ele>191</ele>
        <time>2011-05-12T15:38:09Z</time>
      </trkpt>
      <trkpt lat="43.62507" lon="7.02653">
        <ele>193</ele>
        <time>2011-05-12T15:38:14Z</time>
      </trkpt>
      <trkpt lat="43.62495" lon="7.02654">
        <ele>193</ele>
        <time>2011-05-12T15:38:19Z</time>
      </trkpt>
      <trkpt lat="43.62483" lon="7.02654">
        <ele>194</ele>
        <time>2011-05-12T15:38:24Z</time>
      </trkpt>
      <trkpt lat="43.62467" lon="7.0265">
        <ele>194</ele>
        <time>2011-05-12T15:38:29Z</time>
      </trkpt>
      <trkpt lat="43.62451" lon="7.02642">
        <ele>196</ele>
        <time>2011-05-12T15:38:34Z</time>
      </trkpt>
      <trkpt lat="43.62436" lon="7.0263">
        <ele>198</ele>
        <time>2011-05-12T15:38:39Z</time>
      </trkpt>
      <trkpt lat="43.6242" lon="7.02613">
        <ele>200</ele>
        <time>2011-05-12T15:38:44Z</time>
      </trkpt>
      <trkpt lat="43.62404" lon="7.02592">
        <ele>202</ele>
        <time>2011-05-12T15:38:49Z</time>
      </trkpt>
      <trkpt lat="43.62396" lon="7.02567">
        <ele>204</ele>
        <time>2011-05-12T15:38:54Z</time>
      </trkpt>
      <trkpt lat="43.62386" lon="7.02544">
        <ele>206</ele>
        <time>2011-05-12T15:38:59Z</time>
      </trkpt>
      <trkpt lat="43.62374" lon="7.02519">
        <ele>208</ele>
        <time>2011-05-12T15:39:04Z</time>
      </trkpt>
      <trkpt lat="43.62365" lon="7.02492">
        <ele>209</ele>
        <time>2011-05-12T15:39:09Z</time>
      </trkpt>
      <trkpt lat="43.62352" lon="7.02477">
        <ele>210</ele>
        <time>2011-05-12T15:39:14Z</time>
      </trkpt>
      <trkpt lat="43.62354" lon="7.02482">
        <ele>211</ele>
        <time>2011-05-12T15:39:19Z</time>
      </trkpt>
      <trkpt lat="43.62366" lon="7.02501">
        <ele>211</ele>
        <time>2011-05-12T15:39:24Z</time>
      </trkpt>
      <trkpt lat="43.62373" lon="7.02522">
        <ele>211</ele>
        <time>2011-05-12T15:39:29Z</time>
      </trkpt>
      <trkpt lat="43.62386" lon="7.02547">
        <ele>211</ele>
        <time>2011-05-12T15:39:34Z</time>
      </trkpt>
      <trkpt lat="43.62403" lon="7.02587">
        <ele>207</ele>
        <time>2011-05-12T15:39:39Z</time>
      </trkpt>
      <trkpt lat="43.62427" lon="7.02623">
        <ele>206</ele>
        <time>2011-05-12T15:39:44Z</time>
      </trkpt>
      <trkpt lat="43.62464" lon="7.02645">
        <ele>205</ele>
        <time>2011-05-12T15:39:50Z</time>
      </trkpt>
      <trkpt lat="43.62499" lon="7.02646">
        <ele>205</ele>
        <time>2011-05-12T15:39:56Z</time>
      </trkpt>
      <trkpt lat="43.62528" lon="7.02649">
        <ele>205</ele>
        <time>2011-05-12T15:40:01Z</time>
      </trkpt>
      <trkpt lat="43.62569" lon="7.02655">
        <ele>203</ele>
        <time>2011-05-12T15:40:07Z</time>
      </trkpt>
      <trkpt lat="43.6258" lon="7.02653">
        <ele>201</ele>
        <time>2011-05-12T15:40:12Z</time>
      </trkpt>
      <trkpt lat="43.62571" lon="7.02654">
        <ele>198</ele>
        <time>2011-05-12T15:40:17Z</time>
      </trkpt>
      <trkpt lat="43.62563" lon="7.02654">
        <ele>197</ele>
        <time>2011-05-12T15:40:22Z</time>
      </trkpt>
      <trkpt lat="43.62554" lon="7.02653">
        <ele>197</ele>
        <time>2011-05-12T15:40:27Z</time>
      </trkpt>
      <trkpt lat="43.62547" lon="7.02651">
        <ele>197</ele>
        <time>2011-05-12T15:40:32Z</time>
      </trkpt>
      <trkpt lat="43.62539" lon="7.0265">
        <ele>197</ele>
        <time>2011-05-12T15:40:37Z</time>
      </trkpt>
      <trkpt lat="43.62531" lon="7.0265">
        <ele>197</ele>
        <time>2011-05-12T15:40:43Z</time>
      </trkpt>
      <trkpt lat="43.62524" lon="7.0265">
        <ele>197</ele>
        <time>2011-05-12T15:40:48Z</time>
      </trkpt>
      <trkpt lat="43.62516" lon="7.0265">
        <ele>197</ele>
        <time>2011-05-12T15:40:53Z</time>
      </trkpt>
      <trkpt lat="43.62509" lon="7.02652">
        <ele>197</ele>
        <time>2011-05-12T15:40:59Z</time>
      </trkpt>
      <trkpt lat="43.62502" lon="7.02652">
        <ele>197</ele>
        <time>2011-05-12T15:41:04Z</time>
      </trkpt>
      <trkpt lat="43.62495" lon="7.02651">
        <ele>197</ele>
        <time>2011-05-12T15:41:09Z</time>
      </trkpt>
      <trkpt lat="43.62489" lon="7.02653">
        <ele>197</ele>
        <time>2011-05-12T15:41:14Z</time>
      </trkpt>
      <trkpt lat="43.62482" lon="7.02653">
        <ele>197</ele>
        <time>2011-05-12T15:41:19Z</time>
      </trkpt>
      <trkpt lat="43.62474" lon="7.02652">
        <ele>197</ele>
        <time>2011-05-12T15:41:24Z</time>
      </trkpt>
      <trkpt lat="43.62465" lon="7.0265">
        <ele>197</ele>
        <time>2011-05-12T15:41:29Z</time>
      </trkpt>
      <trkpt lat="43.62454" lon="7.02645">
        <ele>197</ele>
        <time>2011-05-12T15:41:35Z</time>
      </trkpt>
      <trkpt lat="43.62444" lon="7.02637">
        <ele>197</ele>
        <time>2011-05-12T15:41:40Z</time>
      </trkpt>
      <trkpt lat="43.62434" lon="7.02629">
        <ele>198</ele>
        <time>2011-05-12T15:41:45Z</time>
      </trkpt>
      <trkpt lat="43.62424" lon="7.02619">
        <ele>199</ele>
        <time>2011-05-12T15:41:50Z</time>
      </trkpt>
      <trkpt lat="43.62413" lon="7.02607">
        <ele>200</ele>
        <time>2011-05-12T15:41:55Z</time>
      </trkpt>
      <trkpt lat="43.62405" lon="7.02593">
        <ele>202</ele>
        <time>2011-05-12T15:42:00Z</time>
      </trkpt>
      <trkpt lat="43.62399" lon="7.02577">
        <ele>204</ele>
        <time>2011-05-12T15:42:05Z</time>
      </trkpt>
      <trkpt lat="43.62394" lon="7.02565">
        <ele>207</ele>
        <time>2011-05-12T15:42:10Z</time>
      </trkpt>
      <trkpt lat="43.62388" lon="7.02553">
        <ele>208</ele>
        <time>2011-05-12T15:42:15Z</time>
      </trkpt>
      <trkpt lat="43.62382" lon="7.0254">
        <ele>208</ele>
        <time>2011-05-12T15:42:20Z</time>
      </trkpt>
      <trkpt lat="43.62375" lon="7.02526">
        <ele>209</ele>
        <time>2011-05-12T15:42:25Z</time>
      </trkpt>
      <trkpt lat="43.62369" lon="7.02513">
        <ele>209</ele>
        <time>2011-05-12T15:42:30Z</time>
      </trkpt>
      <trkpt lat="43.62364" lon="7.02493">
        <ele>209</ele>
        <time>2011-05-12T15:42:35Z</time>
      </trkpt>
      <trkpt lat="43.62353" lon="7.02484">
        <ele>210</ele>
        <time>2011-05-12T15:42:40Z</time>
      </trkpt>
      <trkpt lat="43.62346" lon="7.02481">
        <ele>210</ele>
        <time>2011-05-12T15:42:45Z</time>
      </trkpt>
      <trkpt lat="43.62344" lon="7.02482">
        <ele>214</ele>
        <time>2011-05-12T15:42:51Z</time>
      </trkpt>
      <trkpt lat="43.62342" lon="7.02481">
        <ele>217</ele>
        <time>2011-05-12T15:42:58Z</time>
      </trkpt>
      <trkpt lat="43.62339" lon="7.02482">
        <ele>224</ele>
        <time>2011-05-12T15:43:11Z</time>
      </trkpt>
      <trkpt lat="43.62338" lon="7.02482">
        <ele>227</ele>
        <time>2011-05-12T15:43:16Z</time>
      </trkpt>
      <trkpt lat="43.62338" lon="7.02484">
        <ele>227</ele>
        <time>2011-05-12T15:43:23Z</time>
      </trkpt>
      <trkpt lat="43.62339" lon="7.02486">
        <ele>227</ele>
        <time>2011-05-12T15:43:29Z</time>
      </trkpt>
      <trkpt lat="43.6234" lon="7.02488">
        <ele>227</ele>
        <time>2011-05-12T15:43:34Z</time>
      </trkpt>
      <trkpt lat="43.6234" lon="7.02489">
        <ele>227</ele>
        <time>2011-05-12T15:43:39Z</time>
      </trkpt>
      <trkpt lat="43.62342" lon="7.02491">
        <ele>221</ele>
        <time>2011-05-12T15:43:53Z</time>
      </trkpt>
      <trkpt lat="43.62341" lon="7.0249">
        <ele>221</ele>
        <time>2011-05-12T15:44:01Z</time>
      </trkpt>
      <trkpt lat="43.62339" lon="7.02487">
        <ele>223</ele>
        <time>2011-05-12T15:44:08Z</time>
      </trkpt>
      <trkpt lat="43.62338" lon="7.02485">
        <ele>228</ele>
        <time>2011-05-12T15:44:16Z</time>
      </trkpt>
      <trkpt lat="43.62338" lon="7.02487">
        <ele>228</ele>
        <time>2011-05-12T15:44:29Z</time>
      </trkpt>
      <trkpt lat="43.6234" lon="7.02486">
        <ele>228</ele>
        <time>2011-05-12T15:44:35Z</time>
      </trkpt>
      <trkpt lat="43.62341" lon="7.02487">
        <ele>227</ele>
        <time>2011-05-12T15:44:40Z</time>
      </trkpt>
      <trkpt lat="43.62342" lon="7.02486">
        <ele>224</ele>
        <time>2011-05-12T15:44:59Z</time>
      </trkpt>
      <trkpt lat="43.62342" lon="7.02484">
        <ele>224</ele>
        <time>2011-05-12T15:45:04Z</time>
      </trkpt>
      <trkpt lat="43.62339" lon="7.02482">
        <ele>223</ele>
        <time>2011-05-12T15:45:12Z</time>
      </trkpt>
      <trkpt lat="43.62338" lon="7.02482">
        <ele>225</ele>
        <time>2011-05-12T15:45:17Z</time>
      </trkpt>
      <trkpt lat="43.62338" lon="7.02484">
        <ele>227</ele>
        <time>2011-05-12T15:45:26Z</time>
      </trkpt>
      <trkpt lat="43.62338" lon="7.02487">
        <ele>228</ele>
        <time>2011-05-12T15:45:35Z</time>
      </trkpt>
      <trkpt lat="43.62339" lon="7.02487">
        <ele>228</ele>
        <time>2011-05-12T15:45:41Z</time>
      </trkpt>
      <trkpt lat="43.6234" lon="7.02487">
        <ele>229</ele>
        <time>2011-05-12T15:45:51Z</time>
      </trkpt>
      <trkpt lat="43.62342" lon="7.02484">
        <ele>229</ele>
        <time>2011-05-12T15:46:01Z</time>
      </trkpt>
      <trkpt lat="43.62342" lon="7.02483">
        <ele>229</ele>
        <time>2011-05-12T15:46:08Z</time>
      </trkpt>
      <trkpt lat="43.62342" lon="7.02481">
        <ele>229</ele>
        <time>2011-05-12T15:46:15Z</time>
      </trkpt>
      <trkpt lat="43.62341" lon="7.0248">
        <ele>229</ele>
        <time>2011-05-12T15:46:22Z</time>
      </trkpt>
      <trkpt lat="43.62339" lon="7.02477">
        <ele>230</ele>
        <time>2011-05-12T15:46:28Z</time>
      </trkpt>
      <trkpt lat="43.62343" lon="7.02476">
        <ele>230</ele>
        <time>2011-05-12T15:46:35Z</time>
      </trkpt>
      <trkpt lat="43.62347" lon="7.02477">
        <ele>224</ele>
        <time>2011-05-12T15:46:44Z</time>
      </trkpt>
      <trkpt lat="43.62343" lon="7.02479">
        <ele>222</ele>
        <time>2011-05-12T15:46:51Z</time>
      </trkpt>
      <trkpt lat="43.6234" lon="7.02496">
        <ele>221</ele>
        <time>2011-05-12T15:46:56Z</time>
      </trkpt>
      <trkpt lat="43.62342" lon="7.02525">
        <ele>219</ele>
        <time>2011-05-12T15:47:01Z</time>
      </trkpt>
      <trkpt lat="43.62341" lon="7.02556">
        <ele>218</ele>
        <time>2011-05-12T15:47:06Z</time>
      </trkpt>
      <trkpt lat="43.6234" lon="7.02584">
        <ele>218</ele>
        <time>2011-05-12T15:47:11Z</time>
      </trkpt>
      <trkpt lat="43.62343" lon="7.02609">
        <ele>218</ele>
        <time>2011-05-12T15:47:16Z</time>
      </trkpt>
      <trkpt lat="43.62346" lon="7.0263">
        <ele>218</ele>
        <time>2011-05-12T15:47:21Z</time>
      </trkpt>
      <trkpt lat="43.62349" lon="7.0265">
        <ele>219</ele>
        <time>2011-05-12T15:47:26Z</time>
      </trkpt>
      <trkpt lat="43.62353" lon="7.02664">
        <ele>220</ele>
        <time>2011-05-12T15:47:32Z</time>
      </trkpt>
      <trkpt lat="43.62354" lon="7.02669">
        <ele>223</ele>
        <time>2011-05-12T15:47:38Z</time>
      </trkpt>
      <trkpt lat="43.62363" lon="7.02682">
        <ele>223</ele>
        <time>2011-05-12T15:47:44Z</time>
      </trkpt>
      <trkpt lat="43.62371" lon="7.02694">
        <ele>223</ele>
        <time>2011-05-12T15:47:49Z</time>
      </trkpt>
      <trkpt lat="43.62375" lon="7.02703">
        <ele>223</ele>
        <time>2011-05-12T15:47:54Z</time>
      </trkpt>
      <trkpt lat="43.62377" lon="7.02718">
        <ele>223</ele>
        <time>2011-05-12T15:47:59Z</time>
      </trkpt>
      <trkpt lat="43.62368" lon="7.02725">
        <ele>223</ele>
        <time>2011-05-12T15:48:04Z</time>
      </trkpt>
      <trkpt lat="43.62359" lon="7.02716">
        <ele>223</ele>
        <time>2011-05-12T15:48:09Z</time>
      </trkpt>
      <trkpt lat="43.62351" lon="7.0271">
        <ele>223</ele>
        <time>2011-05-12T15:48:15Z</time>
      </trkpt>
      <trkpt lat="43.62351" lon="7.02697">
        <ele>223</ele>
        <time>2011-05-12T15:48:20Z</time>
      </trkpt>
      <trkpt lat="43.62349" lon="7.02686">
        <ele>223</ele>
        <time>2011-05-12T15:48:25Z</time>
      </trkpt>
      <trkpt lat="43.62342" lon="7.02685">
        <ele>223</ele>
        <time>2011-05-12T15:48:31Z</time>
      </trkpt>
      <trkpt lat="43.62338" lon="7.02683">
        <ele>223</ele>
        <time>2011-05-12T15:48:36Z</time>
      </trkpt>
      <trkpt lat="43.62332" lon="7.02678">
        <ele>223</ele>
        <time>2011-05-12T15:48:42Z</time>
      </trkpt>
      <trkpt lat="43.62327" lon="7.02678">
        <ele>223</ele>
        <time>2011-05-12T15:48:47Z</time>
      </trkpt>
      <trkpt lat="43.62326" lon="7.0268">
        <ele>223</ele>
        <time>2011-05-12T15:48:55Z</time>
      </trkpt>
      <trkpt lat="43.62324" lon="7.0268">
        <ele>223</ele>
        <time>2011-05-12T15:49:04Z</time>
      </trkpt>
      <trkpt lat="43.62324" lon="7.0268">
        <ele>223</ele>
        <time>2011-05-12T15:49:11Z</time>
      </trkpt>
      <trkpt lat="43.62323" lon="7.0268">
        <ele>223</ele>
        <time>2011-05-12T15:49:18Z</time>
      </trkpt>
      <trkpt lat="43.62311" lon="7.02686">
        <ele>223</ele>
        <time>2011-05-12T15:49:23Z</time>
      </trkpt>
      <trkpt lat="43.62299" lon="7.02694">
        <ele>220</ele>
        <time>2011-05-12T15:49:29Z</time>
      </trkpt>
      <trkpt lat="43.62288" lon="7.02698">
        <ele>218</ele>
        <time>2011-05-12T15:49:34Z</time>
      </trkpt>
      <trkpt lat="43.62275" lon="7.02704">
        <ele>216</ele>
        <time>2011-05-12T15:49:39Z</time>
      </trkpt>
      <trkpt lat="43.62259" lon="7.02712">
        <ele>213</ele>
        <time>2011-05-12T15:49:44Z</time>
      </trkpt>
      <trkpt lat="43.62252" lon="7.02726">
        <ele>213</ele>
        <time>2011-05-12T15:49:49Z</time>
      </trkpt>
      <trkpt lat="43.62253" lon="7.02728">
        <ele>213</ele>
        <time>2011-05-12T15:49:56Z</time>
      </trkpt>
      <trkpt lat="43.62256" lon="7.02734">
        <ele>213</ele>
        <time>2011-05-12T15:50:01Z</time>
      </trkpt>
      <trkpt lat="43.62253" lon="7.02745">
        <ele>216</ele>
        <time>2011-05-12T15:50:06Z</time>
      </trkpt>
      <trkpt lat="43.62244" lon="7.02756">
        <ele>218</ele>
        <time>2011-05-12T15:50:11Z</time>
      </trkpt>
      <trkpt lat="43.62236" lon="7.02771">
        <ele>218</ele>
        <time>2011-05-12T15:50:16Z</time>
      </trkpt>
      <trkpt lat="43.62234" lon="7.02786">
        <ele>219</ele>
        <time>2011-05-12T15:50:21Z</time>
      </trkpt>
      <trkpt lat="43.62228" lon="7.02797">
        <ele>221</ele>
        <time>2011-05-12T15:50:26Z</time>
      </trkpt>
      <trkpt lat="43.62227" lon="7.02804">
        <ele>222</ele>
        <time>2011-05-12T15:50:31Z</time>
      </trkpt>
      <trkpt lat="43.6222" lon="7.02816">
        <ele>222</ele>
        <time>2011-05-12T15:50:36Z</time>
      </trkpt>
      <trkpt lat="43.62216" lon="7.02828">
        <ele>222</ele>
        <time>2011-05-12T15:50:42Z</time>
      </trkpt>
      <trkpt lat="43.62209" lon="7.02845">
        <ele>222</ele>
        <time>2011-05-12T15:50:47Z</time>
      </trkpt>
      <trkpt lat="43.62204" lon="7.02857">
        <ele>222</ele>
        <time>2011-05-12T15:50:52Z</time>
      </trkpt>
      <trkpt lat="43.622" lon="7.0287">
        <ele>222</ele>
        <time>2011-05-12T15:50:57Z</time>
      </trkpt>
      <trkpt lat="43.62193" lon="7.02884">
        <ele>222</ele>
        <time>2011-05-12T15:51:02Z</time>
      </trkpt>
      <trkpt lat="43.62183" lon="7.02889">
        <ele>222</ele>
        <time>2011-05-12T15:51:07Z</time>
      </trkpt>
      <trkpt lat="43.62177" lon="7.029">
        <ele>222</ele>
        <time>2011-05-12T15:51:12Z</time>
      </trkpt>
      <trkpt lat="43.62167" lon="7.0291">
        <ele>222</ele>
        <time>2011-05-12T15:51:17Z</time>
      </trkpt>
      <trkpt lat="43.62162" lon="7.0292">
        <ele>220</ele>
        <time>2011-05-12T15:51:22Z</time>
      </trkpt>
      <trkpt lat="43.62154" lon="7.02929">
        <ele>218</ele>
        <time>2011-05-12T15:51:27Z</time>
      </trkpt>
      <trkpt lat="43.62146" lon="7.02941">
        <ele>216</ele>
        <time>2011-05-12T15:51:32Z</time>
      </trkpt>
      <trkpt lat="43.6214" lon="7.02956">
        <ele>215</ele>
        <time>2011-05-12T15:51:37Z</time>
      </trkpt>
      <trkpt lat="43.62139" lon="7.02958">
        <ele>215</ele>
        <time>2011-05-12T15:51:45Z</time>
      </trkpt>
      <trkpt lat="43.62138" lon="7.02958">
        <ele>215</ele>
        <time>2011-05-12T15:52:04Z</time>
      </trkpt>
      <trkpt lat="43.62137" lon="7.02958">
        <ele>215</ele>
        <time>2011-05-12T15:52:18Z</time>
      </trkpt>
      <trkpt lat="43.62136" lon="7.02959">
        <ele>215</ele>
        <time>2011-05-12T15:52:23Z</time>
      </trkpt>
      <trkpt lat="43.62135" lon="7.02958">
        <ele>215</ele>
        <time>2011-05-12T15:52:28Z</time>
      </trkpt>
      <trkpt lat="43.62133" lon="7.02958">
        <ele>212</ele>
        <time>2011-05-12T15:52:38Z</time>
      </trkpt>
      <trkpt lat="43.62135" lon="7.02959">
        <ele>207</ele>
        <time>2011-05-12T15:52:49Z</time>
      </trkpt>
      <trkpt lat="43.62135" lon="7.02957">
        <ele>207</ele>
        <time>2011-05-12T15:53:08Z</time>
      </trkpt>
      <trkpt lat="43.62136" lon="7.02957">
        <ele>207</ele>
        <time>2011-05-12T15:53:18Z</time>
      </trkpt>
      <trkpt lat="43.62137" lon="7.02958">
        <ele>207</ele>
        <time>2011-05-12T15:53:29Z</time>
      </trkpt>
      <trkpt lat="43.62136" lon="7.02961">
        <ele>209</ele>
        <time>2011-05-12T15:53:42Z</time>
      </trkpt>
      <trkpt lat="43.62134" lon="7.02963">
        <ele>210</ele>
        <time>2011-05-12T15:53:53Z</time>
      </trkpt>
      <trkpt lat="43.6212" lon="7.02975">
        <ele>210</ele>
        <time>2011-05-12T15:53:58Z</time>
      </trkpt>
      <trkpt lat="43.62111" lon="7.02987">
        <ele>210</ele>
        <time>2011-05-12T15:54:03Z</time>
      </trkpt>
      <trkpt lat="43.62105" lon="7.02994">
        <ele>210</ele>
        <time>2011-05-12T15:54:08Z</time>
      </trkpt>
      <trkpt lat="43.62105" lon="7.02995">
        <ele>209</ele>
        <time>2011-05-12T15:54:16Z</time>
      </trkpt>
      <trkpt lat="43.62103" lon="7.02999">
        <ele>209</ele>
        <time>2011-05-12T15:54:21Z</time>
      </trkpt>
      <trkpt lat="43.62102" lon="7.03011">
        <ele>209</ele>
        <time>2011-05-12T15:54:26Z</time>
      </trkpt>
      <trkpt lat="43.62102" lon="7.03025">
        <ele>209</ele>
        <time>2011-05-12T15:54:31Z</time>
      </trkpt>
      <trkpt lat="43.62105" lon="7.0304">
        <ele>209</ele>
        <time>2011-05-12T15:54:36Z</time>
      </trkpt>
      <trkpt lat="43.62106" lon="7.03059">
        <ele>209</ele>
        <time>2011-05-12T15:54:41Z</time>
      </trkpt>
      <trkpt lat="43.62109" lon="7.03072">
        <ele>209</ele>
        <time>2011-05-12T15:54:46Z</time>
      </trkpt>
      <trkpt lat="43.62111" lon="7.03094">
        <ele>209</ele>
        <time>2011-05-12T15:54:51Z</time>
      </trkpt>
      <trkpt lat="43.62108" lon="7.03128">
        <ele>209</ele>
        <time>2011-05-12T15:54:56Z</time>
      </trkpt>
      <trkpt lat="43.62099" lon="7.03147">
        <ele>209</ele>
        <time>2011-05-12T15:55:01Z</time>
      </trkpt>
      <trkpt lat="43.62099" lon="7.03172">
        <ele>208</ele>
        <time>2011-05-12T15:55:06Z</time>
      </trkpt>
      <trkpt lat="43.62098" lon="7.03184">
        <ele>203</ele>
        <time>2011-05-12T15:55:11Z</time>
      </trkpt>
      <trkpt lat="43.62096" lon="7.03186">
        <ele>202</ele>
        <time>2011-05-12T15:55:24Z</time>
      </trkpt>
      <trkpt lat="43.62096" lon="7.03184">
        <ele>202</ele>
        <time>2011-05-12T15:55:31Z</time>
      </trkpt>
      <trkpt lat="43.62097" lon="7.03185">
        <ele>202</ele>
        <time>2011-05-12T15:55:44Z</time>
      </trkpt>
      <trkpt lat="43.62098" lon="7.03185">
        <ele>202</ele>
        <time>2011-05-12T15:55:50Z</time>
      </trkpt>
      <trkpt lat="43.62099" lon="7.03185">
        <ele>198</ele>
        <time>2011-05-12T15:56:25Z</time>
      </trkpt>
      <trkpt lat="43.62099" lon="7.03183">
        <ele>198</ele>
        <time>2011-05-12T15:56:33Z</time>
      </trkpt>
      <trkpt lat="43.62099" lon="7.03184">
        <ele>198</ele>
        <time>2011-05-12T15:56:38Z</time>
      </trkpt>
      <trkpt lat="43.62098" lon="7.03185">
        <ele>198</ele>
        <time>2011-05-12T15:56:49Z</time>
      </trkpt>
      <trkpt lat="43.62099" lon="7.03186">
        <ele>198</ele>
        <time>2011-05-12T15:56:54Z</time>
      </trkpt>
      <trkpt lat="43.621" lon="7.03185">
        <ele>198</ele>
        <time>2011-05-12T15:57:03Z</time>
      </trkpt>
      <trkpt lat="43.62099" lon="7.03185">
        <ele>198</ele>
        <time>2011-05-12T15:57:10Z</time>
      </trkpt>
      <trkpt lat="43.62098" lon="7.03185">
        <ele>198</ele>
        <time>2011-05-12T15:57:16Z</time>
      </trkpt>
      <trkpt lat="43.62098" lon="7.03186">
        <ele>198</ele>
        <time>2011-05-12T15:57:28Z</time>
      </trkpt>
      <trkpt lat="43.62097" lon="7.03188">
        <ele>198</ele>
        <time>2011-05-12T15:57:34Z</time>
      </trkpt>
      <trkpt lat="43.62098" lon="7.03184">
        <ele>198</ele>
        <time>2011-05-12T15:57:39Z</time>
      </trkpt>
      <trkpt lat="43.62097" lon="7.03185">
        <ele>199</ele>
        <time>2011-05-12T15:58:36Z</time>
      </trkpt>
      <trkpt lat="43.62096" lon="7.03183">
        <ele>204</ele>
        <time>2011-05-12T15:59:07Z</time>
      </trkpt>
      <trkpt lat="43.62096" lon="7.03185">
        <ele>206</ele>
        <time>2011-05-12T15:59:38Z</time>
      </trkpt>
      <trkpt lat="43.62095" lon="7.03186">
        <ele>206</ele>
        <time>2011-05-12T15:59:45Z</time>
      </trkpt>
      <trkpt lat="43.62088" lon="7.03202">
        <ele>206</ele>
        <time>2011-05-12T15:59:50Z</time>
      </trkpt>
      <trkpt lat="43.62081" lon="7.03222">
        <ele>206</ele>
        <time>2011-05-12T15:59:55Z</time>
      </trkpt>
      <trkpt lat="43.62079" lon="7.03245">
        <ele>205</ele>
        <time>2011-05-12T16:00:00Z</time>
      </trkpt>
      <trkpt lat="43.62076" lon="7.03272">
        <ele>203</ele>
        <time>2011-05-12T16:00:05Z</time>
      </trkpt>
      <trkpt lat="43.62083" lon="7.03299">
        <ele>200</ele>
        <time>2011-05-12T16:00:10Z</time>
      </trkpt>
      <trkpt lat="43.62089" lon="7.03337">
        <ele>196</ele>
        <time>2011-05-12T16:00:15Z</time>
      </trkpt>
      <trkpt lat="43.621" lon="7.03356">
        <ele>192</ele>
        <time>2011-05-12T16:00:20Z</time>
      </trkpt>
      <trkpt lat="43.62112" lon="7.03367">
        <ele>188</ele>
        <time>2011-05-12T16:00:25Z</time>
      </trkpt>
      <trkpt lat="43.62132" lon="7.03374">
        <ele>185</ele>
        <time>2011-05-12T16:00:30Z</time>
      </trkpt>
      <trkpt lat="43.62156" lon="7.03377">
        <ele>185</ele>
        <time>2011-05-12T16:00:35Z</time>
      </trkpt>
      <trkpt lat="43.62175" lon="7.03376">
        <ele>185</ele>
        <time>2011-05-12T16:00:40Z</time>
      </trkpt>
      <trkpt lat="43.62181" lon="7.03379">
        <ele>182</ele>
        <time>2011-05-12T16:00:45Z</time>
      </trkpt>
      <trkpt lat="43.62193" lon="7.03366">
        <ele>178</ele>
        <time>2011-05-12T16:00:50Z</time>
      </trkpt>
      <trkpt lat="43.62201" lon="7.03363">
        <ele>175</ele>
        <time>2011-05-12T16:00:55Z</time>
      </trkpt>
      <trkpt lat="43.62209" lon="7.03383">
        <ele>175</ele>
        <time>2011-05-12T16:01:00Z</time>
      </trkpt>
      <trkpt lat="43.62207" lon="7.03397">
        <ele>175</ele>
        <time>2011-05-12T16:01:56Z</time>
      </trkpt>
      <trkpt lat="43.622" lon="7.03411">
        <ele>175</ele>
        <time>2011-05-12T16:02:01Z</time>
      </trkpt>
      <trkpt lat="43.62192" lon="7.03422">
        <ele>175</ele>
        <time>2011-05-12T16:02:06Z</time>
      </trkpt>
      <trkpt lat="43.62179" lon="7.03447">
        <ele>173</ele>
        <time>2011-05-12T16:02:11Z</time>
      </trkpt>
      <trkpt lat="43.62158" lon="7.03483">
        <ele>170</ele>
        <time>2011-05-12T16:02:16Z</time>
      </trkpt>
      <trkpt lat="43.62121" lon="7.03525">
        <ele>168</ele>
        <time>2011-05-12T16:02:21Z</time>
      </trkpt>
      <trkpt lat="43.621" lon="7.03561">
        <ele>165</ele>
        <time>2011-05-12T16:02:26Z</time>
      </trkpt>
      <trkpt lat="43.62094" lon="7.03584">
        <ele>163</ele>
        <time>2011-05-12T16:02:31Z</time>
      </trkpt>
      <trkpt lat="43.62086" lon="7.03589">
        <ele>160</ele>
        <time>2011-05-12T16:02:36Z</time>
      </trkpt>
      <trkpt lat="43.62067" lon="7.03588">
        <ele>155</ele>
        <time>2011-05-12T16:02:41Z</time>
      </trkpt>
      <trkpt lat="43.62042" lon="7.0359">
        <ele>152</ele>
        <time>2011-05-12T16:02:46Z</time>
      </trkpt>
      <trkpt lat="43.62017" lon="7.03592">
        <ele>151</ele>
        <time>2011-05-12T16:02:51Z</time>
      </trkpt>
      <trkpt lat="43.61995" lon="7.03595">
        <ele>150</ele>
        <time>2011-05-12T16:02:56Z</time>
      </trkpt>
      <trkpt lat="43.61977" lon="7.03603">
        <ele>148</ele>
        <time>2011-05-12T16:03:01Z</time>
      </trkpt>
      <trkpt lat="43.61954" lon="7.03613">
        <ele>145</ele>
        <time>2011-05-12T16:03:06Z</time>
      </trkpt>
      <trkpt lat="43.61933" lon="7.03602">
        <ele>143</ele>
        <time>2011-05-12T16:03:11Z</time>
      </trkpt>
      <trkpt lat="43.61911" lon="7.03611">
        <ele>142</ele>
        <time>2011-05-12T16:03:16Z</time>
      </trkpt>
      <trkpt lat="43.61889" lon="7.03637">
        <ele>139</ele>
        <time>2011-05-12T16:03:21Z</time>
      </trkpt>
      <trkpt lat="43.61866" lon="7.03663">
        <ele>139</ele>
        <time>2011-05-12T16:03:26Z</time>
      </trkpt>
      <trkpt lat="43.61844" lon="7.03687">
        <ele>139</ele>
        <time>2011-05-12T16:03:31Z</time>
      </trkpt>
      <trkpt lat="43.61828" lon="7.03709">
        <ele>139</ele>
        <time>2011-05-12T16:03:36Z</time>
      </trkpt>
      <trkpt lat="43.61811" lon="7.03732">
        <ele>139</ele>
        <time>2011-05-12T16:03:42Z</time>
      </trkpt>
      <trkpt lat="43.6179" lon="7.03764">
        <ele>139</ele>
        <time>2011-05-12T16:03:47Z</time>
      </trkpt>
      <trkpt lat="43.61773" lon="7.0379">
        <ele>139</ele>
        <time>2011-05-12T16:03:52Z</time>
      </trkpt>
      <trkpt lat="43.61755" lon="7.03811">
        <ele>139</ele>
        <time>2011-05-12T16:03:57Z</time>
      </trkpt>
      <trkpt lat="43.61752" lon="7.03817">
        <ele>139</ele>
        <time>2011-05-12T16:04:03Z</time>
      </trkpt>
      <trkpt lat="43.61746" lon="7.03841">
        <ele>139</ele>
        <time>2011-05-12T16:04:08Z</time>
      </trkpt>
      <trkpt lat="43.61738" lon="7.03872">
        <ele>139</ele>
        <time>2011-05-12T16:04:13Z</time>
      </trkpt>
      <trkpt lat="43.61729" lon="7.03904">
        <ele>137</ele>
        <time>2011-05-12T16:04:18Z</time>
      </trkpt>
      <trkpt lat="43.61724" lon="7.03933">
        <ele>137</ele>
        <time>2011-05-12T16:04:23Z</time>
      </trkpt>
      <trkpt lat="43.61728" lon="7.03967">
        <ele>137</ele>
        <time>2011-05-12T16:04:28Z</time>
      </trkpt>
      <trkpt lat="43.61729" lon="7.04006">
        <ele>137</ele>
        <time>2011-05-12T16:04:33Z</time>
      </trkpt>
      <trkpt lat="43.6172" lon="7.04053">
        <ele>137</ele>
        <time>2011-05-12T16:04:38Z</time>
      </trkpt>
      <trkpt lat="43.61708" lon="7.04102">
        <ele>137</ele>
        <time>2011-05-12T16:04:43Z</time>
      </trkpt>
      <trkpt lat="43.61699" lon="7.04149">
        <ele>137</ele>
        <time>2011-05-12T16:04:48Z</time>
      </trkpt>
      <trkpt lat="43.61681" lon="7.04184">
        <ele>137</ele>
        <time>2011-05-12T16:04:53Z</time>
      </trkpt>
      <trkpt lat="43.61658" lon="7.04206">
        <ele>136</ele>
        <time>2011-05-12T16:04:58Z</time>
      </trkpt>
      <trkpt lat="43.61638" lon="7.04184">
        <ele>134</ele>
        <time>2011-05-12T16:05:03Z</time>
      </trkpt>
      <trkpt lat="43.61625" lon="7.04162">
        <ele>133</ele>
        <time>2011-05-12T16:05:08Z</time>
      </trkpt>
      <trkpt lat="43.61614" lon="7.04145">
        <ele>133</ele>
        <time>2011-05-12T16:05:13Z</time>
      </trkpt>
      <trkpt lat="43.61609" lon="7.04138">
        <ele>132</ele>
        <time>2011-05-12T16:05:19Z</time>
      </trkpt>
      <trkpt lat="43.616" lon="7.04136">
        <ele>132</ele>
        <time>2011-05-12T16:05:24Z</time>
      </trkpt>
      <trkpt lat="43.61596" lon="7.04136">
        <ele>132</ele>
        <time>2011-05-12T16:05:29Z</time>
      </trkpt>
      <trkpt lat="43.61592" lon="7.04143">
        <ele>131</ele>
        <time>2011-05-12T16:05:35Z</time>
      </trkpt>
      <trkpt lat="43.61585" lon="7.04142">
        <ele>131</ele>
        <time>2011-05-12T16:05:40Z</time>
      </trkpt>
      <trkpt lat="43.61578" lon="7.04143">
        <ele>131</ele>
        <time>2011-05-12T16:05:46Z</time>
      </trkpt>
      <trkpt lat="43.61571" lon="7.04146">
        <ele>130</ele>
        <time>2011-05-12T16:05:52Z</time>
      </trkpt>
      <trkpt lat="43.61568" lon="7.04153">
        <ele>130</ele>
        <time>2011-05-12T16:05:57Z</time>
      </trkpt>
      <trkpt lat="43.61562" lon="7.04163">
        <ele>130</ele>
        <time>2011-05-12T16:06:02Z</time>
      </trkpt>
      <trkpt lat="43.61545" lon="7.04175">
        <ele>130</ele>
        <time>2011-05-12T16:06:07Z</time>
      </trkpt>
      <trkpt lat="43.6153" lon="7.04172">
        <ele>130</ele>
        <time>2011-05-12T16:06:12Z</time>
      </trkpt>
      <trkpt lat="43.61515" lon="7.04168">
        <ele>130</ele>
        <time>2011-05-12T16:06:17Z</time>
      </trkpt>
      <trkpt lat="43.61497" lon="7.04192">
        <ele>130</ele>
        <time>2011-05-12T16:06:22Z</time>
      </trkpt>
      <trkpt lat="43.61476" lon="7.04223">
        <ele>130</ele>
        <time>2011-05-12T16:06:27Z</time>
      </trkpt>
      <trkpt lat="43.61461" lon="7.04251">
        <ele>131</ele>
        <time>2011-05-12T16:06:32Z</time>
      </trkpt>
      <trkpt lat="43.61451" lon="7.04262">
        <ele>132</ele>
        <time>2011-05-12T16:06:37Z</time>
      </trkpt>
      <trkpt lat="43.61432" lon="7.04275">
        <ele>136</ele>
        <time>2011-05-12T16:06:42Z</time>
      </trkpt>
      <trkpt lat="43.61421" lon="7.04281">
        <ele>137</ele>
        <time>2011-05-12T16:06:53Z</time>
      </trkpt>
      <trkpt lat="43.6142" lon="7.04272">
        <ele>137</ele>
        <time>2011-05-12T16:06:58Z</time>
      </trkpt>
      <trkpt lat="43.61421" lon="7.04254">
        <ele>135</ele>
        <time>2011-05-12T16:07:03Z</time>
      </trkpt>
      <trkpt lat="43.61422" lon="7.04239">
        <ele>134</ele>
        <time>2011-05-12T16:07:08Z</time>
      </trkpt>
      <trkpt lat="43.6142" lon="7.04229">
        <ele>134</ele>
        <time>2011-05-12T16:07:13Z</time>
      </trkpt>
      <trkpt lat="43.61422" lon="7.04231">
        <ele>134</ele>
        <time>2011-05-12T16:07:19Z</time>
      </trkpt>
      <trkpt lat="43.61421" lon="7.04247">
        <ele>134</ele>
        <time>2011-05-12T16:07:24Z</time>
      </trkpt>
      <trkpt lat="43.61422" lon="7.04261">
        <ele>134</ele>
        <time>2011-05-12T16:07:29Z</time>
      </trkpt>
      <trkpt lat="43.6142" lon="7.04278">
        <ele>134</ele>
        <time>2011-05-12T16:07:35Z</time>
      </trkpt>
      <trkpt lat="43.6142" lon="7.04282">
        <ele>136</ele>
        <time>2011-05-12T16:07:46Z</time>
      </trkpt>
      <trkpt lat="43.61419" lon="7.04277">
        <ele>136</ele>
        <time>2011-05-12T16:07:51Z</time>
      </trkpt>
      <trkpt lat="43.61421" lon="7.04266">
        <ele>135</ele>
        <time>2011-05-12T16:07:56Z</time>
      </trkpt>
      <trkpt lat="43.61422" lon="7.0426">
        <ele>133</ele>
        <time>2011-05-12T16:08:01Z</time>
      </trkpt>
      <trkpt lat="43.61419" lon="7.04273">
        <ele>132</ele>
        <time>2011-05-12T16:08:06Z</time>
      </trkpt>
      <trkpt lat="43.61419" lon="7.04278">
        <ele>132</ele>
        <time>2011-05-12T16:08:12Z</time>
      </trkpt>
      <trkpt lat="43.61422" lon="7.04259">
        <ele>129</ele>
        <time>2011-05-12T16:08:17Z</time>
      </trkpt>
      <trkpt lat="43.61423" lon="7.04247">
        <ele>127</ele>
        <time>2011-05-12T16:08:22Z</time>
      </trkpt>
      <trkpt lat="43.61423" lon="7.04224">
        <ele>126</ele>
        <time>2011-05-12T16:08:27Z</time>
      </trkpt>
      <trkpt lat="43.61422" lon="7.04209">
        <ele>126</ele>
        <time>2011-05-12T16:08:32Z</time>
      </trkpt>
      <trkpt lat="43.61421" lon="7.04189">
        <ele>126</ele>
        <time>2011-05-12T16:08:37Z</time>
      </trkpt>
      <trkpt lat="43.61417" lon="7.0417">
        <ele>126</ele>
        <time>2011-05-12T16:08:42Z</time>
      </trkpt>
      <trkpt lat="43.6141" lon="7.04149">
        <ele>126</ele>
        <time>2011-05-12T16:08:47Z</time>
      </trkpt>
      <trkpt lat="43.61403" lon="7.04132">
        <ele>126</ele>
        <time>2011-05-12T16:08:52Z</time>
      </trkpt>
      <trkpt lat="43.61401" lon="7.04103">
        <ele>126</ele>
        <time>2011-05-12T16:08:57Z</time>
      </trkpt>
      <trkpt lat="43.61399" lon="7.04071">
        <ele>126</ele>
        <time>2011-05-12T16:09:02Z</time>
      </trkpt>
      <trkpt lat="43.61395" lon="7.04049">
        <ele>127</ele>
        <time>2011-05-12T16:09:07Z</time>
      </trkpt>
      <trkpt lat="43.61388" lon="7.0403">
        <ele>127</ele>
        <time>2011-05-12T16:09:12Z</time>
      </trkpt>
      <trkpt lat="43.61375" lon="7.04017">
        <ele>127</ele>
        <time>2011-05-12T16:09:17Z</time>
      </trkpt>
      <trkpt lat="43.61358" lon="7.04007">
        <ele>127</ele>
        <time>2011-05-12T16:09:22Z</time>
      </trkpt>
      <trkpt lat="43.61344" lon="7.03994">
        <ele>127</ele>
        <time>2011-05-12T16:09:27Z</time>
      </trkpt>
      <trkpt lat="43.61328" lon="7.03977">
        <ele>127</ele>
        <time>2011-05-12T16:09:32Z</time>
      </trkpt>
      <trkpt lat="43.6131" lon="7.03952">
        <ele>127</ele>
        <time>2011-05-12T16:09:37Z</time>
      </trkpt>
      <trkpt lat="43.61293" lon="7.03924">
        <ele>128</ele>
        <time>2011-05-12T16:09:42Z</time>
      </trkpt>
      <trkpt lat="43.61275" lon="7.03901">
        <ele>129</ele>
        <time>2011-05-12T16:09:47Z</time>
      </trkpt>
      <trkpt lat="43.61263" lon="7.03876">
        <ele>130</ele>
        <time>2011-05-12T16:09:53Z</time>
      </trkpt>
      <trkpt lat="43.61255" lon="7.03839">
        <ele>130</ele>
        <time>2011-05-12T16:09:58Z</time>
      </trkpt>
      <trkpt lat="43.61251" lon="7.03813">
        <ele>130</ele>
        <time>2011-05-12T16:10:03Z</time>
      </trkpt>
      <trkpt lat="43.61241" lon="7.03792">
        <ele>130</ele>
        <time>2011-05-12T16:10:08Z</time>
      </trkpt>
      <trkpt lat="43.61225" lon="7.03784">
        <ele>130</ele>
        <time>2011-05-12T16:10:13Z</time>
      </trkpt>
      <trkpt lat="43.61211" lon="7.0379">
        <ele>130</ele>
        <time>2011-05-12T16:10:18Z</time>
      </trkpt>
      <trkpt lat="43.61199" lon="7.03781">
        <ele>130</ele>
        <time>2011-05-12T16:10:23Z</time>
      </trkpt>
      <trkpt lat="43.61195" lon="7.03779">
        <ele>130</ele>
        <time>2011-05-12T16:10:30Z</time>
      </trkpt>
      <trkpt lat="43.61193" lon="7.03778">
        <ele>131</ele>
        <time>2011-05-12T16:10:39Z</time>
      </trkpt>
      <trkpt lat="43.61191" lon="7.03777">
        <ele>132</ele>
        <time>2011-05-12T16:10:47Z</time>
      </trkpt>
      <trkpt lat="43.61189" lon="7.03776">
        <ele>134</ele>
        <time>2011-05-12T16:10:55Z</time>
      </trkpt>
      <trkpt lat="43.61187" lon="7.03775">
        <ele>135</ele>
        <time>2011-05-12T16:11:17Z</time>
      </trkpt>
      <trkpt lat="43.61188" lon="7.03775">
        <ele>136</ele>
        <time>2011-05-12T16:11:24Z</time>
      </trkpt>
      <trkpt lat="43.61191" lon="7.03776">
        <ele>136</ele>
        <time>2011-05-12T16:11:30Z</time>
      </trkpt>
      <trkpt lat="43.61192" lon="7.03774">
        <ele>137</ele>
        <time>2011-05-12T16:12:12Z</time>
      </trkpt>
      <trkpt lat="43.61191" lon="7.03774">
        <ele>137</ele>
        <time>2011-05-12T16:12:22Z</time>
      </trkpt>
      <trkpt lat="43.61189" lon="7.03772">
        <ele>138</ele>
        <time>2011-05-12T16:12:36Z</time>
      </trkpt>
      <trkpt lat="43.61181" lon="7.03761">
        <ele>138</ele>
        <time>2011-05-12T16:12:42Z</time>
      </trkpt>
      <trkpt lat="43.61171" lon="7.03756">
        <ele>138</ele>
        <time>2011-05-12T16:12:47Z</time>
      </trkpt>
      <trkpt lat="43.61161" lon="7.0374">
        <ele>138</ele>
        <time>2011-05-12T16:12:52Z</time>
      </trkpt>
      <trkpt lat="43.61152" lon="7.03726">
        <ele>136</ele>
        <time>2011-05-12T16:12:57Z</time>
      </trkpt>
      <trkpt lat="43.61143" lon="7.03705">
        <ele>134</ele>
        <time>2011-05-12T16:13:02Z</time>
      </trkpt>
      <trkpt lat="43.61134" lon="7.03686">
        <ele>133</ele>
        <time>2011-05-12T16:13:07Z</time>
      </trkpt>
      <trkpt lat="43.61116" lon="7.03668">
        <ele>133</ele>
        <time>2011-05-12T16:13:12Z</time>
      </trkpt>
      <trkpt lat="43.611" lon="7.03649">
        <ele>133</ele>
        <time>2011-05-12T16:13:17Z</time>
      </trkpt>
      <trkpt lat="43.61084" lon="7.03639">
        <ele>133</ele>
        <time>2011-05-12T16:13:22Z</time>
      </trkpt>
      <trkpt lat="43.61068" lon="7.03638">
        <ele>133</ele>
        <time>2011-05-12T16:13:27Z</time>
      </trkpt>
      <trkpt lat="43.61054" lon="7.0365">
        <ele>134</ele>
        <time>2011-05-12T16:13:32Z</time>
      </trkpt>
      <trkpt lat="43.61044" lon="7.03657">
        <ele>136</ele>
        <time>2011-05-12T16:13:37Z</time>
      </trkpt>
      <trkpt lat="43.61043" lon="7.03663">
        <ele>139</ele>
        <time>2011-05-12T16:13:42Z</time>
      </trkpt>
      <trkpt lat="43.61044" lon="7.03671">
        <ele>141</ele>
        <time>2011-05-12T16:13:47Z</time>
      </trkpt>
      <trkpt lat="43.61047" lon="7.03681">
        <ele>142</ele>
        <time>2011-05-12T16:13:52Z</time>
      </trkpt>
      <trkpt lat="43.61047" lon="7.03694">
        <ele>143</ele>
        <time>2011-05-12T16:13:57Z</time>
      </trkpt>
      <trkpt lat="43.61046" lon="7.03703">
        <ele>146</ele>
        <time>2011-05-12T16:14:02Z</time>
      </trkpt>
      <trkpt lat="43.61044" lon="7.0371">
        <ele>148</ele>
        <time>2011-05-12T16:14:07Z</time>
      </trkpt>
      <trkpt lat="43.61041" lon="7.03716">
        <ele>149</ele>
        <time>2011-05-12T16:14:12Z</time>
      </trkpt>
      <trkpt lat="43.6104" lon="7.03724">
        <ele>149</ele>
        <time>2011-05-12T16:14:17Z</time>
      </trkpt>
      <trkpt lat="43.61035" lon="7.03723">
        <ele>149</ele>
        <time>2011-05-12T16:14:23Z</time>
      </trkpt>
      <trkpt lat="43.61028" lon="7.0372">
        <ele>149</ele>
        <time>2011-05-12T16:14:28Z</time>
      </trkpt>
      <trkpt lat="43.61017" lon="7.03719">
        <ele>149</ele>
        <time>2011-05-12T16:14:33Z</time>
      </trkpt>
      <trkpt lat="43.61007" lon="7.03717">
        <ele>149</ele>
        <time>2011-05-12T16:14:38Z</time>
      </trkpt>
      <trkpt lat="43.60998" lon="7.03713">
        <ele>149</ele>
        <time>2011-05-12T16:14:43Z</time>
      </trkpt>
      <trkpt lat="43.60989" lon="7.03719">
        <ele>148</ele>
        <time>2011-05-12T16:14:48Z</time>
      </trkpt>
      <trkpt lat="43.6098" lon="7.03729">
        <ele>147</ele>
        <time>2011-05-12T16:14:53Z</time>
      </trkpt>
      <trkpt lat="43.60969" lon="7.03741">
        <ele>147</ele>
        <time>2011-05-12T16:14:58Z</time>
      </trkpt>
      <trkpt lat="43.60962" lon="7.03756">
        <ele>147</ele>
        <time>2011-05-12T16:15:03Z</time>
      </trkpt>
      <trkpt lat="43.60956" lon="7.03763">
        <ele>149</ele>
        <time>2011-05-12T16:15:08Z</time>
      </trkpt>
      <trkpt lat="43.60942" lon="7.03755">
        <ele>151</ele>
        <time>2011-05-12T16:15:13Z</time>
      </trkpt>
      <trkpt lat="43.60931" lon="7.03748">
        <ele>152</ele>
        <time>2011-05-12T16:15:18Z</time>
      </trkpt>
      <trkpt lat="43.60921" lon="7.03744">
        <ele>152</ele>
        <time>2011-05-12T16:15:23Z</time>
      </trkpt>
      <trkpt lat="43.60913" lon="7.03745">
        <ele>152</ele>
        <time>2011-05-12T16:15:28Z</time>
      </trkpt>
      <trkpt lat="43.60902" lon="7.03745">
        <ele>153</ele>
        <time>2011-05-12T16:15:33Z</time>
      </trkpt>
      <trkpt lat="43.60892" lon="7.03742">
        <ele>154</ele>
        <time>2011-05-12T16:15:38Z</time>
      </trkpt>
      <trkpt lat="43.60878" lon="7.03732">
        <ele>156</ele>
        <time>2011-05-12T16:15:43Z</time>
      </trkpt>
      <trkpt lat="43.60864" lon="7.03721">
        <ele>157</ele>
        <time>2011-05-12T16:15:48Z</time>
      </trkpt>
      <trkpt lat="43.60849" lon="7.03711">
        <ele>157</ele>
        <time>2011-05-12T16:15:53Z</time>
      </trkpt>
      <trkpt lat="43.60828" lon="7.03708">
        <ele>157</ele>
        <time>2011-05-12T16:15:58Z</time>
      </trkpt>
      <trkpt lat="43.60812" lon="7.03689">
        <ele>157</ele>
        <time>2011-05-12T16:16:03Z</time>
      </trkpt>
      <trkpt lat="43.60801" lon="7.03666">
        <ele>157</ele>
        <time>2011-05-12T16:16:08Z</time>
      </trkpt>
      <trkpt lat="43.60783" lon="7.03645">
        <ele>157</ele>
        <time>2011-05-12T16:16:13Z</time>
      </trkpt>
      <trkpt lat="43.60766" lon="7.03621">
        <ele>157</ele>
        <time>2011-05-12T16:16:18Z</time>
      </trkpt>
      <trkpt lat="43.60753" lon="7.0359">
        <ele>159</ele>
        <time>2011-05-12T16:16:23Z</time>
      </trkpt>
      <trkpt lat="43.60746" lon="7.03584">
        <ele>161</ele>
        <time>2011-05-12T16:16:29Z</time>
      </trkpt>
      <trkpt lat="43.60747" lon="7.03585">
        <ele>162</ele>
        <time>2011-05-12T16:16:36Z</time>
      </trkpt>
      <trkpt lat="43.60747" lon="7.03584">
        <ele>163</ele>
        <time>2011-05-12T16:16:44Z</time>
      </trkpt>
      <trkpt lat="43.60748" lon="7.03586">
        <ele>164</ele>
        <time>2011-05-12T16:16:53Z</time>
      </trkpt>
      <trkpt lat="43.60754" lon="7.03593">
        <ele>164</ele>
        <time>2011-05-12T16:16:58Z</time>
      </trkpt>
      <trkpt lat="43.6076" lon="7.03612">
        <ele>164</ele>
        <time>2011-05-12T16:17:03Z</time>
      </trkpt>
      <trkpt lat="43.60774" lon="7.03637">
        <ele>164</ele>
        <time>2011-05-12T16:17:08Z</time>
      </trkpt>
      <trkpt lat="43.60782" lon="7.03655">
        <ele>163</ele>
        <time>2011-05-12T16:17:13Z</time>
      </trkpt>
      <trkpt lat="43.60793" lon="7.03675">
        <ele>161</ele>
        <time>2011-05-12T16:17:18Z</time>
      </trkpt>
      <trkpt lat="43.60809" lon="7.03696">
        <ele>158</ele>
        <time>2011-05-12T16:17:23Z</time>
      </trkpt>
      <trkpt lat="43.60833" lon="7.03702">
        <ele>157</ele>
        <time>2011-05-12T16:17:28Z</time>
      </trkpt>
      <trkpt lat="43.60854" lon="7.03719">
        <ele>157</ele>
        <time>2011-05-12T16:17:33Z</time>
      </trkpt>
      <trkpt lat="43.6088" lon="7.03731">
        <ele>157</ele>
        <time>2011-05-12T16:17:38Z</time>
      </trkpt>
      <trkpt lat="43.6091" lon="7.03734">
        <ele>157</ele>
        <time>2011-05-12T16:17:43Z</time>
      </trkpt>
      <trkpt lat="43.60934" lon="7.03749">
        <ele>157</ele>
        <time>2011-05-12T16:17:48Z</time>
      </trkpt>
      <trkpt lat="43.6095" lon="7.03768">
        <ele>156</ele>
        <time>2011-05-12T16:17:53Z</time>
      </trkpt>
      <trkpt lat="43.60952" lon="7.03797">
        <ele>152</ele>
        <time>2011-05-12T16:17:58Z</time>
      </trkpt>
      <trkpt lat="43.60952" lon="7.0382">
        <ele>152</ele>
        <time>2011-05-12T16:18:03Z</time>
      </trkpt>
      <trkpt lat="43.60958" lon="7.03827">
        <ele>154</ele>
        <time>2011-05-12T16:18:10Z</time>
      </trkpt>
      <trkpt lat="43.60963" lon="7.03827">
        <ele>157</ele>
        <time>2011-05-12T16:18:16Z</time>
      </trkpt>
      <trkpt lat="43.60969" lon="7.03813">
        <ele>158</ele>
        <time>2011-05-12T16:18:21Z</time>
      </trkpt>
      <trkpt lat="43.60968" lon="7.03789">
        <ele>158</ele>
        <time>2011-05-12T16:18:26Z</time>
      </trkpt>
      <trkpt lat="43.60968" lon="7.0378">
        <ele>158</ele>
        <time>2011-05-12T16:18:35Z</time>
      </trkpt>
      <trkpt lat="43.60967" lon="7.03778">
        <ele>158</ele>
        <time>2011-05-12T16:18:47Z</time>
      </trkpt>
      <trkpt lat="43.60958" lon="7.03769">
        <ele>158</ele>
        <time>2011-05-12T16:18:52Z</time>
      </trkpt>
      <trkpt lat="43.6094" lon="7.03753">
        <ele>158</ele>
        <time>2011-05-12T16:18:57Z</time>
      </trkpt>
      <trkpt lat="43.60912" lon="7.03741">
        <ele>158</ele>
        <time>2011-05-12T16:19:02Z</time>
      </trkpt>
      <trkpt lat="43.60886" lon="7.03738">
        <ele>158</ele>
        <time>2011-05-12T16:19:07Z</time>
      </trkpt>
      <trkpt lat="43.60862" lon="7.03721">
        <ele>158</ele>
        <time>2011-05-12T16:19:12Z</time>
      </trkpt>
      <trkpt lat="43.60839" lon="7.03708">
        <ele>158</ele>
        <time>2011-05-12T16:19:17Z</time>
      </trkpt>
      <trkpt lat="43.60815" lon="7.03699">
        <ele>158</ele>
        <time>2011-05-12T16:19:22Z</time>
      </trkpt>
      <trkpt lat="43.60804" lon="7.0367">
        <ele>158</ele>
        <time>2011-05-12T16:19:27Z</time>
      </trkpt>
      <trkpt lat="43.60786" lon="7.03647">
        <ele>158</ele>
        <time>2011-05-12T16:19:32Z</time>
      </trkpt>
      <trkpt lat="43.60776" lon="7.03631">
        <ele>160</ele>
        <time>2011-05-12T16:19:37Z</time>
      </trkpt>
      <trkpt lat="43.60765" lon="7.03613">
        <ele>162</ele>
        <time>2011-05-12T16:19:42Z</time>
      </trkpt>
      <trkpt lat="43.60756" lon="7.03589">
        <ele>164</ele>
        <time>2011-05-12T16:19:47Z</time>
      </trkpt>
      <trkpt lat="43.6075" lon="7.03585">
        <ele>166</ele>
        <time>2011-05-12T16:19:52Z</time>
      </trkpt>
      <trkpt lat="43.60748" lon="7.03584">
        <ele>171</ele>
        <time>2011-05-12T16:20:01Z</time>
      </trkpt>
      <trkpt lat="43.60746" lon="7.03584">
        <ele>175</ele>
        <time>2011-05-12T16:20:06Z</time>
      </trkpt>
      <trkpt lat="43.60744" lon="7.03584">
        <ele>175</ele>
        <time>2011-05-12T16:20:12Z</time>
      </trkpt>
      <trkpt lat="43.6074" lon="7.03588">
        <ele>175</ele>
        <time>2011-05-12T16:20:17Z</time>
      </trkpt>
      <trkpt lat="43.60736" lon="7.03594">
        <ele>175</ele>
        <time>2011-05-12T16:20:22Z</time>
      </trkpt>
      <trkpt lat="43.60735" lon="7.03602">
        <ele>175</ele>
        <time>2011-05-12T16:20:27Z</time>
      </trkpt>
      <trkpt lat="43.60731" lon="7.03609">
        <ele>175</ele>
        <time>2011-05-12T16:20:33Z</time>
      </trkpt>
      <trkpt lat="43.60729" lon="7.03617">
        <ele>175</ele>
        <time>2011-05-12T16:20:38Z</time>
      </trkpt>
      <trkpt lat="43.60728" lon="7.03625">
        <ele>175</ele>
        <time>2011-05-12T16:20:45Z</time>
      </trkpt>
      <trkpt lat="43.6073" lon="7.03627">
        <ele>175</ele>
        <time>2011-05-12T16:20:55Z</time>
      </trkpt>
      <trkpt lat="43.60733" lon="7.03628">
        <ele>175</ele>
        <time>2011-05-12T16:21:00Z</time>
      </trkpt>
      <trkpt lat="43.60732" lon="7.03627">
        <ele>175</ele>
        <time>2011-05-12T16:21:10Z</time>
      </trkpt>
      <trkpt lat="43.60732" lon="7.03633">
        <ele>175</ele>
        <time>2011-05-12T16:21:15Z</time>
      </trkpt>
      <trkpt lat="43.60733" lon="7.03648">
        <ele>175</ele>
        <time>2011-05-12T16:21:20Z</time>
      </trkpt>
      <trkpt lat="43.60734" lon="7.03665">
        <ele>175</ele>
        <time>2011-05-12T16:21:25Z</time>
      </trkpt>
      <trkpt lat="43.60732" lon="7.03686">
        <ele>175</ele>
        <time>2011-05-12T16:21:30Z</time>
      </trkpt>
      <trkpt lat="43.60728" lon="7.03707">
        <ele>177</ele>
        <time>2011-05-12T16:21:35Z</time>
      </trkpt>
      <trkpt lat="43.60717" lon="7.03711">
        <ele>180</ele>
        <time>2011-05-12T16:21:40Z</time>
      </trkpt>
      <trkpt lat="43.60707" lon="7.03711">
        <ele>180</ele>
        <time>2011-05-12T16:21:45Z</time>
      </trkpt>
      <trkpt lat="43.60698" lon="7.037">
        <ele>180</ele>
        <time>2011-05-12T16:21:50Z</time>
      </trkpt>
      <trkpt lat="43.60685" lon="7.0369">
        <ele>180</ele>
        <time>2011-05-12T16:21:55Z</time>
      </trkpt>
      <trkpt lat="43.60675" lon="7.03682">
        <ele>181</ele>
        <time>2011-05-12T16:22:05Z</time>
      </trkpt>
      <trkpt lat="43.60675" lon="7.03679">
        <ele>185</ele>
        <time>2011-05-12T16:22:14Z</time>
      </trkpt>
      <trkpt lat="43.60675" lon="7.03677">
        <ele>188</ele>
        <time>2011-05-12T16:22:50Z</time>
      </trkpt>
      <trkpt lat="43.60679" lon="7.03681">
        <ele>188</ele>
        <time>2011-05-12T16:22:55Z</time>
      </trkpt>
      <trkpt lat="43.60689" lon="7.03693">
        <ele>188</ele>
        <time>2011-05-12T16:23:00Z</time>
      </trkpt>
      <trkpt lat="43.60705" lon="7.03706">
        <ele>184</ele>
        <time>2011-05-12T16:23:05Z</time>
      </trkpt>
      <trkpt lat="43.60717" lon="7.03708">
        <ele>179</ele>
        <time>2011-05-12T16:23:10Z</time>
      </trkpt>
      <trkpt lat="43.60722" lon="7.03707">
        <ele>178</ele>
        <time>2011-05-12T16:23:15Z</time>
      </trkpt>
      <trkpt lat="43.60728" lon="7.0369">
        <ele>176</ele>
        <time>2011-05-12T16:23:20Z</time>
      </trkpt>
      <trkpt lat="43.60732" lon="7.03662">
        <ele>172</ele>
        <time>2011-05-12T16:23:25Z</time>
      </trkpt>
      <trkpt lat="43.60729" lon="7.03638">
        <ele>168</ele>
        <time>2011-05-12T16:23:30Z</time>
      </trkpt>
      <trkpt lat="43.60729" lon="7.03609">
        <ele>165</ele>
        <time>2011-05-12T16:23:35Z</time>
      </trkpt>
      <trkpt lat="43.60745" lon="7.03575">
        <ele>161</ele>
        <time>2011-05-12T16:23:40Z</time>
      </trkpt>
      <trkpt lat="43.60751" lon="7.03568">
        <ele>157</ele>
        <time>2011-05-12T16:23:47Z</time>
      </trkpt>
      <trkpt lat="43.60754" lon="7.03567">
        <ele>162</ele>
        <time>2011-05-12T16:24:08Z</time>
      </trkpt>
      <trkpt lat="43.60756" lon="7.03567">
        <ele>164</ele>
        <time>2011-05-12T16:24:15Z</time>
      </trkpt>
      <trkpt lat="43.60757" lon="7.03566">
        <ele>166</ele>
        <time>2011-05-12T16:24:22Z</time>
      </trkpt>
      <trkpt lat="43.60756" lon="7.03568">
        <ele>169</ele>
        <time>2011-05-12T16:24:35Z</time>
      </trkpt>
      <trkpt lat="43.60758" lon="7.03568">
        <ele>169</ele>
        <time>2011-05-12T16:24:49Z</time>
      </trkpt>
      <trkpt lat="43.60758" lon="7.03566">
        <ele>170</ele>
        <time>2011-05-12T16:24:55Z</time>
      </trkpt>
      <trkpt lat="43.60758" lon="7.03565">
        <ele>172</ele>
        <time>2011-05-12T16:25:14Z</time>
      </trkpt>
      <trkpt lat="43.60758" lon="7.03563">
        <ele>176</ele>
        <time>2011-05-12T16:25:20Z</time>
      </trkpt>
      <trkpt lat="43.60759" lon="7.03559">
        <ele>176</ele>
        <time>2011-05-12T16:25:28Z</time>
      </trkpt>
      <trkpt lat="43.60757" lon="7.03558">
        <ele>177</ele>
        <time>2011-05-12T16:25:41Z</time>
      </trkpt>
      <trkpt lat="43.60757" lon="7.03558">
        <ele>177</ele>
        <time>2011-05-12T16:25:48Z</time>
      </trkpt>
      <trkpt lat="43.60759" lon="7.03559">
        <ele>177</ele>
        <time>2011-05-12T16:25:53Z</time>
      </trkpt>
      <trkpt lat="43.60756" lon="7.03561">
        <ele>178</ele>
        <time>2011-05-12T16:25:58Z</time>
      </trkpt>
      <trkpt lat="43.60753" lon="7.03562">
        <ele>179</ele>
        <time>2011-05-12T16:26:04Z</time>
      </trkpt>
      <trkpt lat="43.6075" lon="7.03561">
        <ele>179</ele>
        <time>2011-05-12T16:26:13Z</time>
      </trkpt>
      <trkpt lat="43.60751" lon="7.03558">
        <ele>179</ele>
        <time>2011-05-12T16:26:19Z</time>
      </trkpt>
      <trkpt lat="43.60747" lon="7.03562">
        <ele>179</ele>
        <time>2011-05-12T16:26:24Z</time>
      </trkpt>
      <trkpt lat="43.60745" lon="7.03565">
        <ele>179</ele>
        <time>2011-05-12T16:26:32Z</time>
      </trkpt>
      <trkpt lat="43.60748" lon="7.03572">
        <ele>179</ele>
        <time>2011-05-12T16:26:37Z</time>
      </trkpt>
      <trkpt lat="43.60749" lon="7.03576">
        <ele>179</ele>
        <time>2011-05-12T16:26:42Z</time>
      </trkpt>
      <trkpt lat="43.60751" lon="7.03577">
        <ele>182</ele>
        <time>2011-05-12T16:26:51Z</time>
      </trkpt>
      <trkpt lat="43.60749" lon="7.03582">
        <ele>182</ele>
        <time>2011-05-12T16:26:56Z</time>
      </trkpt>
      <trkpt lat="43.60746" lon="7.03585">
        <ele>181</ele>
        <time>2011-05-12T16:27:07Z</time>
      </trkpt>
      <trkpt lat="43.60735" lon="7.03598">
        <ele>179</ele>
        <time>2011-05-12T16:27:12Z</time>
      </trkpt>
      <trkpt lat="43.60727" lon="7.03613">
        <ele>178</ele>
        <time>2011-05-12T16:27:17Z</time>
      </trkpt>
      <trkpt lat="43.60723" lon="7.03628">
        <ele>178</ele>
        <time>2011-05-12T16:27:22Z</time>
      </trkpt>
      <trkpt lat="43.6073" lon="7.03645">
        <ele>178</ele>
        <time>2011-05-12T16:27:27Z</time>
      </trkpt>
      <trkpt lat="43.60733" lon="7.03663">
        <ele>178</ele>
        <time>2011-05-12T16:27:32Z</time>
      </trkpt>
      <trkpt lat="43.60732" lon="7.03682">
        <ele>178</ele>
        <time>2011-05-12T16:27:37Z</time>
      </trkpt>
      <trkpt lat="43.60728" lon="7.03701">
        <ele>180</ele>
        <time>2011-05-12T16:27:42Z</time>
      </trkpt>
      <trkpt lat="43.6072" lon="7.03711">
        <ele>182</ele>
        <time>2011-05-12T16:27:47Z</time>
      </trkpt>
      <trkpt lat="43.60712" lon="7.03711">
        <ele>183</ele>
        <time>2011-05-12T16:27:52Z</time>
      </trkpt>
      <trkpt lat="43.60706" lon="7.0371">
        <ele>183</ele>
        <time>2011-05-12T16:27:57Z</time>
      </trkpt>
      <trkpt lat="43.60698" lon="7.03701">
        <ele>183</ele>
        <time>2011-05-12T16:28:02Z</time>
      </trkpt>
      <trkpt lat="43.60693" lon="7.03696">
        <ele>183</ele>
        <time>2011-05-12T16:28:07Z</time>
      </trkpt>
      <trkpt lat="43.60684" lon="7.03689">
        <ele>183</ele>
        <time>2011-05-12T16:28:12Z</time>
      </trkpt>
      <trkpt lat="43.60677" lon="7.03682">
        <ele>183</ele>
        <time>2011-05-12T16:28:17Z</time>
      </trkpt>
      <trkpt lat="43.60673" lon="7.03669">
        <ele>183</ele>
        <time>2011-05-12T16:28:22Z</time>
      </trkpt>
      <trkpt lat="43.60663" lon="7.03659">
        <ele>183</ele>
        <time>2011-05-12T16:28:27Z</time>
      </trkpt>
      <trkpt lat="43.60661" lon="7.03638">
        <ele>182</ele>
        <time>2011-05-12T16:28:32Z</time>
      </trkpt>
      <trkpt lat="43.60648" lon="7.0363">
        <ele>182</ele>
        <time>2011-05-12T16:28:37Z</time>
      </trkpt>
      <trkpt lat="43.60636" lon="7.0362">
        <ele>181</ele>
        <time>2011-05-12T16:28:42Z</time>
      </trkpt>
      <trkpt lat="43.60623" lon="7.03621">
        <ele>179</ele>
        <time>2011-05-12T16:28:47Z</time>
      </trkpt>
      <trkpt lat="43.60613" lon="7.03619">
        <ele>178</ele>
        <time>2011-05-12T16:28:52Z</time>
      </trkpt>
      <trkpt lat="43.60602" lon="7.03615">
        <ele>178</ele>
        <time>2011-05-12T16:28:57Z</time>
      </trkpt>
      <trkpt lat="43.60589" lon="7.03616">
        <ele>178</ele>
        <time>2011-05-12T16:29:02Z</time>
      </trkpt>
      <trkpt lat="43.6058" lon="7.03624">
        <ele>178</ele>
        <time>2011-05-12T16:29:07Z</time>
      </trkpt>
      <trkpt lat="43.60574" lon="7.03631">
        <ele>178</ele>
        <time>2011-05-12T16:29:12Z</time>
      </trkpt>
      <trkpt lat="43.60566" lon="7.0364">
        <ele>179</ele>
        <time>2011-05-12T16:29:17Z</time>
      </trkpt>
      <trkpt lat="43.60556" lon="7.03638">
        <ele>181</ele>
        <time>2011-05-12T16:29:22Z</time>
      </trkpt>
      <trkpt lat="43.60553" lon="7.03641">
        <ele>183</ele>
        <time>2011-05-12T16:29:27Z</time>
      </trkpt>
      <trkpt lat="43.60552" lon="7.03642">
        <ele>187</ele>
        <time>2011-05-12T16:29:38Z</time>
      </trkpt>
      <trkpt lat="43.60552" lon="7.03641">
        <ele>188</ele>
        <time>2011-05-12T16:29:53Z</time>
      </trkpt>
      <trkpt lat="43.60551" lon="7.03642">
        <ele>190</ele>
        <time>2011-05-12T16:30:05Z</time>
      </trkpt>
      <trkpt lat="43.60552" lon="7.03643">
        <ele>191</ele>
        <time>2011-05-12T16:30:20Z</time>
      </trkpt>
      <trkpt lat="43.6055" lon="7.03647">
        <ele>191</ele>
        <time>2011-05-12T16:30:27Z</time>
      </trkpt>
      <trkpt lat="43.6055" lon="7.03659">
        <ele>191</ele>
        <time>2011-05-12T16:30:32Z</time>
      </trkpt>
      <trkpt lat="43.60552" lon="7.03674">
        <ele>191</ele>
        <time>2011-05-12T16:30:37Z</time>
      </trkpt>
      <trkpt lat="43.60554" lon="7.03671">
        <ele>191</ele>
        <time>2011-05-12T16:30:42Z</time>
      </trkpt>
      <trkpt lat="43.60553" lon="7.03657">
        <ele>191</ele>
        <time>2011-05-12T16:30:55Z</time>
      </trkpt>
      <trkpt lat="43.60553" lon="7.03651">
        <ele>191</ele>
        <time>2011-05-12T16:31:01Z</time>
      </trkpt>
      <trkpt lat="43.60552" lon="7.03648">
        <ele>191</ele>
        <time>2011-05-12T16:31:21Z</time>
      </trkpt>
      <trkpt lat="43.60551" lon="7.03645">
        <ele>191</ele>
        <time>2011-05-12T16:31:28Z</time>
      </trkpt>
      <trkpt lat="43.60552" lon="7.03661">
        <ele>191</ele>
        <time>2011-05-12T16:31:33Z</time>
      </trkpt>
      <trkpt lat="43.60555" lon="7.03681">
        <ele>191</ele>
        <time>2011-05-12T16:31:38Z</time>
      </trkpt>
      <trkpt lat="43.60562" lon="7.03714">
        <ele>191</ele>
        <time>2011-05-12T16:31:43Z</time>
      </trkpt>
      <trkpt lat="43.60567" lon="7.03744">
        <ele>192</ele>
        <time>2011-05-12T16:31:48Z</time>
      </trkpt>
      <trkpt lat="43.60566" lon="7.03768">
        <ele>195</ele>
        <time>2011-05-12T16:31:53Z</time>
      </trkpt>
      <trkpt lat="43.60564" lon="7.03791">
        <ele>196</ele>
        <time>2011-05-12T16:31:58Z</time>
      </trkpt>
      <trkpt lat="43.60553" lon="7.03803">
        <ele>196</ele>
        <time>2011-05-12T16:32:03Z</time>
      </trkpt>
      <trkpt lat="43.60538" lon="7.03822">
        <ele>198</ele>
        <time>2011-05-12T16:32:08Z</time>
      </trkpt>
      <trkpt lat="43.60518" lon="7.03839">
        <ele>200</ele>
        <time>2011-05-12T16:32:13Z</time>
      </trkpt>
      <trkpt lat="43.60504" lon="7.03831">
        <ele>201</ele>
        <time>2011-05-12T16:32:18Z</time>
      </trkpt>
      <trkpt lat="43.60498" lon="7.03812">
        <ele>201</ele>
        <time>2011-05-12T16:32:23Z</time>
      </trkpt>
      <trkpt lat="43.60492" lon="7.03794">
        <ele>201</ele>
        <time>2011-05-12T16:32:28Z</time>
      </trkpt>
      <trkpt lat="43.60489" lon="7.03776">
        <ele>200</ele>
        <time>2011-05-12T16:32:33Z</time>
      </trkpt>
      <trkpt lat="43.60487" lon="7.03755">
        <ele>198</ele>
        <time>2011-05-12T16:32:38Z</time>
      </trkpt>
      <trkpt lat="43.60484" lon="7.03734">
        <ele>198</ele>
        <time>2011-05-12T16:32:43Z</time>
      </trkpt>
      <trkpt lat="43.60479" lon="7.03713">
        <ele>197</ele>
        <time>2011-05-12T16:32:48Z</time>
      </trkpt>
      <trkpt lat="43.60472" lon="7.03701">
        <ele>197</ele>
        <time>2011-05-12T16:32:53Z</time>
      </trkpt>
      <trkpt lat="43.60466" lon="7.03698">
        <ele>197</ele>
        <time>2011-05-12T16:32:58Z</time>
      </trkpt>
      <trkpt lat="43.60459" lon="7.03694">
        <ele>197</ele>
        <time>2011-05-12T16:33:04Z</time>
      </trkpt>
      <trkpt lat="43.60454" lon="7.03693">
        <ele>197</ele>
        <time>2011-05-12T16:33:09Z</time>
      </trkpt>
      <trkpt lat="43.60454" lon="7.03694">
        <ele>197</ele>
        <time>2011-05-12T16:33:14Z</time>
      </trkpt>
      <trkpt lat="43.60442" lon="7.03698">
        <ele>198</ele>
        <time>2011-05-12T16:33:19Z</time>
      </trkpt>
      <trkpt lat="43.60419" lon="7.03707">
        <ele>198</ele>
        <time>2011-05-12T16:33:24Z</time>
      </trkpt>
      <trkpt lat="43.60388" lon="7.03725">
        <ele>199</ele>
        <time>2011-05-12T16:33:29Z</time>
      </trkpt>
      <trkpt lat="43.6035" lon="7.03719">
        <ele>199</ele>
        <time>2011-05-12T16:33:34Z</time>
      </trkpt>
      <trkpt lat="43.60312" lon="7.03705">
        <ele>199</ele>
        <time>2011-05-12T16:33:39Z</time>
      </trkpt>
      <trkpt lat="43.60286" lon="7.03667">
        <ele>198</ele>
        <time>2011-05-12T16:33:44Z</time>
      </trkpt>
      <trkpt lat="43.60275" lon="7.03615">
        <ele>193</ele>
        <time>2011-05-12T16:33:49Z</time>
      </trkpt>
      <trkpt lat="43.60264" lon="7.03588">
        <ele>191</ele>
        <time>2011-05-12T16:33:54Z</time>
      </trkpt>
      <trkpt lat="43.6026" lon="7.03583">
        <ele>191</ele>
        <time>2011-05-12T16:34:19Z</time>
      </trkpt>
      <trkpt lat="43.60244" lon="7.03555">
        <ele>192</ele>
        <time>2011-05-12T16:34:25Z</time>
      </trkpt>
      <trkpt lat="43.60226" lon="7.03528">
        <ele>192</ele>
        <time>2011-05-12T16:34:30Z</time>
      </trkpt>
      <trkpt lat="43.60225" lon="7.03493">
        <ele>191</ele>
        <time>2011-05-12T16:34:35Z</time>
      </trkpt>
      <trkpt lat="43.60219" lon="7.03474">
        <ele>188</ele>
        <time>2011-05-12T16:34:40Z</time>
      </trkpt>
      <trkpt lat="43.60205" lon="7.03478">
        <ele>184</ele>
        <time>2011-05-12T16:34:45Z</time>
      </trkpt>
      <trkpt lat="43.60187" lon="7.03471">
        <ele>182</ele>
        <time>2011-05-12T16:34:50Z</time>
      </trkpt>
      <trkpt lat="43.60186" lon="7.03484">
        <ele>181</ele>
        <time>2011-05-12T16:34:55Z</time>
      </trkpt>
      <trkpt lat="43.60191" lon="7.03503">
        <ele>181</ele>
        <time>2011-05-12T16:35:00Z</time>
      </trkpt>
      <trkpt lat="43.60196" lon="7.03528">
        <ele>181</ele>
        <time>2011-05-12T16:35:06Z</time>
      </trkpt>
      <trkpt lat="43.60188" lon="7.03545">
        <ele>181</ele>
        <time>2011-05-12T16:35:11Z</time>
      </trkpt>
      <trkpt lat="43.60183" lon="7.03568">
        <ele>181</ele>
        <time>2011-05-12T16:35:16Z</time>
      </trkpt>
      <trkpt lat="43.60191" lon="7.03591">
        <ele>181</ele>
        <time>2011-05-12T16:35:21Z</time>
      </trkpt>
      <trkpt lat="43.60203" lon="7.03614">
        <ele>182</ele>
        <time>2011-05-12T16:35:26Z</time>
      </trkpt>
      <trkpt lat="43.60207" lon="7.0364">
        <ele>183</ele>
        <time>2011-05-12T16:35:31Z</time>
      </trkpt>
      <trkpt lat="43.60212" lon="7.03658">
        <ele>184</ele>
        <time>2011-05-12T16:35:36Z</time>
      </trkpt>
      <trkpt lat="43.60217" lon="7.03683">
        <ele>185</ele>
        <time>2011-05-12T16:35:41Z</time>
      </trkpt>
      <trkpt lat="43.60221" lon="7.03705">
        <ele>187</ele>
        <time>2011-05-12T16:35:46Z</time>
      </trkpt>
      <trkpt lat="43.60227" lon="7.03728">
        <ele>187</ele>
        <time>2011-05-12T16:35:51Z</time>
      </trkpt>
      <trkpt lat="43.60237" lon="7.03761">
        <ele>187</ele>
        <time>2011-05-12T16:35:56Z</time>
      </trkpt>
      <trkpt lat="43.60245" lon="7.03791">
        <ele>187</ele>
        <time>2011-05-12T16:36:01Z</time>
      </trkpt>
      <trkpt lat="43.60249" lon="7.03825">
        <ele>187</ele>
        <time>2011-05-12T16:36:06Z</time>
      </trkpt>
      <trkpt lat="43.60246" lon="7.03854">
        <ele>188</ele>
        <time>2011-05-12T16:36:11Z</time>
      </trkpt>
      <trkpt lat="43.60251" lon="7.03879">
        <ele>190</ele>
        <time>2011-05-12T16:36:16Z</time>
      </trkpt>
      <trkpt lat="43.60261" lon="7.03908">
        <ele>190</ele>
        <time>2011-05-12T16:36:21Z</time>
      </trkpt>
      <trkpt lat="43.60269" lon="7.03937">
        <ele>190</ele>
        <time>2011-05-12T16:36:26Z</time>
      </trkpt>
      <trkpt lat="43.60271" lon="7.03955">
        <ele>190</ele>
        <time>2011-05-12T16:36:31Z</time>
      </trkpt>
      <trkpt lat="43.60274" lon="7.0396">
        <ele>193</ele>
        <time>2011-05-12T16:36:39Z</time>
      </trkpt>
      <trkpt lat="43.60277" lon="7.03963">
        <ele>192</ele>
        <time>2011-05-12T16:36:47Z</time>
      </trkpt>
      <trkpt lat="43.60275" lon="7.03983">
        <ele>190</ele>
        <time>2011-05-12T16:36:52Z</time>
      </trkpt>
      <trkpt lat="43.60276" lon="7.04017">
        <ele>190</ele>
        <time>2011-05-12T16:36:57Z</time>
      </trkpt>
      <trkpt lat="43.60272" lon="7.04045">
        <ele>190</ele>
        <time>2011-05-12T16:37:02Z</time>
      </trkpt>
      <trkpt lat="43.60261" lon="7.04066">
        <ele>190</ele>
        <time>2011-05-12T16:37:07Z</time>
      </trkpt>
      <trkpt lat="43.60259" lon="7.0409">
        <ele>190</ele>
        <time>2011-05-12T16:37:12Z</time>
      </trkpt>
      <trkpt lat="43.60261" lon="7.0412">
        <ele>191</ele>
        <time>2011-05-12T16:37:18Z</time>
      </trkpt>
      <trkpt lat="43.60264" lon="7.04131">
        <ele>192</ele>
        <time>2011-05-12T16:37:23Z</time>
      </trkpt>
      <trkpt lat="43.6027" lon="7.04139">
        <ele>193</ele>
        <time>2011-05-12T16:37:29Z</time>
      </trkpt>
      <trkpt lat="43.60278" lon="7.04142">
        <ele>195</ele>
        <time>2011-05-12T16:37:34Z</time>
      </trkpt>
      <trkpt lat="43.60295" lon="7.04138">
        <ele>195</ele>
        <time>2011-05-12T16:37:39Z</time>
      </trkpt>
      <trkpt lat="43.603" lon="7.04139">
        <ele>192</ele>
        <time>2011-05-12T16:37:45Z</time>
      </trkpt>
      <trkpt lat="43.60302" lon="7.04138">
        <ele>191</ele>
        <time>2011-05-12T16:37:54Z</time>
      </trkpt>
      <trkpt lat="43.60304" lon="7.04137">
        <ele>191</ele>
        <time>2011-05-12T16:37:59Z</time>
      </trkpt>
      <trkpt lat="43.60305" lon="7.04139">
        <ele>191</ele>
        <time>2011-05-12T16:38:09Z</time>
      </trkpt>
      <trkpt lat="43.60304" lon="7.04139">
        <ele>195</ele>
        <time>2011-05-12T16:38:23Z</time>
      </trkpt>
      <trkpt lat="43.60303" lon="7.04138">
        <ele>195</ele>
        <time>2011-05-12T16:38:31Z</time>
      </trkpt>
      <trkpt lat="43.60304" lon="7.0414">
        <ele>195</ele>
        <time>2011-05-12T16:38:37Z</time>
      </trkpt>
      <trkpt lat="43.60303" lon="7.04138">
        <ele>194</ele>
        <time>2011-05-12T16:39:24Z</time>
      </trkpt>
      <trkpt lat="43.60303" lon="7.04135">
        <ele>194</ele>
        <time>2011-05-12T16:39:33Z</time>
      </trkpt>
      <trkpt lat="43.60304" lon="7.04137">
        <ele>194</ele>
        <time>2011-05-12T16:39:39Z</time>
      </trkpt>
      <trkpt lat="43.60307" lon="7.04138">
        <ele>194</ele>
        <time>2011-05-12T16:39:47Z</time>
      </trkpt>
      <trkpt lat="43.60311" lon="7.04145">
        <ele>194</ele>
        <time>2011-05-12T16:39:52Z</time>
      </trkpt>
      <trkpt lat="43.6033" lon="7.04162">
        <ele>194</ele>
        <time>2011-05-12T16:39:57Z</time>
      </trkpt>
      <trkpt lat="43.60352" lon="7.04182">
        <ele>194</ele>
        <time>2011-05-12T16:40:02Z</time>
      </trkpt>
      <trkpt lat="43.60369" lon="7.042">
        <ele>194</ele>
        <time>2011-05-12T16:40:07Z</time>
      </trkpt>
      <trkpt lat="43.60388" lon="7.04217">
        <ele>194</ele>
        <time>2011-05-12T16:40:12Z</time>
      </trkpt>
      <trkpt lat="43.60407" lon="7.04235">
        <ele>194</ele>
        <time>2011-05-12T16:40:17Z</time>
      </trkpt>
      <trkpt lat="43.60426" lon="7.04255">
        <ele>196</ele>
        <time>2011-05-12T16:40:22Z</time>
      </trkpt>
      <trkpt lat="43.60444" lon="7.04283">
        <ele>196</ele>
        <time>2011-05-12T16:40:27Z</time>
      </trkpt>
      <trkpt lat="43.60455" lon="7.04309">
        <ele>196</ele>
        <time>2011-05-12T16:40:32Z</time>
      </trkpt>
      <trkpt lat="43.60461" lon="7.04337">
        <ele>196</ele>
        <time>2011-05-12T16:40:37Z</time>
      </trkpt>
      <trkpt lat="43.60465" lon="7.04358">
        <ele>196</ele>
        <time>2011-05-12T16:40:42Z</time>
      </trkpt>
      <trkpt lat="43.60466" lon="7.04368">
        <ele>196</ele>
        <time>2011-05-12T16:40:47Z</time>
      </trkpt>
      <trkpt lat="43.60472" lon="7.04387">
        <ele>194</ele>
        <time>2011-05-12T16:40:52Z</time>
      </trkpt>
      <trkpt lat="43.60476" lon="7.04413">
        <ele>192</ele>
        <time>2011-05-12T16:40:57Z</time>
      </trkpt>
      <trkpt lat="43.60469" lon="7.04436">
        <ele>192</ele>
        <time>2011-05-12T16:41:02Z</time>
      </trkpt>
      <trkpt lat="43.60475" lon="7.04454">
        <ele>191</ele>
        <time>2011-05-12T16:41:07Z</time>
      </trkpt>
      <trkpt lat="43.60487" lon="7.0449">
        <ele>188</ele>
        <time>2011-05-12T16:41:13Z</time>
      </trkpt>
      <trkpt lat="43.60511" lon="7.04521">
        <ele>188</ele>
        <time>2011-05-12T16:41:19Z</time>
      </trkpt>
      <trkpt lat="43.60533" lon="7.04554">
        <ele>185</ele>
        <time>2011-05-12T16:41:24Z</time>
      </trkpt>
      <trkpt lat="43.60553" lon="7.04593">
        <ele>184</ele>
        <time>2011-05-12T16:41:29Z</time>
      </trkpt>
      <trkpt lat="43.60559" lon="7.04642">
        <ele>181</ele>
        <time>2011-05-12T16:41:35Z</time>
      </trkpt>
      <trkpt lat="43.60555" lon="7.04687">
        <ele>178</ele>
        <time>2011-05-12T16:41:40Z</time>
      </trkpt>
      <trkpt lat="43.60542" lon="7.04732">
        <ele>176</ele>
        <time>2011-05-12T16:41:45Z</time>
      </trkpt>
      <trkpt lat="43.60526" lon="7.04771">
        <ele>176</ele>
        <time>2011-05-12T16:41:51Z</time>
      </trkpt>
      <trkpt lat="43.60514" lon="7.04798">
        <ele>174</ele>
        <time>2011-05-12T16:41:56Z</time>
      </trkpt>
      <trkpt lat="43.60491" lon="7.0483">
        <ele>171</ele>
        <time>2011-05-12T16:42:01Z</time>
      </trkpt>
      <trkpt lat="43.60466" lon="7.04861">
        <ele>169</ele>
        <time>2011-05-12T16:42:06Z</time>
      </trkpt>
      <trkpt lat="43.60445" lon="7.04896">
        <ele>169</ele>
        <time>2011-05-12T16:42:11Z</time>
      </trkpt>
      <trkpt lat="43.60426" lon="7.04928">
        <ele>167</ele>
        <time>2011-05-12T16:42:16Z</time>
      </trkpt>
      <trkpt lat="43.60409" lon="7.04948">
        <ele>164</ele>
        <time>2011-05-12T16:42:21Z</time>
      </trkpt>
      <trkpt lat="43.60415" lon="7.04963">
        <ele>160</ele>
        <time>2011-05-12T16:42:26Z</time>
      </trkpt>
      <trkpt lat="43.60434" lon="7.04963">
        <ele>158</ele>
        <time>2011-05-12T16:42:31Z</time>
      </trkpt>
      <trkpt lat="43.60445" lon="7.04958">
        <ele>157</ele>
        <time>2011-05-12T16:42:36Z</time>
      </trkpt>
      <trkpt lat="43.60448" lon="7.04956">
        <ele>157</ele>
        <time>2011-05-12T16:42:42Z</time>
      </trkpt>
      <trkpt lat="43.60446" lon="7.04956">
        <ele>159</ele>
        <time>2011-05-12T16:43:03Z</time>
      </trkpt>
      <trkpt lat="43.60445" lon="7.04956">
        <ele>162</ele>
        <time>2011-05-12T16:43:08Z</time>
      </trkpt>
      <trkpt lat="43.60447" lon="7.04955">
        <ele>164</ele>
        <time>2011-05-12T16:43:23Z</time>
      </trkpt>
      <trkpt lat="43.60446" lon="7.04957">
        <ele>164</ele>
        <time>2011-05-12T16:43:32Z</time>
      </trkpt>
      <trkpt lat="43.60445" lon="7.04958">
        <ele>164</ele>
        <time>2011-05-12T16:43:39Z</time>
      </trkpt>
      <trkpt lat="43.60446" lon="7.04959">
        <ele>164</ele>
        <time>2011-05-12T16:43:47Z</time>
      </trkpt>
      <trkpt lat="43.60448" lon="7.04962">
        <ele>164</ele>
        <time>2011-05-12T16:43:59Z</time>
      </trkpt>
      <trkpt lat="43.60448" lon="7.04962">
        <ele>164</ele>
        <time>2011-05-12T16:44:09Z</time>
      </trkpt>
      <trkpt lat="43.6045" lon="7.04962">
        <ele>164</ele>
        <time>2011-05-12T16:44:14Z</time>
      </trkpt>
      <trkpt lat="43.6045" lon="7.04965">
        <ele>163</ele>
        <time>2011-05-12T16:44:23Z</time>
      </trkpt>
      <trkpt lat="43.60447" lon="7.04965">
        <ele>163</ele>
        <time>2011-05-12T16:44:41Z</time>
      </trkpt>
      <trkpt lat="43.60446" lon="7.04963">
        <ele>163</ele>
        <time>2011-05-12T16:44:53Z</time>
      </trkpt>
      <trkpt lat="43.60447" lon="7.04963">
        <ele>163</ele>
        <time>2011-05-12T16:45:08Z</time>
      </trkpt>
      <trkpt lat="43.60444" lon="7.04962">
        <ele>163</ele>
        <time>2011-05-12T16:45:14Z</time>
      </trkpt>
      <trkpt lat="43.60432" lon="7.04968">
        <ele>163</ele>
        <time>2011-05-12T16:45:19Z</time>
      </trkpt>
      <trkpt lat="43.60415" lon="7.04964">
        <ele>163</ele>
        <time>2011-05-12T16:45:24Z</time>
      </trkpt>
      <trkpt lat="43.60401" lon="7.04961">
        <ele>163</ele>
        <time>2011-05-12T16:45:29Z</time>
      </trkpt>
      <trkpt lat="43.6039" lon="7.04952">
        <ele>162</ele>
        <time>2011-05-12T16:45:34Z</time>
      </trkpt>
      <trkpt lat="43.60378" lon="7.04949">
        <ele>161</ele>
        <time>2011-05-12T16:45:39Z</time>
      </trkpt>
      <trkpt lat="43.60361" lon="7.04959">
        <ele>159</ele>
        <time>2011-05-12T16:45:44Z</time>
      </trkpt>
      <trkpt lat="43.60337" lon="7.04982">
        <ele>157</ele>
        <time>2011-05-12T16:45:50Z</time>
      </trkpt>
      <trkpt lat="43.60321" lon="7.04999">
        <ele>157</ele>
        <time>2011-05-12T16:45:55Z</time>
      </trkpt>
      <trkpt lat="43.60302" lon="7.05012">
        <ele>158</ele>
        <time>2011-05-12T16:46:00Z</time>
      </trkpt>
      <trkpt lat="43.6029" lon="7.0502">
        <ele>160</ele>
        <time>2011-05-12T16:46:06Z</time>
      </trkpt>
      <trkpt lat="43.60294" lon="7.05016">
        <ele>160</ele>
        <time>2011-05-12T16:46:11Z</time>
      </trkpt>
      <trkpt lat="43.60307" lon="7.05005">
        <ele>159</ele>
        <time>2011-05-12T16:46:17Z</time>
      </trkpt>
      <trkpt lat="43.60328" lon="7.04986">
        <ele>155</ele>
        <time>2011-05-12T16:46:22Z</time>
      </trkpt>
      <trkpt lat="43.60356" lon="7.04954">
        <ele>152</ele>
        <time>2011-05-12T16:46:28Z</time>
      </trkpt>
      <trkpt lat="43.60377" lon="7.04942">
        <ele>152</ele>
        <time>2011-05-12T16:46:33Z</time>
      </trkpt>
      <trkpt lat="43.604" lon="7.04952">
        <ele>152</ele>
        <time>2011-05-12T16:46:38Z</time>
      </trkpt>
      <trkpt lat="43.60423" lon="7.04965">
        <ele>152</ele>
        <time>2011-05-12T16:46:43Z</time>
      </trkpt>
      <trkpt lat="43.60433" lon="7.04966">
        <ele>151</ele>
        <time>2011-05-12T16:46:56Z</time>
      </trkpt>
      <trkpt lat="43.60436" lon="7.04969">
        <ele>151</ele>
        <time>2011-05-12T16:47:07Z</time>
      </trkpt>
      <trkpt lat="43.60437" lon="7.0497">
        <ele>151</ele>
        <time>2011-05-12T16:47:13Z</time>
      </trkpt>
      <trkpt lat="43.60445" lon="7.04969">
        <ele>151</ele>
        <time>2011-05-12T16:47:18Z</time>
      </trkpt>
      <trkpt lat="43.60451" lon="7.0496">
        <ele>149</ele>
        <time>2011-05-12T16:47:24Z</time>
      </trkpt>
      <trkpt lat="43.6045" lon="7.04958">
        <ele>149</ele>
        <time>2011-05-12T16:47:30Z</time>
      </trkpt>
      <trkpt lat="43.60446" lon="7.04958">
        <ele>149</ele>
        <time>2011-05-12T16:47:36Z</time>
      </trkpt>
      <trkpt lat="43.60436" lon="7.04966">
        <ele>149</ele>
        <time>2011-05-12T16:47:41Z</time>
      </trkpt>
      <trkpt lat="43.60422" lon="7.04967">
        <ele>150</ele>
        <time>2011-05-12T16:47:46Z</time>
      </trkpt>
      <trkpt lat="43.60411" lon="7.0496">
        <ele>150</ele>
        <time>2011-05-12T16:47:51Z</time>
      </trkpt>
      <trkpt lat="43.60397" lon="7.04954">
        <ele>151</ele>
        <time>2011-05-12T16:47:56Z</time>
      </trkpt>
      <trkpt lat="43.60386" lon="7.04952">
        <ele>151</ele>
        <time>2011-05-12T16:48:01Z</time>
      </trkpt>
      <trkpt lat="43.60378" lon="7.0495">
        <ele>152</ele>
        <time>2011-05-12T16:48:07Z</time>
      </trkpt>
      <trkpt lat="43.60376" lon="7.0495">
        <ele>161</ele>
        <time>2011-05-12T16:48:17Z</time>
      </trkpt>
      <trkpt lat="43.60376" lon="7.04948">
        <ele>161</ele>
        <time>2011-05-12T16:48:22Z</time>
      </trkpt>
      <trkpt lat="43.6038" lon="7.04948">
        <ele>161</ele>
        <time>2011-05-12T16:48:27Z</time>
      </trkpt>
      <trkpt lat="43.60383" lon="7.04947">
        <ele>161</ele>
        <time>2011-05-12T16:48:32Z</time>
      </trkpt>
      <trkpt lat="43.60381" lon="7.04948">
        <ele>161</ele>
        <time>2011-05-12T16:48:38Z</time>
      </trkpt>
      <trkpt lat="43.6038" lon="7.04948">
        <ele>161</ele>
        <time>2011-05-12T16:48:46Z</time>
      </trkpt>
      <trkpt lat="43.60377" lon="7.04946">
        <ele>161</ele>
        <time>2011-05-12T16:48:51Z</time>
      </trkpt>
      <trkpt lat="43.6038" lon="7.0494">
        <ele>160</ele>
        <time>2011-05-12T16:48:57Z</time>
      </trkpt>
      <trkpt lat="43.60382" lon="7.04943">
        <ele>159</ele>
        <time>2011-05-12T16:49:10Z</time>
      </trkpt>
      <trkpt lat="43.60381" lon="7.04942">
        <ele>159</ele>
        <time>2011-05-12T16:49:17Z</time>
      </trkpt>
      <trkpt lat="43.6038" lon="7.04943">
        <ele>159</ele>
        <time>2011-05-12T16:49:24Z</time>
      </trkpt>
      <trkpt lat="43.6038" lon="7.04945">
        <ele>159</ele>
        <time>2011-05-12T16:49:33Z</time>
      </trkpt>
      <trkpt lat="43.60381" lon="7.04945">
        <ele>159</ele>
        <time>2011-05-12T16:49:38Z</time>
      </trkpt>
      <trkpt lat="43.60381" lon="7.04948">
        <ele>159</ele>
        <time>2011-05-12T16:49:43Z</time>
      </trkpt>
      <trkpt lat="43.60372" lon="7.04957">
        <ele>159</ele>
        <time>2011-05-12T16:49:48Z</time>
      </trkpt>
      <trkpt lat="43.60347" lon="7.04976">
        <ele>159</ele>
        <time>2011-05-12T16:49:53Z</time>
      </trkpt>
      <trkpt lat="43.6032" lon="7.05001">
        <ele>159</ele>
        <time>2011-05-12T16:49:58Z</time>
      </trkpt>
      <trkpt lat="43.60291" lon="7.05016">
        <ele>159</ele>
        <time>2011-05-12T16:50:03Z</time>
      </trkpt>
      <trkpt lat="43.60267" lon="7.05045">
        <ele>159</ele>
        <time>2011-05-12T16:50:08Z</time>
      </trkpt>
      <trkpt lat="43.60233" lon="7.05055">
        <ele>159</ele>
        <time>2011-05-12T16:50:14Z</time>
      </trkpt>
      <trkpt lat="43.60209" lon="7.05045">
        <ele>157</ele>
        <time>2011-05-12T16:50:19Z</time>
      </trkpt>
      <trkpt lat="43.60195" lon="7.05066">
        <ele>156</ele>
        <time>2011-05-12T16:50:24Z</time>
      </trkpt>
      <trkpt lat="43.60186" lon="7.05099">
        <ele>156</ele>
        <time>2011-05-12T16:50:29Z</time>
      </trkpt>
      <trkpt lat="43.60188" lon="7.05136">
        <ele>156</ele>
        <time>2011-05-12T16:50:34Z</time>
      </trkpt>
      <trkpt lat="43.60202" lon="7.05174">
        <ele>152</ele>
        <time>2011-05-12T16:50:39Z</time>
      </trkpt>
      <trkpt lat="43.60203" lon="7.05199">
        <ele>148</ele>
        <time>2011-05-12T16:50:44Z</time>
      </trkpt>
      <trkpt lat="43.60198" lon="7.05208">
        <ele>148</ele>
        <time>2011-05-12T16:50:50Z</time>
      </trkpt>
      <trkpt lat="43.602" lon="7.05203">
        <ele>143</ele>
        <time>2011-05-12T16:50:55Z</time>
      </trkpt>
      <trkpt lat="43.60201" lon="7.05202">
        <ele>138</ele>
        <time>2011-05-12T16:51:00Z</time>
      </trkpt>
      <trkpt lat="43.60201" lon="7.05201">
        <ele>136</ele>
        <time>2011-05-12T16:51:10Z</time>
      </trkpt>
      <trkpt lat="43.60204" lon="7.05196">
        <ele>134</ele>
        <time>2011-05-12T16:51:15Z</time>
      </trkpt>
      <trkpt lat="43.6021" lon="7.05189">
        <ele>133</ele>
        <time>2011-05-12T16:51:20Z</time>
      </trkpt>
      <trkpt lat="43.6021" lon="7.05179">
        <ele>133</ele>
        <time>2011-05-12T16:51:25Z</time>
      </trkpt>
      <trkpt lat="43.60205" lon="7.05166">
        <ele>133</ele>
        <time>2011-05-12T16:51:31Z</time>
      </trkpt>
      <trkpt lat="43.60196" lon="7.0515">
        <ele>135</ele>
        <time>2011-05-12T16:51:36Z</time>
      </trkpt>
      <trkpt lat="43.60192" lon="7.05131">
        <ele>136</ele>
        <time>2011-05-12T16:51:41Z</time>
      </trkpt>
      <trkpt lat="43.60194" lon="7.05113">
        <ele>136</ele>
        <time>2011-05-12T16:51:46Z</time>
      </trkpt>
      <trkpt lat="43.60202" lon="7.05096">
        <ele>136</ele>
        <time>2011-05-12T16:51:52Z</time>
      </trkpt>
      <trkpt lat="43.60207" lon="7.05078">
        <ele>136</ele>
        <time>2011-05-12T16:51:57Z</time>
      </trkpt>
      <trkpt lat="43.60213" lon="7.0506">
        <ele>136</ele>
        <time>2011-05-12T16:52:02Z</time>
      </trkpt>
      <trkpt lat="43.60221" lon="7.05049">
        <ele>140</ele>
        <time>2011-05-12T16:52:07Z</time>
      </trkpt>
      <trkpt lat="43.60231" lon="7.0505">
        <ele>143</ele>
        <time>2011-05-12T16:52:12Z</time>
      </trkpt>
      <trkpt lat="43.60242" lon="7.05049">
        <ele>146</ele>
        <time>2011-05-12T16:52:17Z</time>
      </trkpt>
      <trkpt lat="43.60247" lon="7.05036">
        <ele>147</ele>
        <time>2011-05-12T16:52:22Z</time>
      </trkpt>
      <trkpt lat="43.60247" lon="7.0502">
        <ele>148</ele>
        <time>2011-05-12T16:52:27Z</time>
      </trkpt>
      <trkpt lat="43.60244" lon="7.05001">
        <ele>149</ele>
        <time>2011-05-12T16:52:32Z</time>
      </trkpt>
      <trkpt lat="43.60243" lon="7.0498">
        <ele>149</ele>
        <time>2011-05-12T16:52:37Z</time>
      </trkpt>
      <trkpt lat="43.60235" lon="7.04943">
        <ele>149</ele>
        <time>2011-05-12T16:52:43Z</time>
      </trkpt>
      <trkpt lat="43.60227" lon="7.04912">
        <ele>147</ele>
        <time>2011-05-12T16:52:48Z</time>
      </trkpt>
      <trkpt lat="43.60239" lon="7.04883">
        <ele>144</ele>
        <time>2011-05-12T16:52:53Z</time>
      </trkpt>
      <trkpt lat="43.60247" lon="7.04861">
        <ele>141</ele>
        <time>2011-05-12T16:52:58Z</time>
      </trkpt>
      <trkpt lat="43.60252" lon="7.04845">
        <ele>141</ele>
        <time>2011-05-12T16:53:03Z</time>
      </trkpt>
      <trkpt lat="43.60255" lon="7.04835">
        <ele>143</ele>
        <time>2011-05-12T16:53:08Z</time>
      </trkpt>
      <trkpt lat="43.60254" lon="7.04825">
        <ele>146</ele>
        <time>2011-05-12T16:53:13Z</time>
      </trkpt>
      <trkpt lat="43.60253" lon="7.04819">
        <ele>151</ele>
        <time>2011-05-12T16:53:18Z</time>
      </trkpt>
      <trkpt lat="43.60247" lon="7.04814">
        <ele>152</ele>
        <time>2011-05-12T16:53:23Z</time>
      </trkpt>
      <trkpt lat="43.60243" lon="7.04811">
        <ele>153</ele>
        <time>2011-05-12T16:53:28Z</time>
      </trkpt>
      <trkpt lat="43.60236" lon="7.04811">
        <ele>154</ele>
        <time>2011-05-12T16:53:33Z</time>
      </trkpt>
      <trkpt lat="43.60225" lon="7.04813">
        <ele>155</ele>
        <time>2011-05-12T16:53:38Z</time>
      </trkpt>
      <trkpt lat="43.60212" lon="7.04804">
        <ele>155</ele>
        <time>2011-05-12T16:53:43Z</time>
      </trkpt>
      <trkpt lat="43.60221" lon="7.04797">
        <ele>155</ele>
        <time>2011-05-12T16:53:48Z</time>
      </trkpt>
      <trkpt lat="43.60235" lon="7.04796">
        <ele>156</ele>
        <time>2011-05-12T16:53:53Z</time>
      </trkpt>
      <trkpt lat="43.60249" lon="7.04798">
        <ele>156</ele>
        <time>2011-05-12T16:53:58Z</time>
      </trkpt>
      <trkpt lat="43.60263" lon="7.04805">
        <ele>158</ele>
        <time>2011-05-12T16:54:03Z</time>
      </trkpt>
      <trkpt lat="43.60276" lon="7.04818">
        <ele>159</ele>
        <time>2011-05-12T16:54:08Z</time>
      </trkpt>
      <trkpt lat="43.60287" lon="7.04852">
        <ele>159</ele>
        <time>2011-05-12T16:54:14Z</time>
      </trkpt>
      <trkpt lat="43.60306" lon="7.04883">
        <ele>159</ele>
        <time>2011-05-12T16:54:20Z</time>
      </trkpt>
      <trkpt lat="43.60324" lon="7.04905">
        <ele>160</ele>
        <time>2011-05-12T16:54:25Z</time>
      </trkpt>
      <trkpt lat="43.60353" lon="7.04925">
        <ele>160</ele>
        <time>2011-05-12T16:54:30Z</time>
      </trkpt>
      <trkpt lat="43.60374" lon="7.04941">
        <ele>160</ele>
        <time>2011-05-12T16:54:35Z</time>
      </trkpt>
      <trkpt lat="43.60378" lon="7.04941">
        <ele>160</ele>
        <time>2011-05-12T16:54:43Z</time>
      </trkpt>
      <trkpt lat="43.60383" lon="7.04945">
        <ele>160</ele>
        <time>2011-05-12T16:54:48Z</time>
      </trkpt>
      <trkpt lat="43.6039" lon="7.04954">
        <ele>160</ele>
        <time>2011-05-12T16:54:53Z</time>
      </trkpt>
      <trkpt lat="43.604" lon="7.0496">
        <ele>160</ele>
        <time>2011-05-12T16:54:58Z</time>
      </trkpt>
      <trkpt lat="43.6041" lon="7.04962">
        <ele>159</ele>
        <time>2011-05-12T16:55:03Z</time>
      </trkpt>
      <trkpt lat="43.60418" lon="7.04968">
        <ele>158</ele>
        <time>2011-05-12T16:55:08Z</time>
      </trkpt>
      <trkpt lat="43.60422" lon="7.0497">
        <ele>158</ele>
        <time>2011-05-12T16:55:13Z</time>
      </trkpt>
      <trkpt lat="43.60421" lon="7.04972">
        <ele>158</ele>
        <time>2011-05-12T16:55:19Z</time>
      </trkpt>
      <trkpt lat="43.60418" lon="7.04972">
        <ele>158</ele>
        <time>2011-05-12T16:55:29Z</time>
      </trkpt>
      <trkpt lat="43.60419" lon="7.04972">
        <ele>158</ele>
        <time>2011-05-12T16:55:37Z</time>
      </trkpt>
      <trkpt lat="43.60419" lon="7.04974">
        <ele>158</ele>
        <time>2011-05-12T16:55:46Z</time>
      </trkpt>
      <trkpt lat="43.6042" lon="7.04972">
        <ele>156</ele>
        <time>2011-05-12T16:55:57Z</time>
      </trkpt>
      <trkpt lat="43.6042" lon="7.04971">
        <ele>149</ele>
        <time>2011-05-12T16:56:18Z</time>
      </trkpt>
      <trkpt lat="43.60419" lon="7.04969">
        <ele>149</ele>
        <time>2011-05-12T16:56:23Z</time>
      </trkpt>
      <trkpt lat="43.60419" lon="7.04971">
        <ele>149</ele>
        <time>2011-05-12T16:56:33Z</time>
      </trkpt>
      <trkpt lat="43.60421" lon="7.04971">
        <ele>150</ele>
        <time>2011-05-12T16:56:43Z</time>
      </trkpt>
      <trkpt lat="43.60422" lon="7.04968">
        <ele>150</ele>
        <time>2011-05-12T16:56:50Z</time>
      </trkpt>
      <trkpt lat="43.60422" lon="7.04966">
        <ele>150</ele>
        <time>2011-05-12T16:57:02Z</time>
      </trkpt>
      <trkpt lat="43.60419" lon="7.04966">
        <ele>150</ele>
        <time>2011-05-12T16:57:08Z</time>
      </trkpt>
      <trkpt lat="43.60417" lon="7.04964">
        <ele>150</ele>
        <time>2011-05-12T16:57:15Z</time>
      </trkpt>
      <trkpt lat="43.60415" lon="7.04962">
        <ele>153</ele>
        <time>2011-05-12T16:57:21Z</time>
      </trkpt>
      <trkpt lat="43.60418" lon="7.04963">
        <ele>155</ele>
        <time>2011-05-12T16:57:26Z</time>
      </trkpt>
      <trkpt lat="43.6042" lon="7.04963">
        <ele>155</ele>
        <time>2011-05-12T16:57:33Z</time>
      </trkpt>
      <trkpt lat="43.60421" lon="7.04962">
        <ele>154</ele>
        <time>2011-05-12T16:57:38Z</time>
      </trkpt>
      <trkpt lat="43.60424" lon="7.04962">
        <ele>154</ele>
        <time>2011-05-12T16:57:44Z</time>
      </trkpt>
      <trkpt lat="43.60424" lon="7.04964">
        <ele>154</ele>
        <time>2011-05-12T16:57:50Z</time>
      </trkpt>
      <trkpt lat="43.60423" lon="7.04966">
        <ele>154</ele>
        <time>2011-05-12T16:57:56Z</time>
      </trkpt>
      <trkpt lat="43.60423" lon="7.04969">
        <ele>154</ele>
        <time>2011-05-12T16:58:04Z</time>
      </trkpt>
      <trkpt lat="43.60421" lon="7.04971">
        <ele>160</ele>
        <time>2011-05-12T16:58:11Z</time>
      </trkpt>
      <trkpt lat="43.60419" lon="7.04971">
        <ele>161</ele>
        <time>2011-05-12T16:58:25Z</time>
      </trkpt>
      <trkpt lat="43.60417" lon="7.04971">
        <ele>165</ele>
        <time>2011-05-12T16:58:35Z</time>
      </trkpt>
      <trkpt lat="43.60417" lon="7.04969">
        <ele>169</ele>
        <time>2011-05-12T16:58:43Z</time>
      </trkpt>
      <trkpt lat="43.60414" lon="7.04965">
        <ele>169</ele>
        <time>2011-05-12T16:58:50Z</time>
      </trkpt>
      <trkpt lat="43.60418" lon="7.04962">
        <ele>167</ele>
        <time>2011-05-12T16:58:56Z</time>
      </trkpt>
      <trkpt lat="43.60421" lon="7.04964">
        <ele>162</ele>
        <time>2011-05-12T16:59:01Z</time>
      </trkpt>
      <trkpt lat="43.60426" lon="7.04966">
        <ele>157</ele>
        <time>2011-05-12T16:59:06Z</time>
      </trkpt>
      <trkpt lat="43.60425" lon="7.04962">
        <ele>151</ele>
        <time>2011-05-12T16:59:13Z</time>
      </trkpt>
      <trkpt lat="43.60422" lon="7.04964">
        <ele>145</ele>
        <time>2011-05-12T16:59:19Z</time>
      </trkpt>
      <trkpt lat="43.60422" lon="7.04966">
        <ele>144</ele>
        <time>2011-05-12T16:59:27Z</time>
      </trkpt>
      <trkpt lat="43.60423" lon="7.04968">
        <ele>145</ele>
        <time>2011-05-12T16:59:32Z</time>
      </trkpt>
      <trkpt lat="43.60422" lon="7.04969">
        <ele>146</ele>
        <time>2011-05-12T16:59:39Z</time>
      </trkpt>
      <trkpt lat="43.60424" lon="7.0497">
        <ele>147</ele>
        <time>2011-05-12T16:59:51Z</time>
      </trkpt>
      <trkpt lat="43.60421" lon="7.04967">
        <ele>147</ele>
        <time>2011-05-12T16:59:58Z</time>
      </trkpt>
      <trkpt lat="43.60417" lon="7.04965">
        <ele>147</ele>
        <time>2011-05-12T17:00:04Z</time>
      </trkpt>
      <trkpt lat="43.60419" lon="7.04969">
        <ele>148</ele>
        <time>2011-05-12T17:00:10Z</time>
      </trkpt>
      <trkpt lat="43.6042" lon="7.04969">
        <ele>152</ele>
        <time>2011-05-12T17:00:20Z</time>
      </trkpt>
      <trkpt lat="43.6042" lon="7.04968">
        <ele>153</ele>
        <time>2011-05-12T17:00:28Z</time>
      </trkpt>
      <trkpt lat="43.60421" lon="7.04969">
        <ele>154</ele>
        <time>2011-05-12T17:00:53Z</time>
      </trkpt>
      <trkpt lat="43.60423" lon="7.04969">
        <ele>156</ele>
        <time>2011-05-12T17:01:16Z</time>
      </trkpt>
      <trkpt lat="43.60424" lon="7.04967">
        <ele>157</ele>
        <time>2011-05-12T17:01:27Z</time>
      </trkpt>
      <trkpt lat="43.60425" lon="7.04965">
        <ele>157</ele>
        <time>2011-05-12T17:01:38Z</time>
      </trkpt>
      <trkpt lat="43.60423" lon="7.04966">
        <ele>157</ele>
        <time>2011-05-12T17:01:46Z</time>
      </trkpt>
      <trkpt lat="43.6042" lon="7.04967">
        <ele>157</ele>
        <time>2011-05-12T17:01:53Z</time>
      </trkpt>
      <trkpt lat="43.60421" lon="7.04969">
        <ele>157</ele>
        <time>2011-05-12T17:01:58Z</time>
      </trkpt>
      <trkpt lat="43.60421" lon="7.04967">
        <ele>157</ele>
        <time>2011-05-12T17:02:14Z</time>
      </trkpt>
      <trkpt lat="43.60419" lon="7.04967">
        <ele>157</ele>
        <time>2011-05-12T17:02:20Z</time>
      </trkpt>
      <trkpt lat="43.60421" lon="7.04967">
        <ele>157</ele>
        <time>2011-05-12T17:02:28Z</time>
      </trkpt>
      <trkpt lat="43.60422" lon="7.04967">
        <ele>157</ele>
        <time>2011-05-12T17:02:34Z</time>
      </trkpt>
      <trkpt lat="43.60422" lon="7.04967">
        <ele>157</ele>
        <time>2011-05-12T17:02:42Z</time>
      </trkpt>
      <trkpt lat="43.60426" lon="7.04969">
        <ele>157</ele>
        <time>2011-05-12T17:02:53Z</time>
      </trkpt>
      <trkpt lat="43.60434" lon="7.04967">
        <ele>155</ele>
        <time>2011-05-12T17:02:59Z</time>
      </trkpt>
      <trkpt lat="43.60439" lon="7.04963">
        <ele>155</ele>
        <time>2011-05-12T17:03:06Z</time>
      </trkpt>
      <trkpt lat="43.60449" lon="7.04964">
        <ele>154</ele>
        <time>2011-05-12T17:03:11Z</time>
      </trkpt>
      <trkpt lat="43.60463" lon="7.04963">
        <ele>154</ele>
        <time>2011-05-12T17:03:16Z</time>
      </trkpt>
      <trkpt lat="43.6048" lon="7.04968">
        <ele>154</ele>
        <time>2011-05-12T17:03:21Z</time>
      </trkpt>
      <trkpt lat="43.60511" lon="7.04975">
        <ele>153</ele>
        <time>2011-05-12T17:03:27Z</time>
      </trkpt>
      <trkpt lat="43.60539" lon="7.04956">
        <ele>151</ele>
        <time>2011-05-12T17:03:32Z</time>
      </trkpt>
      <trkpt lat="43.60567" lon="7.04926">
        <ele>150</ele>
        <time>2011-05-12T17:03:37Z</time>
      </trkpt>
      <trkpt lat="43.60601" lon="7.04876">
        <ele>147</ele>
        <time>2011-05-12T17:03:42Z</time>
      </trkpt>
      <trkpt lat="43.60633" lon="7.04848">
        <ele>147</ele>
        <time>2011-05-12T17:03:47Z</time>
      </trkpt>
      <trkpt lat="43.60648" lon="7.04822">
        <ele>147</ele>
        <time>2011-05-12T17:03:53Z</time>
      </trkpt>
      <trkpt lat="43.60672" lon="7.04797">
        <ele>147</ele>
        <time>2011-05-12T17:03:59Z</time>
      </trkpt>
      <trkpt lat="43.60697" lon="7.04765">
        <ele>147</ele>
        <time>2011-05-12T17:04:05Z</time>
      </trkpt>
      <trkpt lat="43.60722" lon="7.04745">
        <ele>147</ele>
        <time>2011-05-12T17:04:10Z</time>
      </trkpt>
      <trkpt lat="43.60742" lon="7.04707">
        <ele>147</ele>
        <time>2011-05-12T17:04:16Z</time>
      </trkpt>
      <trkpt lat="43.60753" lon="7.04665">
        <ele>147</ele>
        <time>2011-05-12T17:04:21Z</time>
      </trkpt>
      <trkpt lat="43.60757" lon="7.04619">
        <ele>147</ele>
        <time>2011-05-12T17:04:26Z</time>
      </trkpt>
      <trkpt lat="43.60769" lon="7.04576">
        <ele>146</ele>
        <time>2011-05-12T17:04:31Z</time>
      </trkpt>
      <trkpt lat="43.60786" lon="7.04568">
        <ele>145</ele>
        <time>2011-05-12T17:04:36Z</time>
      </trkpt>
      <trkpt lat="43.60802" lon="7.04567">
        <ele>145</ele>
        <time>2011-05-12T17:04:41Z</time>
      </trkpt>
      <trkpt lat="43.60826" lon="7.04562">
        <ele>147</ele>
        <time>2011-05-12T17:04:47Z</time>
      </trkpt>
      <trkpt lat="43.60835" lon="7.04578">
        <ele>149</ele>
        <time>2011-05-12T17:04:52Z</time>
      </trkpt>
      <trkpt lat="43.60837" lon="7.04589">
        <ele>150</ele>
        <time>2011-05-12T17:04:58Z</time>
      </trkpt>
      <trkpt lat="43.60839" lon="7.04591">
        <ele>152</ele>
        <time>2011-05-12T17:05:03Z</time>
      </trkpt>
      <trkpt lat="43.6084" lon="7.0459">
        <ele>153</ele>
        <time>2011-05-12T17:05:18Z</time>
      </trkpt>
      <trkpt lat="43.60841" lon="7.04588">
        <ele>153</ele>
        <time>2011-05-12T17:05:27Z</time>
      </trkpt>
      <trkpt lat="43.60845" lon="7.04594">
        <ele>153</ele>
        <time>2011-05-12T17:05:32Z</time>
      </trkpt>
      <trkpt lat="43.60855" lon="7.046">
        <ele>153</ele>
        <time>2011-05-12T17:05:37Z</time>
      </trkpt>
      <trkpt lat="43.60864" lon="7.04601">
        <ele>154</ele>
        <time>2011-05-12T17:05:42Z</time>
      </trkpt>
      <trkpt lat="43.60873" lon="7.04604">
        <ele>156</ele>
        <time>2011-05-12T17:05:48Z</time>
      </trkpt>
      <trkpt lat="43.60882" lon="7.04602">
        <ele>156</ele>
        <time>2011-05-12T17:05:53Z</time>
      </trkpt>
      <trkpt lat="43.60889" lon="7.04597">
        <ele>157</ele>
        <time>2011-05-12T17:05:58Z</time>
      </trkpt>
      <trkpt lat="43.60896" lon="7.04588">
        <ele>157</ele>
        <time>2011-05-12T17:06:03Z</time>
      </trkpt>
      <trkpt lat="43.609" lon="7.04571">
        <ele>157</ele>
        <time>2011-05-12T17:06:09Z</time>
      </trkpt>
      <trkpt lat="43.60903" lon="7.04555">
        <ele>157</ele>
        <time>2011-05-12T17:06:15Z</time>
      </trkpt>
      <trkpt lat="43.6091" lon="7.04545">
        <ele>157</ele>
        <time>2011-05-12T17:06:21Z</time>
      </trkpt>
      <trkpt lat="43.60916" lon="7.04538">
        <ele>157</ele>
        <time>2011-05-12T17:06:27Z</time>
      </trkpt>
      <trkpt lat="43.60923" lon="7.04534">
        <ele>158</ele>
        <time>2011-05-12T17:06:32Z</time>
      </trkpt>
      <trkpt lat="43.6093" lon="7.04532">
        <ele>161</ele>
        <time>2011-05-12T17:06:37Z</time>
      </trkpt>
      <trkpt lat="43.60935" lon="7.04531">
        <ele>162</ele>
        <time>2011-05-12T17:06:42Z</time>
      </trkpt>
      <trkpt lat="43.60939" lon="7.04532">
        <ele>163</ele>
        <time>2011-05-12T17:06:47Z</time>
      </trkpt>
      <trkpt lat="43.60942" lon="7.0453">
        <ele>163</ele>
        <time>2011-05-12T17:06:53Z</time>
      </trkpt>
      <trkpt lat="43.60947" lon="7.04531">
        <ele>164</ele>
        <time>2011-05-12T17:07:00Z</time>
      </trkpt>
      <trkpt lat="43.60945" lon="7.04532">
        <ele>168</ele>
        <time>2011-05-12T17:07:07Z</time>
      </trkpt>
      <trkpt lat="43.60944" lon="7.04533">
        <ele>175</ele>
        <time>2011-05-12T17:07:18Z</time>
      </trkpt>
      <trkpt lat="43.60938" lon="7.04534">
        <ele>175</ele>
        <time>2011-05-12T17:07:23Z</time>
      </trkpt>
      <trkpt lat="43.60933" lon="7.04534">
        <ele>175</ele>
        <time>2011-05-12T17:07:30Z</time>
      </trkpt>
      <trkpt lat="43.60941" lon="7.04533">
        <ele>173</ele>
        <time>2011-05-12T17:07:35Z</time>
      </trkpt>
      <trkpt lat="43.60948" lon="7.04535">
        <ele>172</ele>
        <time>2011-05-12T17:07:41Z</time>
      </trkpt>
      <trkpt lat="43.60951" lon="7.04538">
        <ele>172</ele>
        <time>2011-05-12T17:07:47Z</time>
      </trkpt>
      <trkpt lat="43.6095" lon="7.04539">
        <ele>171</ele>
        <time>2011-05-12T17:07:57Z</time>
      </trkpt>
      <trkpt lat="43.6095" lon="7.04537">
        <ele>174</ele>
        <time>2011-05-12T17:08:16Z</time>
      </trkpt>
      <trkpt lat="43.60952" lon="7.04537">
        <ele>174</ele>
        <time>2011-05-12T17:08:23Z</time>
      </trkpt>
      <trkpt lat="43.60954" lon="7.04537">
        <ele>174</ele>
        <time>2011-05-12T17:08:32Z</time>
      </trkpt>
      <trkpt lat="43.60956" lon="7.04534">
        <ele>171</ele>
        <time>2011-05-12T17:08:37Z</time>
      </trkpt>
      <trkpt lat="43.60957" lon="7.04532">
        <ele>169</ele>
        <time>2011-05-12T17:08:42Z</time>
      </trkpt>
      <trkpt lat="43.60955" lon="7.04531">
        <ele>168</ele>
        <time>2011-05-12T17:08:47Z</time>
      </trkpt>
      <trkpt lat="43.60956" lon="7.0453">
        <ele>167</ele>
        <time>2011-05-12T17:08:58Z</time>
      </trkpt>
      <trkpt lat="43.60957" lon="7.04528">
        <ele>165</ele>
        <time>2011-05-12T17:09:08Z</time>
      </trkpt>
      <trkpt lat="43.60964" lon="7.04533">
        <ele>165</ele>
        <time>2011-05-12T17:09:14Z</time>
      </trkpt>
      <trkpt lat="43.60976" lon="7.04537">
        <ele>165</ele>
        <time>2011-05-12T17:09:20Z</time>
      </trkpt>
      <trkpt lat="43.60994" lon="7.04526">
        <ele>165</ele>
        <time>2011-05-12T17:09:25Z</time>
      </trkpt>
      <trkpt lat="43.61017" lon="7.04482">
        <ele>165</ele>
        <time>2011-05-12T17:09:31Z</time>
      </trkpt>
      <trkpt lat="43.61041" lon="7.04438">
        <ele>165</ele>
        <time>2011-05-12T17:09:36Z</time>
      </trkpt>
      <trkpt lat="43.61056" lon="7.044">
        <ele>165</ele>
        <time>2011-05-12T17:09:41Z</time>
      </trkpt>
      <trkpt lat="43.61071" lon="7.04377">
        <ele>165</ele>
        <time>2011-05-12T17:09:46Z</time>
      </trkpt>
      <trkpt lat="43.61096" lon="7.04361">
        <ele>165</ele>
        <time>2011-05-12T17:09:51Z</time>
      </trkpt>
      <trkpt lat="43.61113" lon="7.04356">
        <ele>167</ele>
        <time>2011-05-12T17:09:56Z</time>
      </trkpt>
      <trkpt lat="43.61126" lon="7.0435">
        <ele>169</ele>
        <time>2011-05-12T17:10:01Z</time>
      </trkpt>
      <trkpt lat="43.6114" lon="7.04349">
        <ele>171</ele>
        <time>2011-05-12T17:10:06Z</time>
      </trkpt>
      <trkpt lat="43.6115" lon="7.04348">
        <ele>172</ele>
        <time>2011-05-12T17:10:11Z</time>
      </trkpt>
      <trkpt lat="43.61151" lon="7.04354">
        <ele>173</ele>
        <time>2011-05-12T17:10:16Z</time>
      </trkpt>
      <trkpt lat="43.61143" lon="7.04367">
        <ele>175</ele>
        <time>2011-05-12T17:10:21Z</time>
      </trkpt>
      <trkpt lat="43.61122" lon="7.04358">
        <ele>175</ele>
        <time>2011-05-12T17:10:27Z</time>
      </trkpt>
      <trkpt lat="43.61129" lon="7.04352">
        <ele>175</ele>
        <time>2011-05-12T17:10:32Z</time>
      </trkpt>
      <trkpt lat="43.61139" lon="7.04349">
        <ele>175</ele>
        <time>2011-05-12T17:10:37Z</time>
      </trkpt>
      <trkpt lat="43.61152" lon="7.04349">
        <ele>175</ele>
        <time>2011-05-12T17:10:43Z</time>
      </trkpt>
      <trkpt lat="43.61162" lon="7.04348">
        <ele>175</ele>
        <time>2011-05-12T17:10:48Z</time>
      </trkpt>
      <trkpt lat="43.61171" lon="7.04349">
        <ele>175</ele>
        <time>2011-05-12T17:10:53Z</time>
      </trkpt>
      <trkpt lat="43.61179" lon="7.04349">
        <ele>175</ele>
        <time>2011-05-12T17:10:59Z</time>
      </trkpt>
      <trkpt lat="43.61177" lon="7.04346">
        <ele>174</ele>
        <time>2011-05-12T17:11:05Z</time>
      </trkpt>
      <trkpt lat="43.61178" lon="7.0435">
        <ele>173</ele>
        <time>2011-05-12T17:11:11Z</time>
      </trkpt>
      <trkpt lat="43.61184" lon="7.04351">
        <ele>173</ele>
        <time>2011-05-12T17:11:16Z</time>
      </trkpt>
      <trkpt lat="43.61198" lon="7.04356">
        <ele>172</ele>
        <time>2011-05-12T17:11:21Z</time>
      </trkpt>
      <trkpt lat="43.61223" lon="7.04378">
        <ele>170</ele>
        <time>2011-05-12T17:11:27Z</time>
      </trkpt>
      <trkpt lat="43.61249" lon="7.04405">
        <ele>168</ele>
        <time>2011-05-12T17:11:32Z</time>
      </trkpt>
      <trkpt lat="43.61274" lon="7.04435">
        <ele>167</ele>
        <time>2011-05-12T17:11:37Z</time>
      </trkpt>
      <trkpt lat="43.61302" lon="7.0447">
        <ele>162</ele>
        <time>2011-05-12T17:11:42Z</time>
      </trkpt>
      <trkpt lat="43.61311" lon="7.04497">
        <ele>160</ele>
        <time>2011-05-12T17:11:47Z</time>
      </trkpt>
      <trkpt lat="43.61306" lon="7.04526">
        <ele>160</ele>
        <time>2011-05-12T17:11:52Z</time>
      </trkpt>
      <trkpt lat="43.61309" lon="7.04544">
        <ele>157</ele>
        <time>2011-05-12T17:11:58Z</time>
      </trkpt>
      <trkpt lat="43.61316" lon="7.04544">
        <ele>156</ele>
        <time>2011-05-12T17:12:03Z</time>
      </trkpt>
      <trkpt lat="43.61312" lon="7.04538">
        <ele>153</ele>
        <time>2011-05-12T17:12:09Z</time>
      </trkpt>
      <trkpt lat="43.61311" lon="7.04519">
        <ele>153</ele>
        <time>2011-05-12T17:12:15Z</time>
      </trkpt>
      <trkpt lat="43.61313" lon="7.04482">
        <ele>152</ele>
        <time>2011-05-12T17:12:21Z</time>
      </trkpt>
      <trkpt lat="43.61311" lon="7.04476">
        <ele>151</ele>
        <time>2011-05-12T17:12:26Z</time>
      </trkpt>
      <trkpt lat="43.61313" lon="7.04482">
        <ele>151</ele>
        <time>2011-05-12T17:12:31Z</time>
      </trkpt>
      <trkpt lat="43.6131" lon="7.04502">
        <ele>150</ele>
        <time>2011-05-12T17:12:36Z</time>
      </trkpt>
      <trkpt lat="43.61309" lon="7.04522">
        <ele>150</ele>
        <time>2011-05-12T17:12:41Z</time>
      </trkpt>
      <trkpt lat="43.61309" lon="7.04535">
        <ele>150</ele>
        <time>2011-05-12T17:12:46Z</time>
      </trkpt>
      <trkpt lat="43.61317" lon="7.04548">
        <ele>150</ele>
        <time>2011-05-12T17:12:51Z</time>
      </trkpt>
      <trkpt lat="43.6132" lon="7.04551">
        <ele>150</ele>
        <time>2011-05-12T17:12:59Z</time>
      </trkpt>
      <trkpt lat="43.6133" lon="7.04566">
        <ele>150</ele>
        <time>2011-05-12T17:13:05Z</time>
      </trkpt>
      <trkpt lat="43.61333" lon="7.04587">
        <ele>150</ele>
        <time>2011-05-12T17:13:10Z</time>
      </trkpt>
      <trkpt lat="43.61346" lon="7.04597">
        <ele>150</ele>
        <time>2011-05-12T17:13:15Z</time>
      </trkpt>
      <trkpt lat="43.61352" lon="7.046">
        <ele>150</ele>
        <time>2011-05-12T17:13:21Z</time>
      </trkpt>
      <trkpt lat="43.61354" lon="7.046">
        <ele>151</ele>
        <time>2011-05-12T17:13:27Z</time>
      </trkpt>
      <trkpt lat="43.61357" lon="7.04602">
        <ele>151</ele>
        <time>2011-05-12T17:13:37Z</time>
      </trkpt>
      <trkpt lat="43.61366" lon="7.04606">
        <ele>151</ele>
        <time>2011-05-12T17:13:43Z</time>
      </trkpt>
      <trkpt lat="43.61378" lon="7.04614">
        <ele>151</ele>
        <time>2011-05-12T17:13:48Z</time>
      </trkpt>
      <trkpt lat="43.61385" lon="7.04594">
        <ele>151</ele>
        <time>2011-05-12T17:13:53Z</time>
      </trkpt>
      <trkpt lat="43.61398" lon="7.04574">
        <ele>151</ele>
        <time>2011-05-12T17:13:58Z</time>
      </trkpt>
      <trkpt lat="43.61403" lon="7.04554">
        <ele>149</ele>
        <time>2011-05-12T17:14:03Z</time>
      </trkpt>
      <trkpt lat="43.61405" lon="7.04527">
        <ele>148</ele>
        <time>2011-05-12T17:14:08Z</time>
      </trkpt>
      <trkpt lat="43.61413" lon="7.04487">
        <ele>148</ele>
        <time>2011-05-12T17:14:13Z</time>
      </trkpt>
      <trkpt lat="43.61427" lon="7.04457">
        <ele>148</ele>
        <time>2011-05-12T17:14:18Z</time>
      </trkpt>
      <trkpt lat="43.61443" lon="7.04452">
        <ele>148</ele>
        <time>2011-05-12T17:14:23Z</time>
      </trkpt>
      <trkpt lat="43.61455" lon="7.04455">
        <ele>148</ele>
        <time>2011-05-12T17:14:28Z</time>
      </trkpt>
      <trkpt lat="43.61462" lon="7.04458">
        <ele>151</ele>
        <time>2011-05-12T17:14:33Z</time>
      </trkpt>
      <trkpt lat="43.61465" lon="7.04459">
        <ele>156</ele>
        <time>2011-05-12T17:14:43Z</time>
      </trkpt>
      <trkpt lat="43.61465" lon="7.04457">
        <ele>157</ele>
        <time>2011-05-12T17:14:49Z</time>
      </trkpt>
      <trkpt lat="43.61466" lon="7.04458">
        <ele>155</ele>
        <time>2011-05-12T17:15:03Z</time>
      </trkpt>
      <trkpt lat="43.61464" lon="7.04457">
        <ele>155</ele>
        <time>2011-05-12T17:15:25Z</time>
      </trkpt>
      <trkpt lat="43.61462" lon="7.04457">
        <ele>155</ele>
        <time>2011-05-12T17:15:47Z</time>
      </trkpt>
      <trkpt lat="43.61463" lon="7.04459">
        <ele>156</ele>
        <time>2011-05-12T17:16:07Z</time>
      </trkpt>
      <trkpt lat="43.61462" lon="7.04457">
        <ele>156</ele>
        <time>2011-05-12T17:16:38Z</time>
      </trkpt>
      <trkpt lat="43.61469" lon="7.04451">
        <ele>156</ele>
        <time>2011-05-12T17:16:43Z</time>
      </trkpt>
      <trkpt lat="43.61496" lon="7.0444">
        <ele>156</ele>
        <time>2011-05-12T17:16:48Z</time>
      </trkpt>
      <trkpt lat="43.61533" lon="7.04429">
        <ele>156</ele>
        <time>2011-05-12T17:16:53Z</time>
      </trkpt>
      <trkpt lat="43.61565" lon="7.04428">
        <ele>156</ele>
        <time>2011-05-12T17:16:58Z</time>
      </trkpt>
      <trkpt lat="43.61598" lon="7.04462">
        <ele>156</ele>
        <time>2011-05-12T17:17:03Z</time>
      </trkpt>
      <trkpt lat="43.61627" lon="7.0451">
        <ele>154</ele>
        <time>2011-05-12T17:17:08Z</time>
      </trkpt>
      <trkpt lat="43.61652" lon="7.04555">
        <ele>152</ele>
        <time>2011-05-12T17:17:13Z</time>
      </trkpt>
      <trkpt lat="43.61673" lon="7.04601">
        <ele>151</ele>
        <time>2011-05-12T17:17:18Z</time>
      </trkpt>
      <trkpt lat="43.61694" lon="7.04648">
        <ele>150</ele>
        <time>2011-05-12T17:17:23Z</time>
      </trkpt>
      <trkpt lat="43.61711" lon="7.04696">
        <ele>150</ele>
        <time>2011-05-12T17:17:28Z</time>
      </trkpt>
      <trkpt lat="43.61723" lon="7.04738">
        <ele>149</ele>
        <time>2011-05-12T17:17:33Z</time>
      </trkpt>
      <trkpt lat="43.61735" lon="7.0477">
        <ele>147</ele>
        <time>2011-05-12T17:17:38Z</time>
      </trkpt>
      <trkpt lat="43.61742" lon="7.04807">
        <ele>146</ele>
        <time>2011-05-12T17:17:43Z</time>
      </trkpt>
      <trkpt lat="43.61744" lon="7.04823">
        <ele>144</ele>
        <time>2011-05-12T17:17:48Z</time>
      </trkpt>
      <trkpt lat="43.61756" lon="7.04816">
        <ele>140</ele>
        <time>2011-05-12T17:17:53Z</time>
      </trkpt>
      <trkpt lat="43.61773" lon="7.04817">
        <ele>135</ele>
        <time>2011-05-12T17:17:58Z</time>
      </trkpt>
      <trkpt lat="43.6179" lon="7.04815">
        <ele>130</ele>
        <time>2011-05-12T17:18:03Z</time>
      </trkpt>
      <trkpt lat="43.61799" lon="7.04818">
        <ele>125</ele>
        <time>2011-05-12T17:18:08Z</time>
      </trkpt>
      <trkpt lat="43.61812" lon="7.04821">
        <ele>120</ele>
        <time>2011-05-12T17:18:13Z</time>
      </trkpt>
      <trkpt lat="43.61815" lon="7.0482">
        <ele>117</ele>
        <time>2011-05-12T17:18:19Z</time>
      </trkpt>
      <trkpt lat="43.61816" lon="7.04822">
        <ele>117</ele>
        <time>2011-05-12T17:18:25Z</time>
      </trkpt>
      <trkpt lat="43.61814" lon="7.04822">
        <ele>118</ele>
        <time>2011-05-12T17:18:33Z</time>
      </trkpt>
      <trkpt lat="43.61813" lon="7.04821">
        <ele>120</ele>
        <time>2011-05-12T17:18:45Z</time>
      </trkpt>
      <trkpt lat="43.61814" lon="7.04822">
        <ele>120</ele>
        <time>2011-05-12T17:18:57Z</time>
      </trkpt>
      <trkpt lat="43.61815" lon="7.04824">
        <ele>120</ele>
        <time>2011-05-12T17:19:10Z</time>
      </trkpt>
      <trkpt lat="43.61816" lon="7.04825">
        <ele>125</ele>
        <time>2011-05-12T17:19:19Z</time>
      </trkpt>
      <trkpt lat="43.61815" lon="7.04827">
        <ele>126</ele>
        <time>2011-05-12T17:19:26Z</time>
      </trkpt>
      <trkpt lat="43.61814" lon="7.04829">
        <ele>127</ele>
        <time>2011-05-12T17:19:35Z</time>
      </trkpt>
      <trkpt lat="43.61813" lon="7.04829">
        <ele>129</ele>
        <time>2011-05-12T17:19:51Z</time>
      </trkpt>
      <trkpt lat="43.61815" lon="7.04825">
        <ele>129</ele>
        <time>2011-05-12T17:19:56Z</time>
      </trkpt>
      <trkpt lat="43.61827" lon="7.0482">
        <ele>129</ele>
        <time>2011-05-12T17:20:01Z</time>
      </trkpt>
      <trkpt lat="43.61843" lon="7.04806">
        <ele>129</ele>
        <time>2011-05-12T17:20:06Z</time>
      </trkpt>
      <trkpt lat="43.61863" lon="7.04804">
        <ele>129</ele>
        <time>2011-05-12T17:20:11Z</time>
      </trkpt>
      <trkpt lat="43.61879" lon="7.04825">
        <ele>129</ele>
        <time>2011-05-12T17:20:16Z</time>
      </trkpt>
      <trkpt lat="43.61897" lon="7.04834">
        <ele>129</ele>
        <time>2011-05-12T17:20:21Z</time>
      </trkpt>
      <trkpt lat="43.61915" lon="7.04844">
        <ele>128</ele>
        <time>2011-05-12T17:20:26Z</time>
      </trkpt>
      <trkpt lat="43.61929" lon="7.04867">
        <ele>124</ele>
        <time>2011-05-12T17:20:31Z</time>
      </trkpt>
      <trkpt lat="43.6195" lon="7.04883">
        <ele>123</ele>
        <time>2011-05-12T17:20:36Z</time>
      </trkpt>
      <trkpt lat="43.61982" lon="7.04884">
        <ele>121</ele>
        <time>2011-05-12T17:20:41Z</time>
      </trkpt>
      <trkpt lat="43.62019" lon="7.0488">
        <ele>120</ele>
        <time>2011-05-12T17:20:46Z</time>
      </trkpt>
      <trkpt lat="43.62046" lon="7.04887">
        <ele>119</ele>
        <time>2011-05-12T17:20:51Z</time>
      </trkpt>
      <trkpt lat="43.62069" lon="7.04926">
        <ele>118</ele>
        <time>2011-05-12T17:20:56Z</time>
      </trkpt>
      <trkpt lat="43.62086" lon="7.04959">
        <ele>118</ele>
        <time>2011-05-12T17:21:01Z</time>
      </trkpt>
      <trkpt lat="43.62096" lon="7.04983">
        <ele>118</ele>
        <time>2011-05-12T17:21:06Z</time>
      </trkpt>
      <trkpt lat="43.62107" lon="7.05012">
        <ele>118</ele>
        <time>2011-05-12T17:21:11Z</time>
      </trkpt>
      <trkpt lat="43.62111" lon="7.05039">
        <ele>118</ele>
        <time>2011-05-12T17:21:16Z</time>
      </trkpt>
      <trkpt lat="43.62114" lon="7.05053">
        <ele>118</ele>
        <time>2011-05-12T17:21:23Z</time>
      </trkpt>
      <trkpt lat="43.62117" lon="7.05056">
        <ele>119</ele>
        <time>2011-05-12T17:21:30Z</time>
      </trkpt>
      <trkpt lat="43.62122" lon="7.0506">
        <ele>122</ele>
        <time>2011-05-12T17:21:35Z</time>
      </trkpt>
      <trkpt lat="43.62121" lon="7.05067">
        <ele>123</ele>
        <time>2011-05-12T17:21:40Z</time>
      </trkpt>
      <trkpt lat="43.62119" lon="7.05077">
        <ele>124</ele>
        <time>2011-05-12T17:21:45Z</time>
      </trkpt>
      <trkpt lat="43.62121" lon="7.05085">
        <ele>125</ele>
        <time>2011-05-12T17:21:50Z</time>
      </trkpt>
      <trkpt lat="43.62123" lon="7.05092">
        <ele>127</ele>
        <time>2011-05-12T17:21:56Z</time>
      </trkpt>
      <trkpt lat="43.62122" lon="7.05104">
        <ele>128</ele>
        <time>2011-05-12T17:22:01Z</time>
      </trkpt>
      <trkpt lat="43.62118" lon="7.05122">
        <ele>130</ele>
        <time>2011-05-12T17:22:06Z</time>
      </trkpt>
      <trkpt lat="43.62114" lon="7.05142">
        <ele>131</ele>
        <time>2011-05-12T17:22:11Z</time>
      </trkpt>
      <trkpt lat="43.62109" lon="7.05167">
        <ele>131</ele>
        <time>2011-05-12T17:22:16Z</time>
      </trkpt>
      <trkpt lat="43.62102" lon="7.05199">
        <ele>131</ele>
        <time>2011-05-12T17:22:21Z</time>
      </trkpt>
      <trkpt lat="43.62096" lon="7.0524">
        <ele>129</ele>
        <time>2011-05-12T17:22:26Z</time>
      </trkpt>
      <trkpt lat="43.62085" lon="7.05281">
        <ele>125</ele>
        <time>2011-05-12T17:22:31Z</time>
      </trkpt>
      <trkpt lat="43.62081" lon="7.05321">
        <ele>121</ele>
        <time>2011-05-12T17:22:36Z</time>
      </trkpt>
      <trkpt lat="43.62089" lon="7.05364">
        <ele>118</ele>
        <time>2011-05-12T17:22:41Z</time>
      </trkpt>
      <trkpt lat="43.62104" lon="7.054">
        <ele>116</ele>
        <time>2011-05-12T17:22:46Z</time>
      </trkpt>
      <trkpt lat="43.62126" lon="7.05419">
        <ele>115</ele>
        <time>2011-05-12T17:22:51Z</time>
      </trkpt>
      <trkpt lat="43.62141" lon="7.05432">
        <ele>115</ele>
        <time>2011-05-12T17:22:56Z</time>
      </trkpt>
      <trkpt lat="43.6215" lon="7.05453">
        <ele>115</ele>
        <time>2011-05-12T17:23:01Z</time>
      </trkpt>
      <trkpt lat="43.62164" lon="7.05479">
        <ele>115</ele>
        <time>2011-05-12T17:23:06Z</time>
      </trkpt>
      <trkpt lat="43.62182" lon="7.05505">
        <ele>115</ele>
        <time>2011-05-12T17:23:11Z</time>
      </trkpt>
      <trkpt lat="43.62202" lon="7.05516">
        <ele>115</ele>
        <time>2011-05-12T17:23:16Z</time>
      </trkpt>
      <trkpt lat="43.62225" lon="7.05528">
        <ele>114</ele>
        <time>2011-05-12T17:23:21Z</time>
      </trkpt>
      <trkpt lat="43.6224" lon="7.05556">
        <ele>112</ele>
        <time>2011-05-12T17:23:26Z</time>
      </trkpt>
      <trkpt lat="43.62244" lon="7.05583">
        <ele>112</ele>
        <time>2011-05-12T17:23:31Z</time>
      </trkpt>
      <trkpt lat="43.62259" lon="7.05584">
        <ele>112</ele>
        <time>2011-05-12T17:23:36Z</time>
      </trkpt>
      <trkpt lat="43.62265" lon="7.05579">
        <ele>112</ele>
        <time>2011-05-12T17:23:41Z</time>
      </trkpt>
      <trkpt lat="43.62266" lon="7.0558">
        <ele>112</ele>
        <time>2011-05-12T17:23:46Z</time>
      </trkpt>
      <trkpt lat="43.62264" lon="7.05579">
        <ele>112</ele>
        <time>2011-05-12T17:23:52Z</time>
      </trkpt>
      <trkpt lat="43.62262" lon="7.05581">
        <ele>112</ele>
        <time>2011-05-12T17:23:58Z</time>
      </trkpt>
      <trkpt lat="43.62265" lon="7.05578">
        <ele>111</ele>
        <time>2011-05-12T17:24:09Z</time>
      </trkpt>
      <trkpt lat="43.62268" lon="7.05577">
        <ele>110</ele>
        <time>2011-05-12T17:24:35Z</time>
      </trkpt>
      <trkpt lat="43.62268" lon="7.05576">
        <ele>109</ele>
        <time>2011-05-12T17:24:46Z</time>
      </trkpt>
      <trkpt lat="43.62268" lon="7.05575">
        <ele>109</ele>
        <time>2011-05-12T17:24:53Z</time>
      </trkpt>
      <trkpt lat="43.62271" lon="7.05576">
        <ele>109</ele>
        <time>2011-05-12T17:24:58Z</time>
      </trkpt>
      <trkpt lat="43.6227" lon="7.05576">
        <ele>108</ele>
        <time>2011-05-12T17:25:04Z</time>
      </trkpt>
      <trkpt lat="43.62271" lon="7.05576">
        <ele>108</ele>
        <time>2011-05-12T17:25:19Z</time>
      </trkpt>
      <trkpt lat="43.6227" lon="7.05576">
        <ele>108</ele>
        <time>2011-05-12T17:25:25Z</time>
      </trkpt>
      <trkpt lat="43.62269" lon="7.05576">
        <ele>108</ele>
        <time>2011-05-12T17:25:31Z</time>
      </trkpt>
      <trkpt lat="43.62268" lon="7.05576">
        <ele>108</ele>
        <time>2011-05-12T17:25:43Z</time>
      </trkpt>
      <trkpt lat="43.62266" lon="7.05576">
        <ele>108</ele>
        <time>2011-05-12T17:25:52Z</time>
      </trkpt>
      <trkpt lat="43.62265" lon="7.05576">
        <ele>108</ele>
        <time>2011-05-12T17:26:03Z</time>
      </trkpt>
      <trkpt lat="43.62264" lon="7.05577">
        <ele>109</ele>
        <time>2011-05-12T17:26:10Z</time>
      </trkpt>
      <trkpt lat="43.62265" lon="7.05578">
        <ele>110</ele>
        <time>2011-05-12T17:26:22Z</time>
      </trkpt>
      <trkpt lat="43.62266" lon="7.05577">
        <ele>110</ele>
        <time>2011-05-12T17:26:29Z</time>
      </trkpt>
      <trkpt lat="43.62272" lon="7.05571">
        <ele>110</ele>
        <time>2011-05-12T17:26:34Z</time>
      </trkpt>
      <trkpt lat="43.62281" lon="7.05559">
        <ele>110</ele>
        <time>2011-05-12T17:26:39Z</time>
      </trkpt>
      <trkpt lat="43.62289" lon="7.0555">
        <ele>110</ele>
        <time>2011-05-12T17:26:44Z</time>
      </trkpt>
      <trkpt lat="43.62299" lon="7.05542">
        <ele>110</ele>
        <time>2011-05-12T17:26:49Z</time>
      </trkpt>
      <trkpt lat="43.6231" lon="7.05534">
        <ele>110</ele>
        <time>2011-05-12T17:26:54Z</time>
      </trkpt>
      <trkpt lat="43.62324" lon="7.0553">
        <ele>110</ele>
        <time>2011-05-12T17:26:59Z</time>
      </trkpt>
      <trkpt lat="43.62339" lon="7.05527">
        <ele>112</ele>
        <time>2011-05-12T17:27:04Z</time>
      </trkpt>
      <trkpt lat="43.62354" lon="7.05518">
        <ele>113</ele>
        <time>2011-05-12T17:27:09Z</time>
      </trkpt>
      <trkpt lat="43.62372" lon="7.05505">
        <ele>113</ele>
        <time>2011-05-12T17:27:14Z</time>
      </trkpt>
      <trkpt lat="43.62388" lon="7.05516">
        <ele>113</ele>
        <time>2011-05-12T17:27:19Z</time>
      </trkpt>
      <trkpt lat="43.62401" lon="7.05531">
        <ele>114</ele>
        <time>2011-05-12T17:27:24Z</time>
      </trkpt>
      <trkpt lat="43.62415" lon="7.05546">
        <ele>117</ele>
        <time>2011-05-12T17:27:29Z</time>
      </trkpt>
      <trkpt lat="43.62431" lon="7.05563">
        <ele>118</ele>
        <time>2011-05-12T17:27:34Z</time>
      </trkpt>
      <trkpt lat="43.62447" lon="7.05582">
        <ele>118</ele>
        <time>2011-05-12T17:27:39Z</time>
      </trkpt>
      <trkpt lat="43.62435" lon="7.056">
        <ele>118</ele>
        <time>2011-05-12T17:27:44Z</time>
      </trkpt>
      <trkpt lat="43.62432" lon="7.05623">
        <ele>118</ele>
        <time>2011-05-12T17:27:49Z</time>
      </trkpt>
      <trkpt lat="43.62437" lon="7.05644">
        <ele>118</ele>
        <time>2011-05-12T17:27:54Z</time>
      </trkpt>
      <trkpt lat="43.62435" lon="7.05662">
        <ele>120</ele>
        <time>2011-05-12T17:27:59Z</time>
      </trkpt>
      <trkpt lat="43.62438" lon="7.05679">
        <ele>122</ele>
        <time>2011-05-12T17:28:04Z</time>
      </trkpt>
      <trkpt lat="43.6244" lon="7.05692">
        <ele>125</ele>
        <time>2011-05-12T17:28:09Z</time>
      </trkpt>
      <trkpt lat="43.62445" lon="7.05706">
        <ele>127</ele>
        <time>2011-05-12T17:28:14Z</time>
      </trkpt>
      <trkpt lat="43.62449" lon="7.05721">
        <ele>129</ele>
        <time>2011-05-12T17:28:19Z</time>
      </trkpt>
      <trkpt lat="43.62461" lon="7.05731">
        <ele>129</ele>
        <time>2011-05-12T17:28:24Z</time>
      </trkpt>
      <trkpt lat="43.62471" lon="7.05746">
        <ele>130</ele>
        <time>2011-05-12T17:28:29Z</time>
      </trkpt>
      <trkpt lat="43.62473" lon="7.05765">
        <ele>131</ele>
        <time>2011-05-12T17:28:34Z</time>
      </trkpt>
      <trkpt lat="43.62469" lon="7.05782">
        <ele>132</ele>
        <time>2011-05-12T17:28:39Z</time>
      </trkpt>
      <trkpt lat="43.62463" lon="7.05797">
        <ele>134</ele>
        <time>2011-05-12T17:28:44Z</time>
      </trkpt>
      <trkpt lat="43.62455" lon="7.05809">
        <ele>136</ele>
        <time>2011-05-12T17:28:49Z</time>
      </trkpt>
      <trkpt lat="43.62444" lon="7.0582">
        <ele>138</ele>
        <time>2011-05-12T17:28:54Z</time>
      </trkpt>
      <trkpt lat="43.62434" lon="7.05831">
        <ele>139</ele>
        <time>2011-05-12T17:28:59Z</time>
      </trkpt>
      <trkpt lat="43.62425" lon="7.05843">
        <ele>140</ele>
        <time>2011-05-12T17:29:04Z</time>
      </trkpt>
      <trkpt lat="43.62422" lon="7.05854">
        <ele>140</ele>
        <time>2011-05-12T17:29:09Z</time>
      </trkpt>
      <trkpt lat="43.62418" lon="7.05873">
        <ele>141</ele>
        <time>2011-05-12T17:29:14Z</time>
      </trkpt>
      <trkpt lat="43.62414" lon="7.0589">
        <ele>142</ele>
        <time>2011-05-12T17:29:19Z</time>
      </trkpt>
      <trkpt lat="43.62411" lon="7.05902">
        <ele>143</ele>
        <time>2011-05-12T17:29:25Z</time>
      </trkpt>
      <trkpt lat="43.62414" lon="7.05902">
        <ele>144</ele>
        <time>2011-05-12T17:29:42Z</time>
      </trkpt>
      <trkpt lat="43.62415" lon="7.059">
        <ele>144</ele>
        <time>2011-05-12T17:29:48Z</time>
      </trkpt>
      <trkpt lat="43.62415" lon="7.059">
        <ele>144</ele>
        <time>2011-05-12T17:30:21Z</time>
      </trkpt>
      <trkpt lat="43.62414" lon="7.05901">
        <ele>144</ele>
        <time>2011-05-12T17:30:35Z</time>
      </trkpt>
      <trkpt lat="43.62415" lon="7.059">
        <ele>144</ele>
        <time>2011-05-12T17:30:41Z</time>
      </trkpt>
      <trkpt lat="43.62415" lon="7.05898">
        <ele>144</ele>
        <time>2011-05-12T17:30:47Z</time>
      </trkpt>
      <trkpt lat="43.62416" lon="7.05899">
        <ele>141</ele>
        <time>2011-05-12T17:31:00Z</time>
      </trkpt>
      <trkpt lat="43.62415" lon="7.05898">
        <ele>140</ele>
        <time>2011-05-12T17:31:08Z</time>
      </trkpt>
      <trkpt lat="43.62414" lon="7.05899">
        <ele>140</ele>
        <time>2011-05-12T17:31:18Z</time>
      </trkpt>
      <trkpt lat="43.62414" lon="7.05898">
        <ele>140</ele>
        <time>2011-05-12T17:31:38Z</time>
      </trkpt>
      <trkpt lat="43.62413" lon="7.05897">
        <ele>140</ele>
        <time>2011-05-12T17:31:45Z</time>
      </trkpt>
      <trkpt lat="43.62414" lon="7.05898">
        <ele>140</ele>
        <time>2011-05-12T17:32:00Z</time>
      </trkpt>
      <trkpt lat="43.62415" lon="7.05899">
        <ele>140</ele>
        <time>2011-05-12T17:32:20Z</time>
      </trkpt>
      <trkpt lat="43.62414" lon="7.059">
        <ele>140</ele>
        <time>2011-05-12T17:32:36Z</time>
      </trkpt>
      <trkpt lat="43.62413" lon="7.059">
        <ele>141</ele>
        <time>2011-05-12T17:33:46Z</time>
      </trkpt>
      <trkpt lat="43.62411" lon="7.05896">
        <ele>142</ele>
        <time>2011-05-12T17:33:57Z</time>
      </trkpt>
      <trkpt lat="43.62411" lon="7.05896">
        <ele>142</ele>
        <time>2011-05-12T17:34:09Z</time>
      </trkpt>
    </trkseg>
  </trk>
</gpx>